<?xml version="1.0" encoding="UTF-8" standalone="no" ?>
<gpx xmlns="http://www.topografix.com/GPX/1/1" xmlns:xsi="http://www.w3.org/2001/XMLSchema-instance" xsi:schemaLocation="http://www.topografix.com/GPX/1/1 http://www.topografix.com/GPX/1/1/gpx.xsd" version="1.1" creator="VisuGPX - https://www.visugpx.com">
  <metadata>
    <name>Ski Rando - Raid 2014 - Jour 1</name>
    <desc><![CDATA[Raid à ski , 4 jours dans la Haute Ariège en autonomie.]]></desc>
  </metadata>
  <trk>
    <name><![CDATA[11-MARS-14 17:24:41]]></name>
    <trkseg>
      <trkpt lat="42.66177" lon="1.78959">
        <ele>2298.65</ele>
        <time>2014-03-11T11:08:16Z</time>
      </trkpt>
      <trkpt lat="42.66178" lon="1.7896">
        <ele>2297.21</ele>
        <time>2014-03-11T11:08:29Z</time>
      </trkpt>
      <trkpt lat="42.66179" lon="1.78963">
        <ele>2297.21</ele>
        <time>2014-03-11T11:08:53Z</time>
      </trkpt>
      <trkpt lat="42.66179" lon="1.78963">
        <ele>2295.28</ele>
        <time>2014-03-11T11:09:05Z</time>
      </trkpt>
      <trkpt lat="42.66176" lon="1.78961">
        <ele>2295.28</ele>
        <time>2014-03-11T11:09:15Z</time>
      </trkpt>
      <trkpt lat="42.66173" lon="1.78957">
        <ele>2295.28</ele>
        <time>2014-03-11T11:09:19Z</time>
      </trkpt>
      <trkpt lat="42.6616" lon="1.78943">
        <ele>2294.8</ele>
        <time>2014-03-11T11:09:34Z</time>
      </trkpt>
      <trkpt lat="42.66151" lon="1.7893">
        <ele>2296.25</ele>
        <time>2014-03-11T11:09:47Z</time>
      </trkpt>
      <trkpt lat="42.66141" lon="1.78918">
        <ele>2297.69</ele>
        <time>2014-03-11T11:10:00Z</time>
      </trkpt>
      <trkpt lat="42.66133" lon="1.78909">
        <ele>2298.65</ele>
        <time>2014-03-11T11:10:14Z</time>
      </trkpt>
      <trkpt lat="42.66123" lon="1.78899">
        <ele>2300.09</ele>
        <time>2014-03-11T11:10:29Z</time>
      </trkpt>
      <trkpt lat="42.66115" lon="1.78891">
        <ele>2301.53</ele>
        <time>2014-03-11T11:10:42Z</time>
      </trkpt>
      <trkpt lat="42.66107" lon="1.78882">
        <ele>2304.42</ele>
        <time>2014-03-11T11:10:55Z</time>
      </trkpt>
      <trkpt lat="42.66096" lon="1.78873">
        <ele>2306.34</ele>
        <time>2014-03-11T11:11:10Z</time>
      </trkpt>
      <trkpt lat="42.66093" lon="1.7887">
        <ele>2306.82</ele>
        <time>2014-03-11T11:11:14Z</time>
      </trkpt>
      <trkpt lat="42.66081" lon="1.78862">
        <ele>2308.26</ele>
        <time>2014-03-11T11:11:28Z</time>
      </trkpt>
      <trkpt lat="42.66072" lon="1.78855">
        <ele>2309.22</ele>
        <time>2014-03-11T11:11:40Z</time>
      </trkpt>
      <trkpt lat="42.66064" lon="1.78846">
        <ele>2310.19</ele>
        <time>2014-03-11T11:11:51Z</time>
      </trkpt>
      <trkpt lat="42.66061" lon="1.78841">
        <ele>2310.67</ele>
        <time>2014-03-11T11:11:55Z</time>
      </trkpt>
      <trkpt lat="42.66048" lon="1.78826">
        <ele>2311.63</ele>
        <time>2014-03-11T11:12:11Z</time>
      </trkpt>
      <trkpt lat="42.66039" lon="1.78819">
        <ele>2311.63</ele>
        <time>2014-03-11T11:12:19Z</time>
      </trkpt>
      <trkpt lat="42.66026" lon="1.78808">
        <ele>2312.11</ele>
        <time>2014-03-11T11:12:35Z</time>
      </trkpt>
      <trkpt lat="42.66015" lon="1.78799">
        <ele>2313.55</ele>
        <time>2014-03-11T11:12:49Z</time>
      </trkpt>
      <trkpt lat="42.66006" lon="1.78792">
        <ele>2315.47</ele>
        <time>2014-03-11T11:13:02Z</time>
      </trkpt>
      <trkpt lat="42.65998" lon="1.78783">
        <ele>2316.43</ele>
        <time>2014-03-11T11:13:14Z</time>
      </trkpt>
      <trkpt lat="42.65989" lon="1.78776">
        <ele>2318.36</ele>
        <time>2014-03-11T11:13:28Z</time>
      </trkpt>
      <trkpt lat="42.65982" lon="1.7877">
        <ele>2319.8</ele>
        <time>2014-03-11T11:13:40Z</time>
      </trkpt>
      <trkpt lat="42.65975" lon="1.78764">
        <ele>2322.2</ele>
        <time>2014-03-11T11:13:53Z</time>
      </trkpt>
      <trkpt lat="42.65967" lon="1.78758">
        <ele>2324.61</ele>
        <time>2014-03-11T11:14:05Z</time>
      </trkpt>
      <trkpt lat="42.65961" lon="1.78754">
        <ele>2326.53</ele>
        <time>2014-03-11T11:14:17Z</time>
      </trkpt>
      <trkpt lat="42.65955" lon="1.78749">
        <ele>2328.45</ele>
        <time>2014-03-11T11:14:29Z</time>
      </trkpt>
      <trkpt lat="42.65948" lon="1.78745">
        <ele>2331.33</ele>
        <time>2014-03-11T11:14:42Z</time>
      </trkpt>
      <trkpt lat="42.65943" lon="1.78742">
        <ele>2333.74</ele>
        <time>2014-03-11T11:14:53Z</time>
      </trkpt>
      <trkpt lat="42.65936" lon="1.78738">
        <ele>2336.14</ele>
        <time>2014-03-11T11:15:06Z</time>
      </trkpt>
      <trkpt lat="42.65928" lon="1.78734">
        <ele>2338.54</ele>
        <time>2014-03-11T11:15:19Z</time>
      </trkpt>
      <trkpt lat="42.65922" lon="1.78732">
        <ele>2339.51</ele>
        <time>2014-03-11T11:15:30Z</time>
      </trkpt>
      <trkpt lat="42.65914" lon="1.78729">
        <ele>2340.95</ele>
        <time>2014-03-11T11:15:42Z</time>
      </trkpt>
      <trkpt lat="42.65906" lon="1.78724">
        <ele>2342.87</ele>
        <time>2014-03-11T11:15:54Z</time>
      </trkpt>
      <trkpt lat="42.65895" lon="1.78719">
        <ele>2344.31</ele>
        <time>2014-03-11T11:16:08Z</time>
      </trkpt>
      <trkpt lat="42.65884" lon="1.78715">
        <ele>2344.79</ele>
        <time>2014-03-11T11:16:22Z</time>
      </trkpt>
      <trkpt lat="42.65876" lon="1.78711">
        <ele>2346.72</ele>
        <time>2014-03-11T11:16:34Z</time>
      </trkpt>
      <trkpt lat="42.65871" lon="1.78708">
        <ele>2347.2</ele>
        <time>2014-03-11T11:16:40Z</time>
      </trkpt>
      <trkpt lat="42.65863" lon="1.78697">
        <ele>2348.16</ele>
        <time>2014-03-11T11:16:53Z</time>
      </trkpt>
      <trkpt lat="42.65859" lon="1.7869">
        <ele>2349.12</ele>
        <time>2014-03-11T11:17:00Z</time>
      </trkpt>
      <trkpt lat="42.65857" lon="1.78686">
        <ele>2350.56</ele>
        <time>2014-03-11T11:17:04Z</time>
      </trkpt>
      <trkpt lat="42.65854" lon="1.7868">
        <ele>2351.52</ele>
        <time>2014-03-11T11:17:11Z</time>
      </trkpt>
      <trkpt lat="42.6585" lon="1.78671">
        <ele>2352.48</ele>
        <time>2014-03-11T11:17:23Z</time>
      </trkpt>
      <trkpt lat="42.6585" lon="1.78672">
        <ele>2352</ele>
        <time>2014-03-11T11:17:40Z</time>
      </trkpt>
      <trkpt lat="42.65852" lon="1.78671">
        <ele>2352.48</ele>
        <time>2014-03-11T11:17:51Z</time>
      </trkpt>
      <trkpt lat="42.65852" lon="1.78671">
        <ele>2353.93</ele>
        <time>2014-03-11T11:18:23Z</time>
      </trkpt>
      <trkpt lat="42.65853" lon="1.78672">
        <ele>2355.85</ele>
        <time>2014-03-11T11:18:57Z</time>
      </trkpt>
      <trkpt lat="42.65852" lon="1.78672">
        <ele>2358.73</ele>
        <time>2014-03-11T11:19:24Z</time>
      </trkpt>
      <trkpt lat="42.65851" lon="1.7867">
        <ele>2355.37</ele>
        <time>2014-03-11T11:19:59Z</time>
      </trkpt>
      <trkpt lat="42.65851" lon="1.78671">
        <ele>2352</ele>
        <time>2014-03-11T11:20:36Z</time>
      </trkpt>
      <trkpt lat="42.65851" lon="1.78672">
        <ele>2349.6</ele>
        <time>2014-03-11T11:21:06Z</time>
      </trkpt>
      <trkpt lat="42.6585" lon="1.78673">
        <ele>2346.72</ele>
        <time>2014-03-11T11:21:43Z</time>
      </trkpt>
      <trkpt lat="42.6585" lon="1.78673">
        <ele>2346.23</ele>
        <time>2014-03-11T11:22:11Z</time>
      </trkpt>
      <trkpt lat="42.6585" lon="1.78673">
        <ele>2346.72</ele>
        <time>2014-03-11T11:22:28Z</time>
      </trkpt>
      <trkpt lat="42.65851" lon="1.78671">
        <ele>2348.64</ele>
        <time>2014-03-11T11:22:48Z</time>
      </trkpt>
      <trkpt lat="42.6585" lon="1.7867">
        <ele>2348.64</ele>
        <time>2014-03-11T11:23:27Z</time>
      </trkpt>
      <trkpt lat="42.65849" lon="1.7867">
        <ele>2347.68</ele>
        <time>2014-03-11T11:24:01Z</time>
      </trkpt>
      <trkpt lat="42.65849" lon="1.78671">
        <ele>2347.68</ele>
        <time>2014-03-11T11:24:41Z</time>
      </trkpt>
      <trkpt lat="42.6585" lon="1.78672">
        <ele>2350.08</ele>
        <time>2014-03-11T11:25:08Z</time>
      </trkpt>
      <trkpt lat="42.65851" lon="1.78674">
        <ele>2350.08</ele>
        <time>2014-03-11T11:25:25Z</time>
      </trkpt>
      <trkpt lat="42.65851" lon="1.78673">
        <ele>2350.56</ele>
        <time>2014-03-11T11:25:46Z</time>
      </trkpt>
      <trkpt lat="42.65852" lon="1.78673">
        <ele>2349.6</ele>
        <time>2014-03-11T11:26:04Z</time>
      </trkpt>
      <trkpt lat="42.65852" lon="1.78672">
        <ele>2349.6</ele>
        <time>2014-03-11T11:26:19Z</time>
      </trkpt>
      <trkpt lat="42.65851" lon="1.78674">
        <ele>2350.08</ele>
        <time>2014-03-11T11:26:30Z</time>
      </trkpt>
      <trkpt lat="42.65868" lon="1.78704">
        <ele>2346.72</ele>
        <time>2014-03-11T11:26:40Z</time>
      </trkpt>
      <trkpt lat="42.65879" lon="1.78703">
        <ele>2344.31</ele>
        <time>2014-03-11T11:26:45Z</time>
      </trkpt>
      <trkpt lat="42.65881" lon="1.78697">
        <ele>2343.35</ele>
        <time>2014-03-11T11:26:46Z</time>
      </trkpt>
      <trkpt lat="42.65882" lon="1.78689">
        <ele>2342.39</ele>
        <time>2014-03-11T11:26:47Z</time>
      </trkpt>
      <trkpt lat="42.65881" lon="1.78681">
        <ele>2341.43</ele>
        <time>2014-03-11T11:26:48Z</time>
      </trkpt>
      <trkpt lat="42.65879" lon="1.78672">
        <ele>2340.47</ele>
        <time>2014-03-11T11:26:49Z</time>
      </trkpt>
      <trkpt lat="42.65876" lon="1.78663">
        <ele>2339.51</ele>
        <time>2014-03-11T11:26:50Z</time>
      </trkpt>
      <trkpt lat="42.65873" lon="1.78654">
        <ele>2339.02</ele>
        <time>2014-03-11T11:26:51Z</time>
      </trkpt>
      <trkpt lat="42.6587" lon="1.78647">
        <ele>2338.54</ele>
        <time>2014-03-11T11:26:52Z</time>
      </trkpt>
      <trkpt lat="42.65848" lon="1.78605">
        <ele>2338.54</ele>
        <time>2014-03-11T11:26:59Z</time>
      </trkpt>
      <trkpt lat="42.65844" lon="1.78601">
        <ele>2338.06</ele>
        <time>2014-03-11T11:27:00Z</time>
      </trkpt>
      <trkpt lat="42.65824" lon="1.78581">
        <ele>2338.06</ele>
        <time>2014-03-11T11:27:06Z</time>
      </trkpt>
      <trkpt lat="42.65817" lon="1.78577">
        <ele>2337.58</ele>
        <time>2014-03-11T11:27:08Z</time>
      </trkpt>
      <trkpt lat="42.65785" lon="1.78563">
        <ele>2335.18</ele>
        <time>2014-03-11T11:27:15Z</time>
      </trkpt>
      <trkpt lat="42.65781" lon="1.78558">
        <ele>2334.7</ele>
        <time>2014-03-11T11:27:16Z</time>
      </trkpt>
      <trkpt lat="42.65777" lon="1.78555">
        <ele>2334.22</ele>
        <time>2014-03-11T11:27:17Z</time>
      </trkpt>
      <trkpt lat="42.65772" lon="1.78554">
        <ele>2333.74</ele>
        <time>2014-03-11T11:27:18Z</time>
      </trkpt>
      <trkpt lat="42.65767" lon="1.78553">
        <ele>2333.26</ele>
        <time>2014-03-11T11:27:19Z</time>
      </trkpt>
      <trkpt lat="42.65762" lon="1.78551">
        <ele>2332.3</ele>
        <time>2014-03-11T11:27:20Z</time>
      </trkpt>
      <trkpt lat="42.65757" lon="1.78548">
        <ele>2331.81</ele>
        <time>2014-03-11T11:27:21Z</time>
      </trkpt>
      <trkpt lat="42.65752" lon="1.78546">
        <ele>2330.37</ele>
        <time>2014-03-11T11:27:22Z</time>
      </trkpt>
      <trkpt lat="42.65746" lon="1.78543">
        <ele>2329.41</ele>
        <time>2014-03-11T11:27:23Z</time>
      </trkpt>
      <trkpt lat="42.6574" lon="1.78538">
        <ele>2327.97</ele>
        <time>2014-03-11T11:27:24Z</time>
      </trkpt>
      <trkpt lat="42.65734" lon="1.78536">
        <ele>2326.53</ele>
        <time>2014-03-11T11:27:25Z</time>
      </trkpt>
      <trkpt lat="42.65726" lon="1.78534">
        <ele>2324.61</ele>
        <time>2014-03-11T11:27:26Z</time>
      </trkpt>
      <trkpt lat="42.6572" lon="1.78529">
        <ele>2323.16</ele>
        <time>2014-03-11T11:27:27Z</time>
      </trkpt>
      <trkpt lat="42.65713" lon="1.78524">
        <ele>2321.72</ele>
        <time>2014-03-11T11:27:28Z</time>
      </trkpt>
      <trkpt lat="42.65705" lon="1.78522">
        <ele>2320.28</ele>
        <time>2014-03-11T11:27:29Z</time>
      </trkpt>
      <trkpt lat="42.65697" lon="1.7852">
        <ele>2318.36</ele>
        <time>2014-03-11T11:27:30Z</time>
      </trkpt>
      <trkpt lat="42.6569" lon="1.78515">
        <ele>2317.4</ele>
        <time>2014-03-11T11:27:31Z</time>
      </trkpt>
      <trkpt lat="42.65683" lon="1.78509">
        <ele>2315.95</ele>
        <time>2014-03-11T11:27:32Z</time>
      </trkpt>
      <trkpt lat="42.65675" lon="1.78506">
        <ele>2314.51</ele>
        <time>2014-03-11T11:27:33Z</time>
      </trkpt>
      <trkpt lat="42.65668" lon="1.78503">
        <ele>2314.03</ele>
        <time>2014-03-11T11:27:34Z</time>
      </trkpt>
      <trkpt lat="42.65639" lon="1.78491">
        <ele>2311.63</ele>
        <time>2014-03-11T11:27:38Z</time>
      </trkpt>
      <trkpt lat="42.65635" lon="1.78487">
        <ele>2312.11</ele>
        <time>2014-03-11T11:27:39Z</time>
      </trkpt>
      <trkpt lat="42.65634" lon="1.78484">
        <ele>2312.59</ele>
        <time>2014-03-11T11:27:40Z</time>
      </trkpt>
      <trkpt lat="42.65634" lon="1.78481">
        <ele>2312.59</ele>
        <time>2014-03-11T11:27:41Z</time>
      </trkpt>
      <trkpt lat="42.65633" lon="1.78479">
        <ele>2313.55</ele>
        <time>2014-03-11T11:27:49Z</time>
      </trkpt>
      <trkpt lat="42.65634" lon="1.78477">
        <ele>2314.51</ele>
        <time>2014-03-11T11:28:07Z</time>
      </trkpt>
      <trkpt lat="42.65634" lon="1.78479">
        <ele>2314.99</ele>
        <time>2014-03-11T11:28:23Z</time>
      </trkpt>
      <trkpt lat="42.65635" lon="1.7848">
        <ele>2314.99</ele>
        <time>2014-03-11T11:28:25Z</time>
      </trkpt>
      <trkpt lat="42.65636" lon="1.78482">
        <ele>2314.51</ele>
        <time>2014-03-11T11:28:26Z</time>
      </trkpt>
      <trkpt lat="42.65637" lon="1.78483">
        <ele>2314.51</ele>
        <time>2014-03-11T11:28:27Z</time>
      </trkpt>
      <trkpt lat="42.65638" lon="1.78485">
        <ele>2314.51</ele>
        <time>2014-03-11T11:28:28Z</time>
      </trkpt>
      <trkpt lat="42.6564" lon="1.78487">
        <ele>2314.03</ele>
        <time>2014-03-11T11:28:29Z</time>
      </trkpt>
      <trkpt lat="42.65645" lon="1.78493">
        <ele>2313.07</ele>
        <time>2014-03-11T11:28:31Z</time>
      </trkpt>
      <trkpt lat="42.65646" lon="1.78492">
        <ele>2313.07</ele>
        <time>2014-03-11T11:28:32Z</time>
      </trkpt>
      <trkpt lat="42.65646" lon="1.78488">
        <ele>2313.07</ele>
        <time>2014-03-11T11:28:40Z</time>
      </trkpt>
      <trkpt lat="42.65646" lon="1.78487">
        <ele>2313.07</ele>
        <time>2014-03-11T11:28:42Z</time>
      </trkpt>
      <trkpt lat="42.65645" lon="1.78485">
        <ele>2313.07</ele>
        <time>2014-03-11T11:28:48Z</time>
      </trkpt>
      <trkpt lat="42.65649" lon="1.78482">
        <ele>2311.63</ele>
        <time>2014-03-11T11:28:50Z</time>
      </trkpt>
      <trkpt lat="42.65654" lon="1.78482">
        <ele>2310.19</ele>
        <time>2014-03-11T11:28:51Z</time>
      </trkpt>
      <trkpt lat="42.65658" lon="1.78482">
        <ele>2309.7</ele>
        <time>2014-03-11T11:28:52Z</time>
      </trkpt>
      <trkpt lat="42.6566" lon="1.78483">
        <ele>2309.22</ele>
        <time>2014-03-11T11:28:53Z</time>
      </trkpt>
      <trkpt lat="42.65661" lon="1.78483">
        <ele>2308.74</ele>
        <time>2014-03-11T11:28:54Z</time>
      </trkpt>
      <trkpt lat="42.65662" lon="1.78479">
        <ele>2307.3</ele>
        <time>2014-03-11T11:28:56Z</time>
      </trkpt>
      <trkpt lat="42.65632" lon="1.78447">
        <ele>2303.94</ele>
        <time>2014-03-11T11:29:08Z</time>
      </trkpt>
      <trkpt lat="42.65607" lon="1.78427">
        <ele>2302.01</ele>
        <time>2014-03-11T11:29:21Z</time>
      </trkpt>
      <trkpt lat="42.65585" lon="1.78411">
        <ele>2301.53</ele>
        <time>2014-03-11T11:29:33Z</time>
      </trkpt>
      <trkpt lat="42.65554" lon="1.78393">
        <ele>2299.61</ele>
        <time>2014-03-11T11:29:48Z</time>
      </trkpt>
      <trkpt lat="42.65511" lon="1.78367">
        <ele>2296.25</ele>
        <time>2014-03-11T11:30:01Z</time>
      </trkpt>
      <trkpt lat="42.65489" lon="1.78346">
        <ele>2295.77</ele>
        <time>2014-03-11T11:30:13Z</time>
      </trkpt>
      <trkpt lat="42.65463" lon="1.78316">
        <ele>2293.36</ele>
        <time>2014-03-11T11:30:29Z</time>
      </trkpt>
      <trkpt lat="42.65436" lon="1.78291">
        <ele>2290.96</ele>
        <time>2014-03-11T11:30:43Z</time>
      </trkpt>
      <trkpt lat="42.65411" lon="1.78273">
        <ele>2290.96</ele>
        <time>2014-03-11T11:30:56Z</time>
      </trkpt>
      <trkpt lat="42.65386" lon="1.78259">
        <ele>2289.04</ele>
        <time>2014-03-11T11:31:10Z</time>
      </trkpt>
      <trkpt lat="42.65352" lon="1.78245">
        <ele>2287.11</ele>
        <time>2014-03-11T11:31:24Z</time>
      </trkpt>
      <trkpt lat="42.65325" lon="1.78233">
        <ele>2283.75</ele>
        <time>2014-03-11T11:31:34Z</time>
      </trkpt>
      <trkpt lat="42.65282" lon="1.78222">
        <ele>2280.38</ele>
        <time>2014-03-11T11:31:48Z</time>
      </trkpt>
      <trkpt lat="42.65225" lon="1.78204">
        <ele>2275.58</ele>
        <time>2014-03-11T11:32:04Z</time>
      </trkpt>
      <trkpt lat="42.65185" lon="1.78192">
        <ele>2273.66</ele>
        <time>2014-03-11T11:32:18Z</time>
      </trkpt>
      <trkpt lat="42.65129" lon="1.78178">
        <ele>2269.33</ele>
        <time>2014-03-11T11:32:36Z</time>
      </trkpt>
      <trkpt lat="42.65081" lon="1.78159">
        <ele>2260.2</ele>
        <time>2014-03-11T11:32:52Z</time>
      </trkpt>
      <trkpt lat="42.6507" lon="1.78154">
        <ele>2257.31</ele>
        <time>2014-03-11T11:32:54Z</time>
      </trkpt>
      <trkpt lat="42.65064" lon="1.78152">
        <ele>2256.83</ele>
        <time>2014-03-11T11:32:55Z</time>
      </trkpt>
      <trkpt lat="42.65004" lon="1.78154">
        <ele>2252.51</ele>
        <time>2014-03-11T11:33:08Z</time>
      </trkpt>
      <trkpt lat="42.64956" lon="1.78165">
        <ele>2249.14</ele>
        <time>2014-03-11T11:33:21Z</time>
      </trkpt>
      <trkpt lat="42.64954" lon="1.78166">
        <ele>2249.62</ele>
        <time>2014-03-11T11:33:35Z</time>
      </trkpt>
      <trkpt lat="42.64954" lon="1.78165">
        <ele>2248.66</ele>
        <time>2014-03-11T11:34:00Z</time>
      </trkpt>
      <trkpt lat="42.64952" lon="1.78166">
        <ele>2248.18</ele>
        <time>2014-03-11T11:34:14Z</time>
      </trkpt>
      <trkpt lat="42.6495" lon="1.78166">
        <ele>2248.18</ele>
        <time>2014-03-11T11:34:15Z</time>
      </trkpt>
      <trkpt lat="42.64906" lon="1.78177">
        <ele>2244.33</ele>
        <time>2014-03-11T11:34:26Z</time>
      </trkpt>
      <trkpt lat="42.64844" lon="1.78193">
        <ele>2238.09</ele>
        <time>2014-03-11T11:34:38Z</time>
      </trkpt>
      <trkpt lat="42.6474" lon="1.78224">
        <ele>2228.47</ele>
        <time>2014-03-11T11:34:53Z</time>
      </trkpt>
      <trkpt lat="42.64686" lon="1.78244">
        <ele>2226.55</ele>
        <time>2014-03-11T11:35:05Z</time>
      </trkpt>
      <trkpt lat="42.64617" lon="1.78246">
        <ele>2220.3</ele>
        <time>2014-03-11T11:35:19Z</time>
      </trkpt>
      <trkpt lat="42.64531" lon="1.78219">
        <ele>2211.65</ele>
        <time>2014-03-11T11:35:33Z</time>
      </trkpt>
      <trkpt lat="42.64525" lon="1.78216">
        <ele>2210.69</ele>
        <time>2014-03-11T11:35:34Z</time>
      </trkpt>
      <trkpt lat="42.64507" lon="1.78173">
        <ele>2207.81</ele>
        <time>2014-03-11T11:35:40Z</time>
      </trkpt>
      <trkpt lat="42.64508" lon="1.78157">
        <ele>2207.32</ele>
        <time>2014-03-11T11:35:42Z</time>
      </trkpt>
      <trkpt lat="42.64509" lon="1.78142">
        <ele>2207.32</ele>
        <time>2014-03-11T11:35:44Z</time>
      </trkpt>
      <trkpt lat="42.64509" lon="1.78135">
        <ele>2206.84</ele>
        <time>2014-03-11T11:35:45Z</time>
      </trkpt>
      <trkpt lat="42.6451" lon="1.78128">
        <ele>2206.84</ele>
        <time>2014-03-11T11:35:46Z</time>
      </trkpt>
      <trkpt lat="42.6451" lon="1.78121">
        <ele>2206.84</ele>
        <time>2014-03-11T11:35:47Z</time>
      </trkpt>
      <trkpt lat="42.64521" lon="1.78028">
        <ele>2202.52</ele>
        <time>2014-03-11T11:36:00Z</time>
      </trkpt>
      <trkpt lat="42.64552" lon="1.77946">
        <ele>2200.59</ele>
        <time>2014-03-11T11:36:13Z</time>
      </trkpt>
      <trkpt lat="42.64578" lon="1.7789">
        <ele>2202.52</ele>
        <time>2014-03-11T11:36:26Z</time>
      </trkpt>
      <trkpt lat="42.64597" lon="1.77848">
        <ele>2202.52</ele>
        <time>2014-03-11T11:36:36Z</time>
      </trkpt>
      <trkpt lat="42.64617" lon="1.778">
        <ele>2201.56</ele>
        <time>2014-03-11T11:36:47Z</time>
      </trkpt>
      <trkpt lat="42.64631" lon="1.77759">
        <ele>2199.63</ele>
        <time>2014-03-11T11:36:56Z</time>
      </trkpt>
      <trkpt lat="42.64655" lon="1.77723">
        <ele>2198.67</ele>
        <time>2014-03-11T11:37:06Z</time>
      </trkpt>
      <trkpt lat="42.64682" lon="1.77686">
        <ele>2196.75</ele>
        <time>2014-03-11T11:37:16Z</time>
      </trkpt>
      <trkpt lat="42.64705" lon="1.77655">
        <ele>2193.87</ele>
        <time>2014-03-11T11:37:25Z</time>
      </trkpt>
      <trkpt lat="42.64725" lon="1.77629">
        <ele>2190.98</ele>
        <time>2014-03-11T11:37:32Z</time>
      </trkpt>
      <trkpt lat="42.64737" lon="1.77609">
        <ele>2190.02</ele>
        <time>2014-03-11T11:37:38Z</time>
      </trkpt>
      <trkpt lat="42.64741" lon="1.77607">
        <ele>2187.14</ele>
        <time>2014-03-11T11:37:49Z</time>
      </trkpt>
      <trkpt lat="42.6474" lon="1.77607">
        <ele>2184.73</ele>
        <time>2014-03-11T11:38:01Z</time>
      </trkpt>
      <trkpt lat="42.6474" lon="1.77607">
        <ele>2183.77</ele>
        <time>2014-03-11T11:38:26Z</time>
      </trkpt>
      <trkpt lat="42.64741" lon="1.77605">
        <ele>2187.62</ele>
        <time>2014-03-11T11:39:00Z</time>
      </trkpt>
      <trkpt lat="42.64742" lon="1.77606">
        <ele>2187.14</ele>
        <time>2014-03-11T11:39:37Z</time>
      </trkpt>
      <trkpt lat="42.64742" lon="1.77604">
        <ele>2186.18</ele>
        <time>2014-03-11T11:40:13Z</time>
      </trkpt>
      <trkpt lat="42.6474" lon="1.77607">
        <ele>2185.69</ele>
        <time>2014-03-11T11:40:27Z</time>
      </trkpt>
      <trkpt lat="42.64739" lon="1.77604">
        <ele>2184.73</ele>
        <time>2014-03-11T11:40:52Z</time>
      </trkpt>
      <trkpt lat="42.64739" lon="1.77606">
        <ele>2183.77</ele>
        <time>2014-03-11T11:41:17Z</time>
      </trkpt>
      <trkpt lat="42.64739" lon="1.77608">
        <ele>2185.21</ele>
        <time>2014-03-11T11:41:41Z</time>
      </trkpt>
      <trkpt lat="42.64739" lon="1.77608">
        <ele>2184.25</ele>
        <time>2014-03-11T11:42:18Z</time>
      </trkpt>
      <trkpt lat="42.6474" lon="1.77608">
        <ele>2186.66</ele>
        <time>2014-03-11T11:42:52Z</time>
      </trkpt>
      <trkpt lat="42.64739" lon="1.77607">
        <ele>2185.69</ele>
        <time>2014-03-11T11:43:28Z</time>
      </trkpt>
      <trkpt lat="42.64737" lon="1.77605">
        <ele>2182.81</ele>
        <time>2014-03-11T11:43:55Z</time>
      </trkpt>
      <trkpt lat="42.64739" lon="1.77603">
        <ele>2183.29</ele>
        <time>2014-03-11T11:44:20Z</time>
      </trkpt>
      <trkpt lat="42.6474" lon="1.77606">
        <ele>2183.29</ele>
        <time>2014-03-11T11:44:39Z</time>
      </trkpt>
      <trkpt lat="42.64741" lon="1.77606">
        <ele>2185.21</ele>
        <time>2014-03-11T11:45:01Z</time>
      </trkpt>
      <trkpt lat="42.64738" lon="1.77605">
        <ele>2183.77</ele>
        <time>2014-03-11T11:45:26Z</time>
      </trkpt>
      <trkpt lat="42.6474" lon="1.77607">
        <ele>2184.25</ele>
        <time>2014-03-11T11:45:41Z</time>
      </trkpt>
      <trkpt lat="42.64741" lon="1.77608">
        <ele>2183.77</ele>
        <time>2014-03-11T11:46:00Z</time>
      </trkpt>
      <trkpt lat="42.6474" lon="1.77604">
        <ele>2183.77</ele>
        <time>2014-03-11T11:46:07Z</time>
      </trkpt>
      <trkpt lat="42.64741" lon="1.77589">
        <ele>2184.25</ele>
        <time>2014-03-11T11:46:19Z</time>
      </trkpt>
      <trkpt lat="42.64741" lon="1.77576">
        <ele>2184.73</ele>
        <time>2014-03-11T11:46:31Z</time>
      </trkpt>
      <trkpt lat="42.64741" lon="1.77565">
        <ele>2187.14</ele>
        <time>2014-03-11T11:46:43Z</time>
      </trkpt>
      <trkpt lat="42.64741" lon="1.77553">
        <ele>2188.1</ele>
        <time>2014-03-11T11:46:55Z</time>
      </trkpt>
      <trkpt lat="42.64742" lon="1.77537">
        <ele>2189.54</ele>
        <time>2014-03-11T11:47:09Z</time>
      </trkpt>
      <trkpt lat="42.64741" lon="1.77527">
        <ele>2190.5</ele>
        <time>2014-03-11T11:47:21Z</time>
      </trkpt>
      <trkpt lat="42.64739" lon="1.77515">
        <ele>2193.39</ele>
        <time>2014-03-11T11:47:34Z</time>
      </trkpt>
      <trkpt lat="42.64739" lon="1.77503">
        <ele>2195.31</ele>
        <time>2014-03-11T11:47:49Z</time>
      </trkpt>
      <trkpt lat="42.6474" lon="1.77495">
        <ele>2196.75</ele>
        <time>2014-03-11T11:48:01Z</time>
      </trkpt>
      <trkpt lat="42.64742" lon="1.77483">
        <ele>2198.67</ele>
        <time>2014-03-11T11:48:15Z</time>
      </trkpt>
      <trkpt lat="42.64743" lon="1.77472">
        <ele>2201.08</ele>
        <time>2014-03-11T11:48:30Z</time>
      </trkpt>
      <trkpt lat="42.64746" lon="1.77465">
        <ele>2202.04</ele>
        <time>2014-03-11T11:48:39Z</time>
      </trkpt>
      <trkpt lat="42.64749" lon="1.77458">
        <ele>2205.4</ele>
        <time>2014-03-11T11:48:52Z</time>
      </trkpt>
      <trkpt lat="42.64751" lon="1.77449">
        <ele>2208.29</ele>
        <time>2014-03-11T11:49:03Z</time>
      </trkpt>
      <trkpt lat="42.64753" lon="1.77443">
        <ele>2211.65</ele>
        <time>2014-03-11T11:49:14Z</time>
      </trkpt>
      <trkpt lat="42.64758" lon="1.77432">
        <ele>2213.09</ele>
        <time>2014-03-11T11:49:30Z</time>
      </trkpt>
      <trkpt lat="42.64761" lon="1.77426">
        <ele>2213.57</ele>
        <time>2014-03-11T11:49:39Z</time>
      </trkpt>
      <trkpt lat="42.64766" lon="1.7742">
        <ele>2215.5</ele>
        <time>2014-03-11T11:49:52Z</time>
      </trkpt>
      <trkpt lat="42.64773" lon="1.7741">
        <ele>2216.94</ele>
        <time>2014-03-11T11:50:07Z</time>
      </trkpt>
      <trkpt lat="42.64779" lon="1.77405">
        <ele>2220.3</ele>
        <time>2014-03-11T11:50:23Z</time>
      </trkpt>
      <trkpt lat="42.64784" lon="1.774">
        <ele>2221.74</ele>
        <time>2014-03-11T11:50:33Z</time>
      </trkpt>
      <trkpt lat="42.64792" lon="1.77394">
        <ele>2220.78</ele>
        <time>2014-03-11T11:50:47Z</time>
      </trkpt>
      <trkpt lat="42.64799" lon="1.77388">
        <ele>2220.78</ele>
        <time>2014-03-11T11:50:57Z</time>
      </trkpt>
      <trkpt lat="42.64803" lon="1.77378">
        <ele>2222.22</ele>
        <time>2014-03-11T11:51:06Z</time>
      </trkpt>
      <trkpt lat="42.64809" lon="1.77365">
        <ele>2222.71</ele>
        <time>2014-03-11T11:51:16Z</time>
      </trkpt>
      <trkpt lat="42.64813" lon="1.77359">
        <ele>2220.3</ele>
        <time>2014-03-11T11:51:25Z</time>
      </trkpt>
      <trkpt lat="42.64812" lon="1.77358">
        <ele>2219.34</ele>
        <time>2014-03-11T11:51:38Z</time>
      </trkpt>
      <trkpt lat="42.64813" lon="1.77358">
        <ele>2217.42</ele>
        <time>2014-03-11T11:51:58Z</time>
      </trkpt>
      <trkpt lat="42.64812" lon="1.77359">
        <ele>2217.9</ele>
        <time>2014-03-11T11:52:10Z</time>
      </trkpt>
      <trkpt lat="42.64812" lon="1.77359">
        <ele>2216.94</ele>
        <time>2014-03-11T11:52:23Z</time>
      </trkpt>
      <trkpt lat="42.64814" lon="1.7736">
        <ele>2217.9</ele>
        <time>2014-03-11T11:52:52Z</time>
      </trkpt>
      <trkpt lat="42.64813" lon="1.7736">
        <ele>2216.94</ele>
        <time>2014-03-11T11:53:20Z</time>
      </trkpt>
      <trkpt lat="42.64813" lon="1.77361">
        <ele>2216.94</ele>
        <time>2014-03-11T11:53:52Z</time>
      </trkpt>
      <trkpt lat="42.64814" lon="1.77361">
        <ele>2217.42</ele>
        <time>2014-03-11T11:54:16Z</time>
      </trkpt>
      <trkpt lat="42.64814" lon="1.77358">
        <ele>2215.98</ele>
        <time>2014-03-11T11:54:48Z</time>
      </trkpt>
      <trkpt lat="42.64814" lon="1.77358">
        <ele>2214.05</ele>
        <time>2014-03-11T11:55:22Z</time>
      </trkpt>
      <trkpt lat="42.64814" lon="1.77358">
        <ele>2215.01</ele>
        <time>2014-03-11T11:55:52Z</time>
      </trkpt>
      <trkpt lat="42.64815" lon="1.77359">
        <ele>2214.05</ele>
        <time>2014-03-11T11:56:26Z</time>
      </trkpt>
      <trkpt lat="42.64812" lon="1.77359">
        <ele>2216.46</ele>
        <time>2014-03-11T11:56:49Z</time>
      </trkpt>
      <trkpt lat="42.64812" lon="1.77359">
        <ele>2218.38</ele>
        <time>2014-03-11T11:57:23Z</time>
      </trkpt>
      <trkpt lat="42.64812" lon="1.77359">
        <ele>2220.78</ele>
        <time>2014-03-11T11:57:55Z</time>
      </trkpt>
      <trkpt lat="42.64812" lon="1.77359">
        <ele>2220.3</ele>
        <time>2014-03-11T11:58:27Z</time>
      </trkpt>
      <trkpt lat="42.64812" lon="1.77358">
        <ele>2219.82</ele>
        <time>2014-03-11T11:59:00Z</time>
      </trkpt>
      <trkpt lat="42.64813" lon="1.77358">
        <ele>2220.3</ele>
        <time>2014-03-11T11:59:15Z</time>
      </trkpt>
      <trkpt lat="42.64814" lon="1.77359">
        <ele>2219.34</ele>
        <time>2014-03-11T11:59:25Z</time>
      </trkpt>
      <trkpt lat="42.64814" lon="1.77359">
        <ele>2220.78</ele>
        <time>2014-03-11T11:59:43Z</time>
      </trkpt>
      <trkpt lat="42.64814" lon="1.77359">
        <ele>2219.34</ele>
        <time>2014-03-11T11:59:55Z</time>
      </trkpt>
      <trkpt lat="42.64814" lon="1.77359">
        <ele>2219.34</ele>
        <time>2014-03-11T12:00:06Z</time>
      </trkpt>
      <trkpt lat="42.64825" lon="1.77347">
        <ele>2216.94</ele>
        <time>2014-03-11T12:00:12Z</time>
      </trkpt>
      <trkpt lat="42.64828" lon="1.77346">
        <ele>2216.46</ele>
        <time>2014-03-11T12:00:13Z</time>
      </trkpt>
      <trkpt lat="42.64832" lon="1.77347">
        <ele>2215.98</ele>
        <time>2014-03-11T12:00:14Z</time>
      </trkpt>
      <trkpt lat="42.64834" lon="1.77346">
        <ele>2215.01</ele>
        <time>2014-03-11T12:00:15Z</time>
      </trkpt>
      <trkpt lat="42.64837" lon="1.77344">
        <ele>2214.05</ele>
        <time>2014-03-11T12:00:16Z</time>
      </trkpt>
      <trkpt lat="42.6484" lon="1.77343">
        <ele>2213.09</ele>
        <time>2014-03-11T12:00:17Z</time>
      </trkpt>
      <trkpt lat="42.64844" lon="1.77342">
        <ele>2212.61</ele>
        <time>2014-03-11T12:00:18Z</time>
      </trkpt>
      <trkpt lat="42.64847" lon="1.77341">
        <ele>2211.65</ele>
        <time>2014-03-11T12:00:19Z</time>
      </trkpt>
      <trkpt lat="42.64852" lon="1.77339">
        <ele>2212.13</ele>
        <time>2014-03-11T12:00:21Z</time>
      </trkpt>
      <trkpt lat="42.64858" lon="1.77326">
        <ele>2212.13</ele>
        <time>2014-03-11T12:00:30Z</time>
      </trkpt>
      <trkpt lat="42.64859" lon="1.77325">
        <ele>2212.13</ele>
        <time>2014-03-11T12:00:31Z</time>
      </trkpt>
      <trkpt lat="42.64859" lon="1.77322">
        <ele>2211.65</ele>
        <time>2014-03-11T12:00:32Z</time>
      </trkpt>
      <trkpt lat="42.64858" lon="1.77319">
        <ele>2211.17</ele>
        <time>2014-03-11T12:00:33Z</time>
      </trkpt>
      <trkpt lat="42.64855" lon="1.77319">
        <ele>2210.69</ele>
        <time>2014-03-11T12:00:35Z</time>
      </trkpt>
      <trkpt lat="42.64846" lon="1.77321">
        <ele>2208.29</ele>
        <time>2014-03-11T12:00:38Z</time>
      </trkpt>
      <trkpt lat="42.64843" lon="1.77318">
        <ele>2206.84</ele>
        <time>2014-03-11T12:00:40Z</time>
      </trkpt>
      <trkpt lat="42.64844" lon="1.77316">
        <ele>2205.88</ele>
        <time>2014-03-11T12:00:41Z</time>
      </trkpt>
      <trkpt lat="42.64846" lon="1.77314">
        <ele>2205.4</ele>
        <time>2014-03-11T12:00:42Z</time>
      </trkpt>
      <trkpt lat="42.64847" lon="1.77309">
        <ele>2204.92</ele>
        <time>2014-03-11T12:00:44Z</time>
      </trkpt>
      <trkpt lat="42.64844" lon="1.77307">
        <ele>2203.96</ele>
        <time>2014-03-11T12:00:45Z</time>
      </trkpt>
      <trkpt lat="42.64843" lon="1.77303">
        <ele>2203.48</ele>
        <time>2014-03-11T12:00:46Z</time>
      </trkpt>
      <trkpt lat="42.64844" lon="1.77299">
        <ele>2202.52</ele>
        <time>2014-03-11T12:00:47Z</time>
      </trkpt>
      <trkpt lat="42.64845" lon="1.77297">
        <ele>2201.56</ele>
        <time>2014-03-11T12:00:48Z</time>
      </trkpt>
      <trkpt lat="42.64844" lon="1.77294">
        <ele>2201.08</ele>
        <time>2014-03-11T12:00:49Z</time>
      </trkpt>
      <trkpt lat="42.64841" lon="1.77292">
        <ele>2200.11</ele>
        <time>2014-03-11T12:00:50Z</time>
      </trkpt>
      <trkpt lat="42.64841" lon="1.77288">
        <ele>2199.15</ele>
        <time>2014-03-11T12:00:51Z</time>
      </trkpt>
      <trkpt lat="42.64842" lon="1.77285">
        <ele>2198.19</ele>
        <time>2014-03-11T12:00:52Z</time>
      </trkpt>
      <trkpt lat="42.64841" lon="1.77282">
        <ele>2197.71</ele>
        <time>2014-03-11T12:00:53Z</time>
      </trkpt>
      <trkpt lat="42.64839" lon="1.7728">
        <ele>2197.23</ele>
        <time>2014-03-11T12:00:54Z</time>
      </trkpt>
      <trkpt lat="42.64837" lon="1.77275">
        <ele>2195.31</ele>
        <time>2014-03-11T12:00:56Z</time>
      </trkpt>
      <trkpt lat="42.64844" lon="1.77264">
        <ele>2191.94</ele>
        <time>2014-03-11T12:01:03Z</time>
      </trkpt>
      <trkpt lat="42.64843" lon="1.77261">
        <ele>2190.98</ele>
        <time>2014-03-11T12:01:04Z</time>
      </trkpt>
      <trkpt lat="42.64842" lon="1.77259">
        <ele>2189.54</ele>
        <time>2014-03-11T12:01:05Z</time>
      </trkpt>
      <trkpt lat="42.64841" lon="1.77256">
        <ele>2188.1</ele>
        <time>2014-03-11T12:01:06Z</time>
      </trkpt>
      <trkpt lat="42.6484" lon="1.77253">
        <ele>2186.66</ele>
        <time>2014-03-11T12:01:07Z</time>
      </trkpt>
      <trkpt lat="42.64839" lon="1.7725">
        <ele>2185.21</ele>
        <time>2014-03-11T12:01:08Z</time>
      </trkpt>
      <trkpt lat="42.64838" lon="1.77246">
        <ele>2183.77</ele>
        <time>2014-03-11T12:01:09Z</time>
      </trkpt>
      <trkpt lat="42.64838" lon="1.77243">
        <ele>2182.33</ele>
        <time>2014-03-11T12:01:10Z</time>
      </trkpt>
      <trkpt lat="42.64837" lon="1.77239">
        <ele>2180.89</ele>
        <time>2014-03-11T12:01:11Z</time>
      </trkpt>
      <trkpt lat="42.64837" lon="1.77236">
        <ele>2178.97</ele>
        <time>2014-03-11T12:01:12Z</time>
      </trkpt>
      <trkpt lat="42.64837" lon="1.77233">
        <ele>2177.04</ele>
        <time>2014-03-11T12:01:13Z</time>
      </trkpt>
      <trkpt lat="42.64836" lon="1.7723">
        <ele>2175.6</ele>
        <time>2014-03-11T12:01:14Z</time>
      </trkpt>
      <trkpt lat="42.64837" lon="1.77226">
        <ele>2174.16</ele>
        <time>2014-03-11T12:01:15Z</time>
      </trkpt>
      <trkpt lat="42.64837" lon="1.77223">
        <ele>2172.72</ele>
        <time>2014-03-11T12:01:16Z</time>
      </trkpt>
      <trkpt lat="42.64836" lon="1.7722">
        <ele>2171.76</ele>
        <time>2014-03-11T12:01:17Z</time>
      </trkpt>
      <trkpt lat="42.64837" lon="1.77216">
        <ele>2170.31</ele>
        <time>2014-03-11T12:01:18Z</time>
      </trkpt>
      <trkpt lat="42.64836" lon="1.77213">
        <ele>2168.39</ele>
        <time>2014-03-11T12:01:19Z</time>
      </trkpt>
      <trkpt lat="42.64835" lon="1.7721">
        <ele>2166.95</ele>
        <time>2014-03-11T12:01:20Z</time>
      </trkpt>
      <trkpt lat="42.64836" lon="1.77206">
        <ele>2165.03</ele>
        <time>2014-03-11T12:01:21Z</time>
      </trkpt>
      <trkpt lat="42.64836" lon="1.77203">
        <ele>2163.58</ele>
        <time>2014-03-11T12:01:22Z</time>
      </trkpt>
      <trkpt lat="42.64835" lon="1.772">
        <ele>2161.66</ele>
        <time>2014-03-11T12:01:23Z</time>
      </trkpt>
      <trkpt lat="42.64836" lon="1.77197">
        <ele>2157.34</ele>
        <time>2014-03-11T12:01:27Z</time>
      </trkpt>
      <trkpt lat="42.64836" lon="1.77189">
        <ele>2152.05</ele>
        <time>2014-03-11T12:01:31Z</time>
      </trkpt>
      <trkpt lat="42.64836" lon="1.77188">
        <ele>2146.28</ele>
        <time>2014-03-11T12:01:40Z</time>
      </trkpt>
      <trkpt lat="42.64837" lon="1.77182">
        <ele>2145.32</ele>
        <time>2014-03-11T12:01:53Z</time>
      </trkpt>
      <trkpt lat="42.64835" lon="1.77156">
        <ele>2135.71</ele>
        <time>2014-03-11T12:02:00Z</time>
      </trkpt>
      <trkpt lat="42.64833" lon="1.77134">
        <ele>2125.13</ele>
        <time>2014-03-11T12:02:05Z</time>
      </trkpt>
      <trkpt lat="42.64834" lon="1.77118">
        <ele>2116</ele>
        <time>2014-03-11T12:02:09Z</time>
      </trkpt>
      <trkpt lat="42.64837" lon="1.77098">
        <ele>2103.98</ele>
        <time>2014-03-11T12:02:14Z</time>
      </trkpt>
      <trkpt lat="42.6484" lon="1.77078">
        <ele>2091.97</ele>
        <time>2014-03-11T12:02:19Z</time>
      </trkpt>
      <trkpt lat="42.6484" lon="1.77058">
        <ele>2080.43</ele>
        <time>2014-03-11T12:02:23Z</time>
      </trkpt>
      <trkpt lat="42.64839" lon="1.77033">
        <ele>2069.38</ele>
        <time>2014-03-11T12:02:27Z</time>
      </trkpt>
      <trkpt lat="42.64844" lon="1.76996">
        <ele>2053.51</ele>
        <time>2014-03-11T12:02:32Z</time>
      </trkpt>
      <trkpt lat="42.64842" lon="1.76972">
        <ele>2044.38</ele>
        <time>2014-03-11T12:02:35Z</time>
      </trkpt>
      <trkpt lat="42.6485" lon="1.7695">
        <ele>2031.88</ele>
        <time>2014-03-11T12:02:40Z</time>
      </trkpt>
      <trkpt lat="42.64841" lon="1.76939">
        <ele>2027.08</ele>
        <time>2014-03-11T12:02:43Z</time>
      </trkpt>
      <trkpt lat="42.64841" lon="1.76917">
        <ele>2017.94</ele>
        <time>2014-03-11T12:02:48Z</time>
      </trkpt>
      <trkpt lat="42.64837" lon="1.769">
        <ele>2011.22</ele>
        <time>2014-03-11T12:02:54Z</time>
      </trkpt>
      <trkpt lat="42.64837" lon="1.76886">
        <ele>2005.45</ele>
        <time>2014-03-11T12:03:00Z</time>
      </trkpt>
      <trkpt lat="42.64832" lon="1.76884">
        <ele>2004.49</ele>
        <time>2014-03-11T12:03:02Z</time>
      </trkpt>
      <trkpt lat="42.6483" lon="1.76883">
        <ele>2002.56</ele>
        <time>2014-03-11T12:03:16Z</time>
      </trkpt>
      <trkpt lat="42.6483" lon="1.76882">
        <ele>2003.04</ele>
        <time>2014-03-11T12:03:32Z</time>
      </trkpt>
      <trkpt lat="42.64824" lon="1.76875">
        <ele>2003.52</ele>
        <time>2014-03-11T12:03:42Z</time>
      </trkpt>
      <trkpt lat="42.6483" lon="1.7686">
        <ele>1999.68</ele>
        <time>2014-03-11T12:03:49Z</time>
      </trkpt>
      <trkpt lat="42.64832" lon="1.76843">
        <ele>1995.83</ele>
        <time>2014-03-11T12:03:55Z</time>
      </trkpt>
      <trkpt lat="42.64835" lon="1.76822">
        <ele>1991.03</ele>
        <time>2014-03-11T12:04:01Z</time>
      </trkpt>
      <trkpt lat="42.64838" lon="1.76798">
        <ele>1984.78</ele>
        <time>2014-03-11T12:04:06Z</time>
      </trkpt>
      <trkpt lat="42.64837" lon="1.76792">
        <ele>1983.82</ele>
        <time>2014-03-11T12:04:07Z</time>
      </trkpt>
      <trkpt lat="42.64839" lon="1.76788">
        <ele>1982.38</ele>
        <time>2014-03-11T12:04:08Z</time>
      </trkpt>
      <trkpt lat="42.64849" lon="1.76774">
        <ele>1974.2</ele>
        <time>2014-03-11T12:04:15Z</time>
      </trkpt>
      <trkpt lat="42.64841" lon="1.76764">
        <ele>1970.36</ele>
        <time>2014-03-11T12:04:19Z</time>
      </trkpt>
      <trkpt lat="42.64843" lon="1.76746">
        <ele>1964.11</ele>
        <time>2014-03-11T12:04:24Z</time>
      </trkpt>
      <trkpt lat="42.64846" lon="1.76745">
        <ele>1963.15</ele>
        <time>2014-03-11T12:04:25Z</time>
      </trkpt>
      <trkpt lat="42.64849" lon="1.76745">
        <ele>1961.71</ele>
        <time>2014-03-11T12:04:26Z</time>
      </trkpt>
      <trkpt lat="42.64846" lon="1.76732">
        <ele>1954.02</ele>
        <time>2014-03-11T12:04:34Z</time>
      </trkpt>
      <trkpt lat="42.64847" lon="1.76734">
        <ele>1954.5</ele>
        <time>2014-03-11T12:04:47Z</time>
      </trkpt>
      <trkpt lat="42.64848" lon="1.7673">
        <ele>1954.02</ele>
        <time>2014-03-11T12:04:49Z</time>
      </trkpt>
      <trkpt lat="42.6485" lon="1.76727">
        <ele>1953.06</ele>
        <time>2014-03-11T12:04:50Z</time>
      </trkpt>
      <trkpt lat="42.64851" lon="1.76725">
        <ele>1952.09</ele>
        <time>2014-03-11T12:04:51Z</time>
      </trkpt>
      <trkpt lat="42.64851" lon="1.76719">
        <ele>1949.69</ele>
        <time>2014-03-11T12:04:53Z</time>
      </trkpt>
      <trkpt lat="42.64853" lon="1.76718">
        <ele>1948.73</ele>
        <time>2014-03-11T12:04:54Z</time>
      </trkpt>
      <trkpt lat="42.64854" lon="1.76716">
        <ele>1947.29</ele>
        <time>2014-03-11T12:04:55Z</time>
      </trkpt>
      <trkpt lat="42.64854" lon="1.76714">
        <ele>1946.81</ele>
        <time>2014-03-11T12:04:56Z</time>
      </trkpt>
      <trkpt lat="42.64851" lon="1.76709">
        <ele>1944.4</ele>
        <time>2014-03-11T12:05:01Z</time>
      </trkpt>
      <trkpt lat="42.64843" lon="1.76694">
        <ele>1943.92</ele>
        <time>2014-03-11T12:05:06Z</time>
      </trkpt>
      <trkpt lat="42.64844" lon="1.76679">
        <ele>1941.04</ele>
        <time>2014-03-11T12:05:11Z</time>
      </trkpt>
      <trkpt lat="42.64846" lon="1.76678">
        <ele>1939.6</ele>
        <time>2014-03-11T12:05:12Z</time>
      </trkpt>
      <trkpt lat="42.64848" lon="1.76678">
        <ele>1938.16</ele>
        <time>2014-03-11T12:05:13Z</time>
      </trkpt>
      <trkpt lat="42.64849" lon="1.76669">
        <ele>1934.79</ele>
        <time>2014-03-11T12:05:15Z</time>
      </trkpt>
      <trkpt lat="42.64852" lon="1.76655">
        <ele>1928.06</ele>
        <time>2014-03-11T12:05:20Z</time>
      </trkpt>
      <trkpt lat="42.64858" lon="1.76635">
        <ele>1919.89</ele>
        <time>2014-03-11T12:05:27Z</time>
      </trkpt>
      <trkpt lat="42.64869" lon="1.7662">
        <ele>1910.76</ele>
        <time>2014-03-11T12:05:32Z</time>
      </trkpt>
      <trkpt lat="42.64878" lon="1.76603">
        <ele>1901.63</ele>
        <time>2014-03-11T12:05:38Z</time>
      </trkpt>
      <trkpt lat="42.64889" lon="1.7659">
        <ele>1893.45</ele>
        <time>2014-03-11T12:05:42Z</time>
      </trkpt>
      <trkpt lat="42.64897" lon="1.76582">
        <ele>1886.72</ele>
        <time>2014-03-11T12:05:49Z</time>
      </trkpt>
      <trkpt lat="42.64899" lon="1.76581">
        <ele>1889.61</ele>
        <time>2014-03-11T12:06:04Z</time>
      </trkpt>
      <trkpt lat="42.64899" lon="1.76564">
        <ele>1887.69</ele>
        <time>2014-03-11T12:06:12Z</time>
      </trkpt>
      <trkpt lat="42.64882" lon="1.76533">
        <ele>1883.84</ele>
        <time>2014-03-11T12:06:20Z</time>
      </trkpt>
      <trkpt lat="42.64875" lon="1.76519">
        <ele>1881.92</ele>
        <time>2014-03-11T12:06:25Z</time>
      </trkpt>
      <trkpt lat="42.64872" lon="1.76513">
        <ele>1881.44</ele>
        <time>2014-03-11T12:06:30Z</time>
      </trkpt>
      <trkpt lat="42.64872" lon="1.765">
        <ele>1874.23</ele>
        <time>2014-03-11T12:06:37Z</time>
      </trkpt>
      <trkpt lat="42.64872" lon="1.76499">
        <ele>1872.79</ele>
        <time>2014-03-11T12:06:38Z</time>
      </trkpt>
      <trkpt lat="42.64875" lon="1.76497">
        <ele>1870.38</ele>
        <time>2014-03-11T12:06:40Z</time>
      </trkpt>
      <trkpt lat="42.64877" lon="1.76481">
        <ele>1861.73</ele>
        <time>2014-03-11T12:06:46Z</time>
      </trkpt>
      <trkpt lat="42.64879" lon="1.76468">
        <ele>1855</ele>
        <time>2014-03-11T12:06:51Z</time>
      </trkpt>
      <trkpt lat="42.64882" lon="1.76467">
        <ele>1851.16</ele>
        <time>2014-03-11T12:06:54Z</time>
      </trkpt>
      <trkpt lat="42.64879" lon="1.76457">
        <ele>1851.64</ele>
        <time>2014-03-11T12:06:58Z</time>
      </trkpt>
      <trkpt lat="42.64871" lon="1.76428">
        <ele>1845.87</ele>
        <time>2014-03-11T12:07:06Z</time>
      </trkpt>
      <trkpt lat="42.64873" lon="1.7641">
        <ele>1840.1</ele>
        <time>2014-03-11T12:07:12Z</time>
      </trkpt>
      <trkpt lat="42.64872" lon="1.76406">
        <ele>1839.62</ele>
        <time>2014-03-11T12:07:13Z</time>
      </trkpt>
      <trkpt lat="42.64872" lon="1.76401">
        <ele>1835.77</ele>
        <time>2014-03-11T12:07:23Z</time>
      </trkpt>
      <trkpt lat="42.6487" lon="1.76404">
        <ele>1834.81</ele>
        <time>2014-03-11T12:07:37Z</time>
      </trkpt>
      <trkpt lat="42.64868" lon="1.76379">
        <ele>1830.49</ele>
        <time>2014-03-11T12:07:47Z</time>
      </trkpt>
      <trkpt lat="42.64868" lon="1.7634">
        <ele>1826.16</ele>
        <time>2014-03-11T12:07:57Z</time>
      </trkpt>
      <trkpt lat="42.6487" lon="1.76316">
        <ele>1823.28</ele>
        <time>2014-03-11T12:08:05Z</time>
      </trkpt>
      <trkpt lat="42.64874" lon="1.76289">
        <ele>1822.32</ele>
        <time>2014-03-11T12:08:14Z</time>
      </trkpt>
      <trkpt lat="42.64877" lon="1.76275">
        <ele>1821.35</ele>
        <time>2014-03-11T12:08:17Z</time>
      </trkpt>
      <trkpt lat="42.64878" lon="1.76263">
        <ele>1820.39</ele>
        <time>2014-03-11T12:08:19Z</time>
      </trkpt>
      <trkpt lat="42.64885" lon="1.76232">
        <ele>1815.59</ele>
        <time>2014-03-11T12:08:25Z</time>
      </trkpt>
      <trkpt lat="42.64912" lon="1.76201">
        <ele>1807.9</ele>
        <time>2014-03-11T12:08:31Z</time>
      </trkpt>
      <trkpt lat="42.6494" lon="1.76185">
        <ele>1805.97</ele>
        <time>2014-03-11T12:08:36Z</time>
      </trkpt>
      <trkpt lat="42.64971" lon="1.76179">
        <ele>1804.05</ele>
        <time>2014-03-11T12:08:47Z</time>
      </trkpt>
      <trkpt lat="42.64992" lon="1.76175">
        <ele>1802.61</ele>
        <time>2014-03-11T12:08:58Z</time>
      </trkpt>
      <trkpt lat="42.64994" lon="1.76175">
        <ele>1801.65</ele>
        <time>2014-03-11T12:09:01Z</time>
      </trkpt>
      <trkpt lat="42.65" lon="1.7617">
        <ele>1801.65</ele>
        <time>2014-03-11T12:09:12Z</time>
      </trkpt>
      <trkpt lat="42.65002" lon="1.76169">
        <ele>1801.65</ele>
        <time>2014-03-11T12:09:20Z</time>
      </trkpt>
      <trkpt lat="42.65012" lon="1.76165">
        <ele>1800.21</ele>
        <time>2014-03-11T12:09:27Z</time>
      </trkpt>
      <trkpt lat="42.65032" lon="1.76159">
        <ele>1797.32</ele>
        <time>2014-03-11T12:09:38Z</time>
      </trkpt>
      <trkpt lat="42.65043" lon="1.76156">
        <ele>1797.8</ele>
        <time>2014-03-11T12:09:43Z</time>
      </trkpt>
      <trkpt lat="42.65047" lon="1.7616">
        <ele>1798.76</ele>
        <time>2014-03-11T12:09:48Z</time>
      </trkpt>
      <trkpt lat="42.65045" lon="1.76168">
        <ele>1797.32</ele>
        <time>2014-03-11T12:09:52Z</time>
      </trkpt>
      <trkpt lat="42.65043" lon="1.76167">
        <ele>1796.36</ele>
        <time>2014-03-11T12:10:05Z</time>
      </trkpt>
      <trkpt lat="42.65046" lon="1.76167">
        <ele>1795.88</ele>
        <time>2014-03-11T12:10:19Z</time>
      </trkpt>
      <trkpt lat="42.65045" lon="1.76168">
        <ele>1796.84</ele>
        <time>2014-03-11T12:10:22Z</time>
      </trkpt>
      <trkpt lat="42.65032" lon="1.76192">
        <ele>1795.4</ele>
        <time>2014-03-11T12:10:33Z</time>
      </trkpt>
      <trkpt lat="42.65024" lon="1.76203">
        <ele>1794.44</ele>
        <time>2014-03-11T12:10:43Z</time>
      </trkpt>
      <trkpt lat="42.65025" lon="1.762">
        <ele>1794.44</ele>
        <time>2014-03-11T12:10:52Z</time>
      </trkpt>
      <trkpt lat="42.65023" lon="1.76203">
        <ele>1793.48</ele>
        <time>2014-03-11T12:11:12Z</time>
      </trkpt>
      <trkpt lat="42.65023" lon="1.76204">
        <ele>1793.48</ele>
        <time>2014-03-11T12:11:48Z</time>
      </trkpt>
      <trkpt lat="42.65025" lon="1.76204">
        <ele>1794.92</ele>
        <time>2014-03-11T12:12:09Z</time>
      </trkpt>
      <trkpt lat="42.65027" lon="1.76208">
        <ele>1794.44</ele>
        <time>2014-03-11T12:12:20Z</time>
      </trkpt>
      <trkpt lat="42.65029" lon="1.76208">
        <ele>1793</ele>
        <time>2014-03-11T12:12:32Z</time>
      </trkpt>
      <trkpt lat="42.65028" lon="1.76209">
        <ele>1792.03</ele>
        <time>2014-03-11T12:12:43Z</time>
      </trkpt>
      <trkpt lat="42.65028" lon="1.76206">
        <ele>1788.19</ele>
        <time>2014-03-11T12:13:15Z</time>
      </trkpt>
      <trkpt lat="42.65027" lon="1.76208">
        <ele>1788.19</ele>
        <time>2014-03-11T12:13:45Z</time>
      </trkpt>
      <trkpt lat="42.65029" lon="1.76208">
        <ele>1789.15</ele>
        <time>2014-03-11T12:14:11Z</time>
      </trkpt>
      <trkpt lat="42.65026" lon="1.76209">
        <ele>1787.71</ele>
        <time>2014-03-11T12:14:40Z</time>
      </trkpt>
      <trkpt lat="42.65024" lon="1.76209">
        <ele>1787.23</ele>
        <time>2014-03-11T12:15:09Z</time>
      </trkpt>
      <trkpt lat="42.65022" lon="1.76209">
        <ele>1787.23</ele>
        <time>2014-03-11T12:15:43Z</time>
      </trkpt>
      <trkpt lat="42.65027" lon="1.76209">
        <ele>1790.59</ele>
        <time>2014-03-11T12:15:58Z</time>
      </trkpt>
      <trkpt lat="42.6503" lon="1.76209">
        <ele>1794.44</ele>
        <time>2014-03-11T12:16:19Z</time>
      </trkpt>
      <trkpt lat="42.65029" lon="1.7621">
        <ele>1791.55</ele>
        <time>2014-03-11T12:16:35Z</time>
      </trkpt>
      <trkpt lat="42.65028" lon="1.76211">
        <ele>1790.11</ele>
        <time>2014-03-11T12:16:58Z</time>
      </trkpt>
      <trkpt lat="42.65028" lon="1.76211">
        <ele>1788.67</ele>
        <time>2014-03-11T12:17:15Z</time>
      </trkpt>
      <trkpt lat="42.65029" lon="1.76208">
        <ele>1790.59</ele>
        <time>2014-03-11T12:17:36Z</time>
      </trkpt>
      <trkpt lat="42.65031" lon="1.76206">
        <ele>1793.48</ele>
        <time>2014-03-11T12:17:58Z</time>
      </trkpt>
      <trkpt lat="42.65035" lon="1.76203">
        <ele>1793</ele>
        <time>2014-03-11T12:18:24Z</time>
      </trkpt>
      <trkpt lat="42.65036" lon="1.76203">
        <ele>1793.96</ele>
        <time>2014-03-11T12:18:47Z</time>
      </trkpt>
      <trkpt lat="42.65035" lon="1.76203">
        <ele>1793.96</ele>
        <time>2014-03-11T12:19:13Z</time>
      </trkpt>
      <trkpt lat="42.65034" lon="1.76205">
        <ele>1793.96</ele>
        <time>2014-03-11T12:19:38Z</time>
      </trkpt>
      <trkpt lat="42.65034" lon="1.76205">
        <ele>1794.92</ele>
        <time>2014-03-11T12:20:12Z</time>
      </trkpt>
      <trkpt lat="42.65032" lon="1.76207">
        <ele>1795.88</ele>
        <time>2014-03-11T12:20:37Z</time>
      </trkpt>
      <trkpt lat="42.65031" lon="1.76208">
        <ele>1793</ele>
        <time>2014-03-11T12:21:01Z</time>
      </trkpt>
      <trkpt lat="42.65031" lon="1.76206">
        <ele>1791.55</ele>
        <time>2014-03-11T12:21:31Z</time>
      </trkpt>
      <trkpt lat="42.65038" lon="1.76203">
        <ele>1791.55</ele>
        <time>2014-03-11T12:21:55Z</time>
      </trkpt>
      <trkpt lat="42.6504" lon="1.76201">
        <ele>1792.03</ele>
        <time>2014-03-11T12:22:24Z</time>
      </trkpt>
      <trkpt lat="42.65037" lon="1.76202">
        <ele>1789.15</ele>
        <time>2014-03-11T12:22:53Z</time>
      </trkpt>
      <trkpt lat="42.65038" lon="1.76202">
        <ele>1791.55</ele>
        <time>2014-03-11T12:23:36Z</time>
      </trkpt>
      <trkpt lat="42.65038" lon="1.76201">
        <ele>1791.07</ele>
        <time>2014-03-11T12:24:03Z</time>
      </trkpt>
      <trkpt lat="42.65037" lon="1.76203">
        <ele>1790.59</ele>
        <time>2014-03-11T12:24:29Z</time>
      </trkpt>
      <trkpt lat="42.65039" lon="1.76202">
        <ele>1789.63</ele>
        <time>2014-03-11T12:25:01Z</time>
      </trkpt>
      <trkpt lat="42.65047" lon="1.76199">
        <ele>1786.75</ele>
        <time>2014-03-11T12:25:33Z</time>
      </trkpt>
      <trkpt lat="42.65042" lon="1.76201">
        <ele>1789.63</ele>
        <time>2014-03-11T12:26:11Z</time>
      </trkpt>
      <trkpt lat="42.65043" lon="1.76198">
        <ele>1788.67</ele>
        <time>2014-03-11T12:26:37Z</time>
      </trkpt>
      <trkpt lat="42.65038" lon="1.762">
        <ele>1790.11</ele>
        <time>2014-03-11T12:27:12Z</time>
      </trkpt>
      <trkpt lat="42.65034" lon="1.76207">
        <ele>1789.15</ele>
        <time>2014-03-11T12:27:52Z</time>
      </trkpt>
      <trkpt lat="42.65036" lon="1.76206">
        <ele>1786.75</ele>
        <time>2014-03-11T12:28:24Z</time>
      </trkpt>
      <trkpt lat="42.6504" lon="1.76205">
        <ele>1788.19</ele>
        <time>2014-03-11T12:28:49Z</time>
      </trkpt>
      <trkpt lat="42.65036" lon="1.76204">
        <ele>1788.19</ele>
        <time>2014-03-11T12:29:21Z</time>
      </trkpt>
      <trkpt lat="42.65028" lon="1.7621">
        <ele>1786.27</ele>
        <time>2014-03-11T12:29:52Z</time>
      </trkpt>
      <trkpt lat="42.65031" lon="1.76211">
        <ele>1788.67</ele>
        <time>2014-03-11T12:30:25Z</time>
      </trkpt>
      <trkpt lat="42.6503" lon="1.76208">
        <ele>1791.07</ele>
        <time>2014-03-11T12:31:04Z</time>
      </trkpt>
      <trkpt lat="42.65034" lon="1.76206">
        <ele>1790.59</ele>
        <time>2014-03-11T12:31:34Z</time>
      </trkpt>
      <trkpt lat="42.65034" lon="1.76207">
        <ele>1789.63</ele>
        <time>2014-03-11T12:32:00Z</time>
      </trkpt>
      <trkpt lat="42.65038" lon="1.76202">
        <ele>1789.63</ele>
        <time>2014-03-11T12:32:21Z</time>
      </trkpt>
      <trkpt lat="42.65036" lon="1.76203">
        <ele>1790.59</ele>
        <time>2014-03-11T12:32:50Z</time>
      </trkpt>
      <trkpt lat="42.65037" lon="1.76203">
        <ele>1790.11</ele>
        <time>2014-03-11T12:33:28Z</time>
      </trkpt>
      <trkpt lat="42.65032" lon="1.76204">
        <ele>1793</ele>
        <time>2014-03-11T12:34:06Z</time>
      </trkpt>
      <trkpt lat="42.65033" lon="1.76204">
        <ele>1793</ele>
        <time>2014-03-11T12:34:30Z</time>
      </trkpt>
      <trkpt lat="42.65032" lon="1.76207">
        <ele>1789.63</ele>
        <time>2014-03-11T12:35:01Z</time>
      </trkpt>
      <trkpt lat="42.65032" lon="1.76207">
        <ele>1790.11</ele>
        <time>2014-03-11T12:35:39Z</time>
      </trkpt>
      <trkpt lat="42.65032" lon="1.7621">
        <ele>1786.75</ele>
        <time>2014-03-11T12:36:17Z</time>
      </trkpt>
      <trkpt lat="42.65033" lon="1.76209">
        <ele>1788.67</ele>
        <time>2014-03-11T12:37:00Z</time>
      </trkpt>
      <trkpt lat="42.6503" lon="1.76209">
        <ele>1789.15</ele>
        <time>2014-03-11T12:37:45Z</time>
      </trkpt>
      <trkpt lat="42.65034" lon="1.7621">
        <ele>1785.31</ele>
        <time>2014-03-11T12:38:30Z</time>
      </trkpt>
      <trkpt lat="42.65033" lon="1.76208">
        <ele>1786.75</ele>
        <time>2014-03-11T12:39:08Z</time>
      </trkpt>
      <trkpt lat="42.65034" lon="1.76208">
        <ele>1783.38</ele>
        <time>2014-03-11T12:39:49Z</time>
      </trkpt>
      <trkpt lat="42.65036" lon="1.76209">
        <ele>1781.94</ele>
        <time>2014-03-11T12:40:23Z</time>
      </trkpt>
      <trkpt lat="42.65036" lon="1.76207">
        <ele>1782.9</ele>
        <time>2014-03-11T12:40:55Z</time>
      </trkpt>
      <trkpt lat="42.65033" lon="1.76209">
        <ele>1782.9</ele>
        <time>2014-03-11T12:41:30Z</time>
      </trkpt>
      <trkpt lat="42.65033" lon="1.76209">
        <ele>1785.31</ele>
        <time>2014-03-11T12:42:07Z</time>
      </trkpt>
      <trkpt lat="42.65033" lon="1.76211">
        <ele>1785.79</ele>
        <time>2014-03-11T12:42:30Z</time>
      </trkpt>
      <trkpt lat="42.65034" lon="1.76207">
        <ele>1785.79</ele>
        <time>2014-03-11T12:43:04Z</time>
      </trkpt>
      <trkpt lat="42.65031" lon="1.76209">
        <ele>1786.27</ele>
        <time>2014-03-11T12:43:38Z</time>
      </trkpt>
      <trkpt lat="42.65033" lon="1.76207">
        <ele>1784.82</ele>
        <time>2014-03-11T12:44:12Z</time>
      </trkpt>
      <trkpt lat="42.65032" lon="1.76206">
        <ele>1786.75</ele>
        <time>2014-03-11T12:44:45Z</time>
      </trkpt>
      <trkpt lat="42.65032" lon="1.76206">
        <ele>1788.67</ele>
        <time>2014-03-11T12:45:14Z</time>
      </trkpt>
      <trkpt lat="42.65031" lon="1.76207">
        <ele>1788.19</ele>
        <time>2014-03-11T12:45:38Z</time>
      </trkpt>
      <trkpt lat="42.65033" lon="1.76208">
        <ele>1788.67</ele>
        <time>2014-03-11T12:46:16Z</time>
      </trkpt>
      <trkpt lat="42.65032" lon="1.76208">
        <ele>1789.15</ele>
        <time>2014-03-11T12:46:41Z</time>
      </trkpt>
      <trkpt lat="42.65031" lon="1.76209">
        <ele>1787.71</ele>
        <time>2014-03-11T12:47:08Z</time>
      </trkpt>
      <trkpt lat="42.6503" lon="1.76211">
        <ele>1794.44</ele>
        <time>2014-03-11T12:47:33Z</time>
      </trkpt>
      <trkpt lat="42.65031" lon="1.76209">
        <ele>1795.4</ele>
        <time>2014-03-11T12:47:57Z</time>
      </trkpt>
      <trkpt lat="42.6503" lon="1.7621">
        <ele>1795.4</ele>
        <time>2014-03-11T12:48:19Z</time>
      </trkpt>
      <trkpt lat="42.6503" lon="1.76212">
        <ele>1795.4</ele>
        <time>2014-03-11T12:48:42Z</time>
      </trkpt>
      <trkpt lat="42.65032" lon="1.76211">
        <ele>1793.48</ele>
        <time>2014-03-11T12:49:01Z</time>
      </trkpt>
      <trkpt lat="42.65031" lon="1.76208">
        <ele>1793.96</ele>
        <time>2014-03-11T12:49:23Z</time>
      </trkpt>
      <trkpt lat="42.65032" lon="1.7621">
        <ele>1794.92</ele>
        <time>2014-03-11T12:49:44Z</time>
      </trkpt>
      <trkpt lat="42.65032" lon="1.7621">
        <ele>1803.09</ele>
        <time>2014-03-11T12:50:06Z</time>
      </trkpt>
      <trkpt lat="42.6503" lon="1.76213">
        <ele>1801.65</ele>
        <time>2014-03-11T12:50:30Z</time>
      </trkpt>
      <trkpt lat="42.6503" lon="1.76211">
        <ele>1801.65</ele>
        <time>2014-03-11T12:50:44Z</time>
      </trkpt>
      <trkpt lat="42.6503" lon="1.7621">
        <ele>1802.13</ele>
        <time>2014-03-11T12:51:00Z</time>
      </trkpt>
      <trkpt lat="42.65031" lon="1.7621">
        <ele>1800.21</ele>
        <time>2014-03-11T12:51:23Z</time>
      </trkpt>
      <trkpt lat="42.65033" lon="1.76213">
        <ele>1795.4</ele>
        <time>2014-03-11T12:51:41Z</time>
      </trkpt>
      <trkpt lat="42.6503" lon="1.76215">
        <ele>1792.52</ele>
        <time>2014-03-11T12:52:07Z</time>
      </trkpt>
      <trkpt lat="42.65033" lon="1.76213">
        <ele>1789.63</ele>
        <time>2014-03-11T12:52:29Z</time>
      </trkpt>
      <trkpt lat="42.6503" lon="1.76215">
        <ele>1790.11</ele>
        <time>2014-03-11T12:52:50Z</time>
      </trkpt>
      <trkpt lat="42.6503" lon="1.76211">
        <ele>1791.07</ele>
        <time>2014-03-11T12:53:07Z</time>
      </trkpt>
      <trkpt lat="42.65031" lon="1.76211">
        <ele>1793</ele>
        <time>2014-03-11T12:53:25Z</time>
      </trkpt>
      <trkpt lat="42.65031" lon="1.7621">
        <ele>1794.92</ele>
        <time>2014-03-11T12:53:50Z</time>
      </trkpt>
      <trkpt lat="42.6503" lon="1.76209">
        <ele>1795.88</ele>
        <time>2014-03-11T12:54:12Z</time>
      </trkpt>
      <trkpt lat="42.65031" lon="1.76209">
        <ele>1796.36</ele>
        <time>2014-03-11T12:54:27Z</time>
      </trkpt>
      <trkpt lat="42.6503" lon="1.76207">
        <ele>1796.36</ele>
        <time>2014-03-11T12:54:51Z</time>
      </trkpt>
      <trkpt lat="42.65027" lon="1.76207">
        <ele>1796.84</ele>
        <time>2014-03-11T12:55:17Z</time>
      </trkpt>
      <trkpt lat="42.65007" lon="1.76183">
        <ele>1802.61</ele>
        <time>2014-03-11T12:55:48Z</time>
      </trkpt>
      <trkpt lat="42.65016" lon="1.76199">
        <ele>1807.42</ele>
        <time>2014-03-11T12:56:24Z</time>
      </trkpt>
      <trkpt lat="42.64969" lon="1.76125">
        <ele>1844.43</ele>
        <time>2014-03-11T12:57:01Z</time>
      </trkpt>
      <trkpt lat="42.65006" lon="1.76212">
        <ele>1851.16</ele>
        <time>2014-03-11T12:57:35Z</time>
      </trkpt>
      <trkpt lat="42.65012" lon="1.76227">
        <ele>1846.35</ele>
        <time>2014-03-11T12:58:06Z</time>
      </trkpt>
      <trkpt lat="42.65022" lon="1.76249">
        <ele>1834.81</ele>
        <time>2014-03-11T12:58:36Z</time>
      </trkpt>
      <trkpt lat="42.65028" lon="1.76233">
        <ele>1823.28</ele>
        <time>2014-03-11T12:59:09Z</time>
      </trkpt>
      <trkpt lat="42.6503" lon="1.76228">
        <ele>1815.59</ele>
        <time>2014-03-11T12:59:32Z</time>
      </trkpt>
      <trkpt lat="42.6503" lon="1.76225">
        <ele>1814.63</ele>
        <time>2014-03-11T12:59:51Z</time>
      </trkpt>
      <trkpt lat="42.6503" lon="1.76225">
        <ele>1815.59</ele>
        <time>2014-03-11T13:00:10Z</time>
      </trkpt>
      <trkpt lat="42.65027" lon="1.7622">
        <ele>1814.15</ele>
        <time>2014-03-11T13:00:30Z</time>
      </trkpt>
      <trkpt lat="42.65033" lon="1.76215">
        <ele>1810.3</ele>
        <time>2014-03-11T13:00:47Z</time>
      </trkpt>
      <trkpt lat="42.65031" lon="1.76211">
        <ele>1802.61</ele>
        <time>2014-03-11T13:01:07Z</time>
      </trkpt>
      <trkpt lat="42.65026" lon="1.76212">
        <ele>1802.13</ele>
        <time>2014-03-11T13:01:37Z</time>
      </trkpt>
      <trkpt lat="42.65031" lon="1.76207">
        <ele>1802.13</ele>
        <time>2014-03-11T13:02:04Z</time>
      </trkpt>
      <trkpt lat="42.6503" lon="1.76202">
        <ele>1800.69</ele>
        <time>2014-03-11T13:02:07Z</time>
      </trkpt>
      <trkpt lat="42.65029" lon="1.76202">
        <ele>1802.13</ele>
        <time>2014-03-11T13:02:16Z</time>
      </trkpt>
      <trkpt lat="42.65026" lon="1.76206">
        <ele>1798.76</ele>
        <time>2014-03-11T13:02:49Z</time>
      </trkpt>
      <trkpt lat="42.65025" lon="1.7621">
        <ele>1798.76</ele>
        <time>2014-03-11T13:03:19Z</time>
      </trkpt>
      <trkpt lat="42.65027" lon="1.76207">
        <ele>1801.65</ele>
        <time>2014-03-11T13:03:26Z</time>
      </trkpt>
      <trkpt lat="42.65032" lon="1.76204">
        <ele>1802.61</ele>
        <time>2014-03-11T13:03:38Z</time>
      </trkpt>
      <trkpt lat="42.65035" lon="1.76202">
        <ele>1804.53</ele>
        <time>2014-03-11T13:03:52Z</time>
      </trkpt>
      <trkpt lat="42.65034" lon="1.76206">
        <ele>1805.49</ele>
        <time>2014-03-11T13:04:04Z</time>
      </trkpt>
      <trkpt lat="42.65035" lon="1.76198">
        <ele>1805.49</ele>
        <time>2014-03-11T13:04:15Z</time>
      </trkpt>
      <trkpt lat="42.65037" lon="1.76198">
        <ele>1802.61</ele>
        <time>2014-03-11T13:04:27Z</time>
      </trkpt>
      <trkpt lat="42.65036" lon="1.76196">
        <ele>1801.65</ele>
        <time>2014-03-11T13:04:36Z</time>
      </trkpt>
      <trkpt lat="42.65039" lon="1.76192">
        <ele>1802.13</ele>
        <time>2014-03-11T13:04:39Z</time>
      </trkpt>
      <trkpt lat="42.65043" lon="1.76178">
        <ele>1800.69</ele>
        <time>2014-03-11T13:04:53Z</time>
      </trkpt>
      <trkpt lat="42.6505" lon="1.76164">
        <ele>1802.13</ele>
        <time>2014-03-11T13:05:07Z</time>
      </trkpt>
      <trkpt lat="42.6505" lon="1.76155">
        <ele>1801.65</ele>
        <time>2014-03-11T13:05:17Z</time>
      </trkpt>
      <trkpt lat="42.65049" lon="1.76147">
        <ele>1802.13</ele>
        <time>2014-03-11T13:05:27Z</time>
      </trkpt>
      <trkpt lat="42.65053" lon="1.76139">
        <ele>1801.65</ele>
        <time>2014-03-11T13:05:39Z</time>
      </trkpt>
      <trkpt lat="42.65056" lon="1.76128">
        <ele>1801.17</ele>
        <time>2014-03-11T13:05:51Z</time>
      </trkpt>
      <trkpt lat="42.65054" lon="1.76128">
        <ele>1802.61</ele>
        <time>2014-03-11T13:05:54Z</time>
      </trkpt>
      <trkpt lat="42.65054" lon="1.76124">
        <ele>1805.97</ele>
        <time>2014-03-11T13:06:04Z</time>
      </trkpt>
      <trkpt lat="42.65054" lon="1.76124">
        <ele>1806.45</ele>
        <time>2014-03-11T13:06:07Z</time>
      </trkpt>
      <trkpt lat="42.65053" lon="1.76123">
        <ele>1806.94</ele>
        <time>2014-03-11T13:06:10Z</time>
      </trkpt>
      <trkpt lat="42.65052" lon="1.76124">
        <ele>1806.94</ele>
        <time>2014-03-11T13:06:19Z</time>
      </trkpt>
      <trkpt lat="42.65044" lon="1.76123">
        <ele>1812.7</ele>
        <time>2014-03-11T13:06:29Z</time>
      </trkpt>
      <trkpt lat="42.6504" lon="1.76121">
        <ele>1817.99</ele>
        <time>2014-03-11T13:06:40Z</time>
      </trkpt>
      <trkpt lat="42.65039" lon="1.76117">
        <ele>1819.43</ele>
        <time>2014-03-11T13:06:50Z</time>
      </trkpt>
      <trkpt lat="42.65041" lon="1.76111">
        <ele>1822.8</ele>
        <time>2014-03-11T13:07:02Z</time>
      </trkpt>
      <trkpt lat="42.65041" lon="1.761">
        <ele>1825.2</ele>
        <time>2014-03-11T13:07:18Z</time>
      </trkpt>
      <trkpt lat="42.65043" lon="1.76088">
        <ele>1826.16</ele>
        <time>2014-03-11T13:07:37Z</time>
      </trkpt>
      <trkpt lat="42.65046" lon="1.76078">
        <ele>1824.72</ele>
        <time>2014-03-11T13:07:51Z</time>
      </trkpt>
      <trkpt lat="42.65047" lon="1.76069">
        <ele>1824.24</ele>
        <time>2014-03-11T13:08:01Z</time>
      </trkpt>
      <trkpt lat="42.65048" lon="1.7606">
        <ele>1823.76</ele>
        <time>2014-03-11T13:08:14Z</time>
      </trkpt>
      <trkpt lat="42.65048" lon="1.76055">
        <ele>1825.2</ele>
        <time>2014-03-11T13:08:29Z</time>
      </trkpt>
      <trkpt lat="42.65053" lon="1.76046">
        <ele>1826.16</ele>
        <time>2014-03-11T13:08:41Z</time>
      </trkpt>
      <trkpt lat="42.65052" lon="1.76036">
        <ele>1830.49</ele>
        <time>2014-03-11T13:08:54Z</time>
      </trkpt>
      <trkpt lat="42.65049" lon="1.76029">
        <ele>1833.85</ele>
        <time>2014-03-11T13:09:06Z</time>
      </trkpt>
      <trkpt lat="42.65048" lon="1.7602">
        <ele>1837.22</ele>
        <time>2014-03-11T13:09:19Z</time>
      </trkpt>
      <trkpt lat="42.65051" lon="1.76015">
        <ele>1838.66</ele>
        <time>2014-03-11T13:09:25Z</time>
      </trkpt>
      <trkpt lat="42.6505" lon="1.76011">
        <ele>1836.26</ele>
        <time>2014-03-11T13:09:36Z</time>
      </trkpt>
      <trkpt lat="42.65051" lon="1.76006">
        <ele>1834.33</ele>
        <time>2014-03-11T13:09:46Z</time>
      </trkpt>
      <trkpt lat="42.65049" lon="1.75996">
        <ele>1834.33</ele>
        <time>2014-03-11T13:09:55Z</time>
      </trkpt>
      <trkpt lat="42.65049" lon="1.75995">
        <ele>1836.74</ele>
        <time>2014-03-11T13:10:08Z</time>
      </trkpt>
      <trkpt lat="42.65048" lon="1.75985">
        <ele>1840.58</ele>
        <time>2014-03-11T13:10:21Z</time>
      </trkpt>
      <trkpt lat="42.65047" lon="1.75975">
        <ele>1842.5</ele>
        <time>2014-03-11T13:10:34Z</time>
      </trkpt>
      <trkpt lat="42.65045" lon="1.75966">
        <ele>1843.47</ele>
        <time>2014-03-11T13:10:48Z</time>
      </trkpt>
      <trkpt lat="42.65044" lon="1.75963">
        <ele>1843.47</ele>
        <time>2014-03-11T13:11:02Z</time>
      </trkpt>
      <trkpt lat="42.65043" lon="1.75956">
        <ele>1844.43</ele>
        <time>2014-03-11T13:11:08Z</time>
      </trkpt>
      <trkpt lat="42.65041" lon="1.75945">
        <ele>1845.87</ele>
        <time>2014-03-11T13:11:21Z</time>
      </trkpt>
      <trkpt lat="42.6504" lon="1.75937">
        <ele>1848.75</ele>
        <time>2014-03-11T13:11:31Z</time>
      </trkpt>
      <trkpt lat="42.65038" lon="1.75922">
        <ele>1849.71</ele>
        <time>2014-03-11T13:11:45Z</time>
      </trkpt>
      <trkpt lat="42.65041" lon="1.75912">
        <ele>1850.68</ele>
        <time>2014-03-11T13:11:57Z</time>
      </trkpt>
      <trkpt lat="42.65041" lon="1.75903">
        <ele>1851.64</ele>
        <time>2014-03-11T13:12:12Z</time>
      </trkpt>
      <trkpt lat="42.65041" lon="1.75902">
        <ele>1851.64</ele>
        <time>2014-03-11T13:12:13Z</time>
      </trkpt>
      <trkpt lat="42.65041" lon="1.75887">
        <ele>1853.56</ele>
        <time>2014-03-11T13:12:28Z</time>
      </trkpt>
      <trkpt lat="42.65039" lon="1.75874">
        <ele>1854.04</ele>
        <time>2014-03-11T13:12:40Z</time>
      </trkpt>
      <trkpt lat="42.65038" lon="1.7586">
        <ele>1856.44</ele>
        <time>2014-03-11T13:12:55Z</time>
      </trkpt>
      <trkpt lat="42.65039" lon="1.75857">
        <ele>1855.48</ele>
        <time>2014-03-11T13:12:59Z</time>
      </trkpt>
      <trkpt lat="42.65039" lon="1.75842">
        <ele>1855.96</ele>
        <time>2014-03-11T13:13:14Z</time>
      </trkpt>
      <trkpt lat="42.6504" lon="1.75826">
        <ele>1853.56</ele>
        <time>2014-03-11T13:13:30Z</time>
      </trkpt>
      <trkpt lat="42.65041" lon="1.7582">
        <ele>1854.04</ele>
        <time>2014-03-11T13:13:35Z</time>
      </trkpt>
      <trkpt lat="42.65041" lon="1.75814">
        <ele>1853.56</ele>
        <time>2014-03-11T13:13:40Z</time>
      </trkpt>
      <trkpt lat="42.6504" lon="1.75799">
        <ele>1852.6</ele>
        <time>2014-03-11T13:13:52Z</time>
      </trkpt>
      <trkpt lat="42.65041" lon="1.75788">
        <ele>1854.52</ele>
        <time>2014-03-11T13:14:07Z</time>
      </trkpt>
      <trkpt lat="42.65041" lon="1.7578">
        <ele>1854.04</ele>
        <time>2014-03-11T13:14:22Z</time>
      </trkpt>
      <trkpt lat="42.6504" lon="1.75772">
        <ele>1856.44</ele>
        <time>2014-03-11T13:14:35Z</time>
      </trkpt>
      <trkpt lat="42.6504" lon="1.75767">
        <ele>1857.4</ele>
        <time>2014-03-11T13:14:39Z</time>
      </trkpt>
      <trkpt lat="42.65043" lon="1.75749">
        <ele>1857.4</ele>
        <time>2014-03-11T13:14:58Z</time>
      </trkpt>
      <trkpt lat="42.65041" lon="1.75736">
        <ele>1855.96</ele>
        <time>2014-03-11T13:15:08Z</time>
      </trkpt>
      <trkpt lat="42.65042" lon="1.7573">
        <ele>1856.44</ele>
        <time>2014-03-11T13:15:24Z</time>
      </trkpt>
      <trkpt lat="42.65041" lon="1.75716">
        <ele>1859.81</ele>
        <time>2014-03-11T13:15:37Z</time>
      </trkpt>
      <trkpt lat="42.65039" lon="1.75703">
        <ele>1864.13</ele>
        <time>2014-03-11T13:15:51Z</time>
      </trkpt>
      <trkpt lat="42.6504" lon="1.75695">
        <ele>1862.21</ele>
        <time>2014-03-11T13:16:04Z</time>
      </trkpt>
      <trkpt lat="42.65037" lon="1.75688">
        <ele>1866.06</ele>
        <time>2014-03-11T13:16:22Z</time>
      </trkpt>
      <trkpt lat="42.65035" lon="1.75678">
        <ele>1869.42</ele>
        <time>2014-03-11T13:16:36Z</time>
      </trkpt>
      <trkpt lat="42.65035" lon="1.75662">
        <ele>1870.86</ele>
        <time>2014-03-11T13:16:50Z</time>
      </trkpt>
      <trkpt lat="42.65036" lon="1.75651">
        <ele>1869.9</ele>
        <time>2014-03-11T13:17:04Z</time>
      </trkpt>
      <trkpt lat="42.65035" lon="1.7564">
        <ele>1867.98</ele>
        <time>2014-03-11T13:17:20Z</time>
      </trkpt>
      <trkpt lat="42.65033" lon="1.75626">
        <ele>1868.94</ele>
        <time>2014-03-11T13:17:34Z</time>
      </trkpt>
      <trkpt lat="42.65031" lon="1.75615">
        <ele>1872.79</ele>
        <time>2014-03-11T13:17:53Z</time>
      </trkpt>
      <trkpt lat="42.65028" lon="1.75603">
        <ele>1877.11</ele>
        <time>2014-03-11T13:18:04Z</time>
      </trkpt>
      <trkpt lat="42.65029" lon="1.75598">
        <ele>1876.63</ele>
        <time>2014-03-11T13:18:16Z</time>
      </trkpt>
      <trkpt lat="42.65026" lon="1.75587">
        <ele>1880.96</ele>
        <time>2014-03-11T13:18:28Z</time>
      </trkpt>
      <trkpt lat="42.65026" lon="1.7558">
        <ele>1882.4</ele>
        <time>2014-03-11T13:18:40Z</time>
      </trkpt>
      <trkpt lat="42.65025" lon="1.7557">
        <ele>1881.92</ele>
        <time>2014-03-11T13:18:54Z</time>
      </trkpt>
      <trkpt lat="42.65022" lon="1.75557">
        <ele>1884.32</ele>
        <time>2014-03-11T13:19:09Z</time>
      </trkpt>
      <trkpt lat="42.65023" lon="1.75548">
        <ele>1885.28</ele>
        <time>2014-03-11T13:19:26Z</time>
      </trkpt>
      <trkpt lat="42.65024" lon="1.75542">
        <ele>1885.28</ele>
        <time>2014-03-11T13:19:37Z</time>
      </trkpt>
      <trkpt lat="42.65025" lon="1.75536">
        <ele>1885.76</ele>
        <time>2014-03-11T13:19:49Z</time>
      </trkpt>
      <trkpt lat="42.65027" lon="1.75528">
        <ele>1887.69</ele>
        <time>2014-03-11T13:20:03Z</time>
      </trkpt>
      <trkpt lat="42.6503" lon="1.75516">
        <ele>1883.84</ele>
        <time>2014-03-11T13:20:14Z</time>
      </trkpt>
      <trkpt lat="42.65032" lon="1.75506">
        <ele>1883.84</ele>
        <time>2014-03-11T13:20:24Z</time>
      </trkpt>
      <trkpt lat="42.65034" lon="1.75495">
        <ele>1884.8</ele>
        <time>2014-03-11T13:20:36Z</time>
      </trkpt>
      <trkpt lat="42.65033" lon="1.75486">
        <ele>1887.21</ele>
        <time>2014-03-11T13:20:50Z</time>
      </trkpt>
      <trkpt lat="42.65029" lon="1.75477">
        <ele>1884.8</ele>
        <time>2014-03-11T13:21:02Z</time>
      </trkpt>
      <trkpt lat="42.65024" lon="1.75475">
        <ele>1889.61</ele>
        <time>2014-03-11T13:21:12Z</time>
      </trkpt>
      <trkpt lat="42.65022" lon="1.75476">
        <ele>1894.42</ele>
        <time>2014-03-11T13:21:27Z</time>
      </trkpt>
      <trkpt lat="42.65016" lon="1.7546">
        <ele>1901.14</ele>
        <time>2014-03-11T13:21:44Z</time>
      </trkpt>
      <trkpt lat="42.65015" lon="1.75456">
        <ele>1907.39</ele>
        <time>2014-03-11T13:21:54Z</time>
      </trkpt>
      <trkpt lat="42.65013" lon="1.75447">
        <ele>1909.32</ele>
        <time>2014-03-11T13:21:59Z</time>
      </trkpt>
      <trkpt lat="42.65012" lon="1.75435">
        <ele>1909.32</ele>
        <time>2014-03-11T13:22:10Z</time>
      </trkpt>
      <trkpt lat="42.65012" lon="1.75422">
        <ele>1910.76</ele>
        <time>2014-03-11T13:22:23Z</time>
      </trkpt>
      <trkpt lat="42.6501" lon="1.7541">
        <ele>1909.32</ele>
        <time>2014-03-11T13:22:37Z</time>
      </trkpt>
      <trkpt lat="42.65008" lon="1.75402">
        <ele>1907.39</ele>
        <time>2014-03-11T13:22:48Z</time>
      </trkpt>
      <trkpt lat="42.65007" lon="1.75396">
        <ele>1909.32</ele>
        <time>2014-03-11T13:23:01Z</time>
      </trkpt>
      <trkpt lat="42.65004" lon="1.75384">
        <ele>1908.35</ele>
        <time>2014-03-11T13:23:16Z</time>
      </trkpt>
      <trkpt lat="42.65004" lon="1.75372">
        <ele>1908.35</ele>
        <time>2014-03-11T13:23:29Z</time>
      </trkpt>
      <trkpt lat="42.65004" lon="1.75368">
        <ele>1908.35</ele>
        <time>2014-03-11T13:23:40Z</time>
      </trkpt>
      <trkpt lat="42.65003" lon="1.75361">
        <ele>1909.32</ele>
        <time>2014-03-11T13:23:52Z</time>
      </trkpt>
      <trkpt lat="42.65003" lon="1.75353">
        <ele>1908.83</ele>
        <time>2014-03-11T13:24:07Z</time>
      </trkpt>
      <trkpt lat="42.65002" lon="1.75343">
        <ele>1905.47</ele>
        <time>2014-03-11T13:24:19Z</time>
      </trkpt>
      <trkpt lat="42.65001" lon="1.75336">
        <ele>1907.39</ele>
        <time>2014-03-11T13:24:30Z</time>
      </trkpt>
      <trkpt lat="42.65001" lon="1.7533">
        <ele>1906.91</ele>
        <time>2014-03-11T13:24:42Z</time>
      </trkpt>
      <trkpt lat="42.65" lon="1.75322">
        <ele>1907.87</ele>
        <time>2014-03-11T13:24:52Z</time>
      </trkpt>
      <trkpt lat="42.64997" lon="1.7531">
        <ele>1910.76</ele>
        <time>2014-03-11T13:25:05Z</time>
      </trkpt>
      <trkpt lat="42.64999" lon="1.753">
        <ele>1911.72</ele>
        <time>2014-03-11T13:25:20Z</time>
      </trkpt>
      <trkpt lat="42.65001" lon="1.75293">
        <ele>1912.2</ele>
        <time>2014-03-11T13:25:32Z</time>
      </trkpt>
      <trkpt lat="42.65" lon="1.75281">
        <ele>1909.32</ele>
        <time>2014-03-11T13:25:45Z</time>
      </trkpt>
      <trkpt lat="42.65" lon="1.75271">
        <ele>1907.39</ele>
        <time>2014-03-11T13:26:00Z</time>
      </trkpt>
      <trkpt lat="42.64999" lon="1.7527">
        <ele>1907.87</ele>
        <time>2014-03-11T13:26:08Z</time>
      </trkpt>
      <trkpt lat="42.65001" lon="1.7527">
        <ele>1909.32</ele>
        <time>2014-03-11T13:26:17Z</time>
      </trkpt>
      <trkpt lat="42.65" lon="1.75262">
        <ele>1912.68</ele>
        <time>2014-03-11T13:26:27Z</time>
      </trkpt>
      <trkpt lat="42.64998" lon="1.75255">
        <ele>1914.12</ele>
        <time>2014-03-11T13:26:41Z</time>
      </trkpt>
      <trkpt lat="42.64996" lon="1.75253">
        <ele>1920.37</ele>
        <time>2014-03-11T13:26:51Z</time>
      </trkpt>
      <trkpt lat="42.64994" lon="1.75246">
        <ele>1921.81</ele>
        <time>2014-03-11T13:27:03Z</time>
      </trkpt>
      <trkpt lat="42.64992" lon="1.75238">
        <ele>1926.14</ele>
        <time>2014-03-11T13:27:16Z</time>
      </trkpt>
      <trkpt lat="42.64989" lon="1.75236">
        <ele>1927.58</ele>
        <time>2014-03-11T13:27:25Z</time>
      </trkpt>
      <trkpt lat="42.64988" lon="1.75229">
        <ele>1929.5</ele>
        <time>2014-03-11T13:27:33Z</time>
      </trkpt>
      <trkpt lat="42.64986" lon="1.75224">
        <ele>1930.95</ele>
        <time>2014-03-11T13:27:48Z</time>
      </trkpt>
      <trkpt lat="42.6498" lon="1.75214">
        <ele>1929.5</ele>
        <time>2014-03-11T13:28:04Z</time>
      </trkpt>
      <trkpt lat="42.64975" lon="1.75206">
        <ele>1930.95</ele>
        <time>2014-03-11T13:28:21Z</time>
      </trkpt>
      <trkpt lat="42.64971" lon="1.75196">
        <ele>1931.91</ele>
        <time>2014-03-11T13:28:33Z</time>
      </trkpt>
      <trkpt lat="42.64968" lon="1.75189">
        <ele>1933.83</ele>
        <time>2014-03-11T13:28:44Z</time>
      </trkpt>
      <trkpt lat="42.64965" lon="1.75182">
        <ele>1935.75</ele>
        <time>2014-03-11T13:28:55Z</time>
      </trkpt>
      <trkpt lat="42.64962" lon="1.75173">
        <ele>1936.23</ele>
        <time>2014-03-11T13:29:11Z</time>
      </trkpt>
      <trkpt lat="42.64958" lon="1.75167">
        <ele>1938.64</ele>
        <time>2014-03-11T13:29:20Z</time>
      </trkpt>
      <trkpt lat="42.64955" lon="1.75158">
        <ele>1940.56</ele>
        <time>2014-03-11T13:29:31Z</time>
      </trkpt>
      <trkpt lat="42.64953" lon="1.75154">
        <ele>1941.04</ele>
        <time>2014-03-11T13:29:35Z</time>
      </trkpt>
      <trkpt lat="42.64951" lon="1.75148">
        <ele>1943.44</ele>
        <time>2014-03-11T13:29:46Z</time>
      </trkpt>
      <trkpt lat="42.64949" lon="1.75143">
        <ele>1949.21</ele>
        <time>2014-03-11T13:29:56Z</time>
      </trkpt>
      <trkpt lat="42.64946" lon="1.75139">
        <ele>1948.73</ele>
        <time>2014-03-11T13:30:06Z</time>
      </trkpt>
      <trkpt lat="42.64945" lon="1.7513">
        <ele>1951.61</ele>
        <time>2014-03-11T13:30:19Z</time>
      </trkpt>
      <trkpt lat="42.64942" lon="1.75119">
        <ele>1951.13</ele>
        <time>2014-03-11T13:30:36Z</time>
      </trkpt>
      <trkpt lat="42.64939" lon="1.75112">
        <ele>1949.69</ele>
        <time>2014-03-11T13:30:49Z</time>
      </trkpt>
      <trkpt lat="42.64936" lon="1.75104">
        <ele>1948.25</ele>
        <time>2014-03-11T13:31:00Z</time>
      </trkpt>
      <trkpt lat="42.64933" lon="1.75095">
        <ele>1948.25</ele>
        <time>2014-03-11T13:31:13Z</time>
      </trkpt>
      <trkpt lat="42.64931" lon="1.75088">
        <ele>1949.69</ele>
        <time>2014-03-11T13:31:24Z</time>
      </trkpt>
      <trkpt lat="42.64928" lon="1.75081">
        <ele>1953.54</ele>
        <time>2014-03-11T13:31:38Z</time>
      </trkpt>
      <trkpt lat="42.64926" lon="1.75077">
        <ele>1955.46</ele>
        <time>2014-03-11T13:31:51Z</time>
      </trkpt>
      <trkpt lat="42.64925" lon="1.75072">
        <ele>1958.82</ele>
        <time>2014-03-11T13:32:00Z</time>
      </trkpt>
      <trkpt lat="42.64924" lon="1.75061">
        <ele>1958.82</ele>
        <time>2014-03-11T13:32:11Z</time>
      </trkpt>
      <trkpt lat="42.64925" lon="1.75054">
        <ele>1958.82</ele>
        <time>2014-03-11T13:32:23Z</time>
      </trkpt>
      <trkpt lat="42.64923" lon="1.75044">
        <ele>1955.46</ele>
        <time>2014-03-11T13:32:37Z</time>
      </trkpt>
      <trkpt lat="42.64922" lon="1.75037">
        <ele>1958.82</ele>
        <time>2014-03-11T13:32:48Z</time>
      </trkpt>
      <trkpt lat="42.64921" lon="1.75035">
        <ele>1957.86</ele>
        <time>2014-03-11T13:32:59Z</time>
      </trkpt>
      <trkpt lat="42.64919" lon="1.75026">
        <ele>1965.07</ele>
        <time>2014-03-11T13:33:11Z</time>
      </trkpt>
      <trkpt lat="42.64917" lon="1.75016">
        <ele>1967.96</ele>
        <time>2014-03-11T13:33:27Z</time>
      </trkpt>
      <trkpt lat="42.64916" lon="1.7501">
        <ele>1970.36</ele>
        <time>2014-03-11T13:33:37Z</time>
      </trkpt>
      <trkpt lat="42.64917" lon="1.75001">
        <ele>1971.32</ele>
        <time>2014-03-11T13:33:49Z</time>
      </trkpt>
      <trkpt lat="42.64916" lon="1.74994">
        <ele>1969.88</ele>
        <time>2014-03-11T13:34:00Z</time>
      </trkpt>
      <trkpt lat="42.64916" lon="1.74994">
        <ele>1968.44</ele>
        <time>2014-03-11T13:34:14Z</time>
      </trkpt>
      <trkpt lat="42.64912" lon="1.74994">
        <ele>1966.51</ele>
        <time>2014-03-11T13:34:34Z</time>
      </trkpt>
      <trkpt lat="42.64912" lon="1.7499">
        <ele>1959.78</ele>
        <time>2014-03-11T13:35:05Z</time>
      </trkpt>
      <trkpt lat="42.64912" lon="1.74987">
        <ele>1959.78</ele>
        <time>2014-03-11T13:35:26Z</time>
      </trkpt>
      <trkpt lat="42.64911" lon="1.7498">
        <ele>1955.46</ele>
        <time>2014-03-11T13:35:37Z</time>
      </trkpt>
      <trkpt lat="42.64906" lon="1.7498">
        <ele>1956.42</ele>
        <time>2014-03-11T13:35:48Z</time>
      </trkpt>
      <trkpt lat="42.64902" lon="1.74977">
        <ele>1956.9</ele>
        <time>2014-03-11T13:36:06Z</time>
      </trkpt>
      <trkpt lat="42.64898" lon="1.74972">
        <ele>1958.34</ele>
        <time>2014-03-11T13:36:19Z</time>
      </trkpt>
      <trkpt lat="42.64894" lon="1.74965">
        <ele>1958.34</ele>
        <time>2014-03-11T13:36:27Z</time>
      </trkpt>
      <trkpt lat="42.64892" lon="1.74953">
        <ele>1958.34</ele>
        <time>2014-03-11T13:36:37Z</time>
      </trkpt>
      <trkpt lat="42.64889" lon="1.74952">
        <ele>1958.82</ele>
        <time>2014-03-11T13:36:42Z</time>
      </trkpt>
      <trkpt lat="42.64883" lon="1.74944">
        <ele>1958.82</ele>
        <time>2014-03-11T13:36:52Z</time>
      </trkpt>
      <trkpt lat="42.64877" lon="1.74937">
        <ele>1959.3</ele>
        <time>2014-03-11T13:37:04Z</time>
      </trkpt>
      <trkpt lat="42.64875" lon="1.74933">
        <ele>1959.78</ele>
        <time>2014-03-11T13:37:08Z</time>
      </trkpt>
      <trkpt lat="42.64875" lon="1.74926">
        <ele>1959.3</ele>
        <time>2014-03-11T13:37:12Z</time>
      </trkpt>
      <trkpt lat="42.64873" lon="1.74921">
        <ele>1959.3</ele>
        <time>2014-03-11T13:37:16Z</time>
      </trkpt>
      <trkpt lat="42.6487" lon="1.74918">
        <ele>1958.34</ele>
        <time>2014-03-11T13:37:20Z</time>
      </trkpt>
      <trkpt lat="42.64864" lon="1.74908">
        <ele>1957.38</ele>
        <time>2014-03-11T13:37:31Z</time>
      </trkpt>
      <trkpt lat="42.64864" lon="1.74907">
        <ele>1957.86</ele>
        <time>2014-03-11T13:37:32Z</time>
      </trkpt>
      <trkpt lat="42.64862" lon="1.74904">
        <ele>1958.34</ele>
        <time>2014-03-11T13:37:36Z</time>
      </trkpt>
      <trkpt lat="42.64859" lon="1.7489">
        <ele>1960.27</ele>
        <time>2014-03-11T13:37:48Z</time>
      </trkpt>
      <trkpt lat="42.64858" lon="1.74878">
        <ele>1961.23</ele>
        <time>2014-03-11T13:38:00Z</time>
      </trkpt>
      <trkpt lat="42.64853" lon="1.74873">
        <ele>1962.67</ele>
        <time>2014-03-11T13:38:11Z</time>
      </trkpt>
      <trkpt lat="42.6485" lon="1.74865">
        <ele>1964.11</ele>
        <time>2014-03-11T13:38:21Z</time>
      </trkpt>
      <trkpt lat="42.64848" lon="1.74859">
        <ele>1964.59</ele>
        <time>2014-03-11T13:38:34Z</time>
      </trkpt>
      <trkpt lat="42.64841" lon="1.74851">
        <ele>1966.03</ele>
        <time>2014-03-11T13:38:49Z</time>
      </trkpt>
      <trkpt lat="42.64836" lon="1.74848">
        <ele>1966.51</ele>
        <time>2014-03-11T13:38:55Z</time>
      </trkpt>
      <trkpt lat="42.6483" lon="1.74834">
        <ele>1967.48</ele>
        <time>2014-03-11T13:39:08Z</time>
      </trkpt>
      <trkpt lat="42.64829" lon="1.74824">
        <ele>1967.48</ele>
        <time>2014-03-11T13:39:18Z</time>
      </trkpt>
      <trkpt lat="42.64828" lon="1.74809">
        <ele>1968.92</ele>
        <time>2014-03-11T13:39:34Z</time>
      </trkpt>
      <trkpt lat="42.64826" lon="1.74792">
        <ele>1968.92</ele>
        <time>2014-03-11T13:39:48Z</time>
      </trkpt>
      <trkpt lat="42.64826" lon="1.7478">
        <ele>1969.88</ele>
        <time>2014-03-11T13:40:01Z</time>
      </trkpt>
      <trkpt lat="42.64823" lon="1.74774">
        <ele>1967.96</ele>
        <time>2014-03-11T13:40:11Z</time>
      </trkpt>
      <trkpt lat="42.64823" lon="1.7477">
        <ele>1969.4</ele>
        <time>2014-03-11T13:40:21Z</time>
      </trkpt>
      <trkpt lat="42.64819" lon="1.74759">
        <ele>1973.24</ele>
        <time>2014-03-11T13:40:37Z</time>
      </trkpt>
      <trkpt lat="42.64817" lon="1.74751">
        <ele>1975.65</ele>
        <time>2014-03-11T13:40:50Z</time>
      </trkpt>
      <trkpt lat="42.64814" lon="1.74745">
        <ele>1978.53</ele>
        <time>2014-03-11T13:41:02Z</time>
      </trkpt>
      <trkpt lat="42.64811" lon="1.74736">
        <ele>1979.49</ele>
        <time>2014-03-11T13:41:12Z</time>
      </trkpt>
      <trkpt lat="42.64813" lon="1.74728">
        <ele>1980.45</ele>
        <time>2014-03-11T13:41:25Z</time>
      </trkpt>
      <trkpt lat="42.64812" lon="1.74722">
        <ele>1982.86</ele>
        <time>2014-03-11T13:41:37Z</time>
      </trkpt>
      <trkpt lat="42.6481" lon="1.74715">
        <ele>1982.86</ele>
        <time>2014-03-11T13:41:51Z</time>
      </trkpt>
      <trkpt lat="42.64809" lon="1.74713">
        <ele>1984.78</ele>
        <time>2014-03-11T13:41:59Z</time>
      </trkpt>
      <trkpt lat="42.64811" lon="1.74706">
        <ele>1983.34</ele>
        <time>2014-03-11T13:42:10Z</time>
      </trkpt>
      <trkpt lat="42.64809" lon="1.747">
        <ele>1983.34</ele>
        <time>2014-03-11T13:42:19Z</time>
      </trkpt>
      <trkpt lat="42.64805" lon="1.74696">
        <ele>1991.51</ele>
        <time>2014-03-11T13:42:34Z</time>
      </trkpt>
      <trkpt lat="42.64806" lon="1.74683">
        <ele>1991.51</ele>
        <time>2014-03-11T13:42:50Z</time>
      </trkpt>
      <trkpt lat="42.64809" lon="1.74673">
        <ele>1990.55</ele>
        <time>2014-03-11T13:43:06Z</time>
      </trkpt>
      <trkpt lat="42.64811" lon="1.74668">
        <ele>1989.59</ele>
        <time>2014-03-11T13:43:19Z</time>
      </trkpt>
      <trkpt lat="42.64802" lon="1.74662">
        <ele>1989.1</ele>
        <time>2014-03-11T13:43:31Z</time>
      </trkpt>
      <trkpt lat="42.64794" lon="1.74657">
        <ele>1988.62</ele>
        <time>2014-03-11T13:43:42Z</time>
      </trkpt>
      <trkpt lat="42.64788" lon="1.74653">
        <ele>1991.03</ele>
        <time>2014-03-11T13:43:59Z</time>
      </trkpt>
      <trkpt lat="42.64789" lon="1.74641">
        <ele>1995.83</ele>
        <time>2014-03-11T13:44:13Z</time>
      </trkpt>
      <trkpt lat="42.64788" lon="1.74632">
        <ele>1994.39</ele>
        <time>2014-03-11T13:44:26Z</time>
      </trkpt>
      <trkpt lat="42.64789" lon="1.74625">
        <ele>1993.91</ele>
        <time>2014-03-11T13:44:36Z</time>
      </trkpt>
      <trkpt lat="42.64789" lon="1.74618">
        <ele>1992.95</ele>
        <time>2014-03-11T13:44:46Z</time>
      </trkpt>
      <trkpt lat="42.64788" lon="1.74614">
        <ele>1992.47</ele>
        <time>2014-03-11T13:44:56Z</time>
      </trkpt>
      <trkpt lat="42.64785" lon="1.74611">
        <ele>1994.39</ele>
        <time>2014-03-11T13:45:06Z</time>
      </trkpt>
      <trkpt lat="42.64783" lon="1.74601">
        <ele>1995.83</ele>
        <time>2014-03-11T13:45:17Z</time>
      </trkpt>
      <trkpt lat="42.6478" lon="1.74594">
        <ele>2000.16</ele>
        <time>2014-03-11T13:45:31Z</time>
      </trkpt>
      <trkpt lat="42.64778" lon="1.74588">
        <ele>2001.12</ele>
        <time>2014-03-11T13:45:49Z</time>
      </trkpt>
      <trkpt lat="42.64773" lon="1.74584">
        <ele>2001.12</ele>
        <time>2014-03-11T13:46:02Z</time>
      </trkpt>
      <trkpt lat="42.64768" lon="1.74578">
        <ele>2002.08</ele>
        <time>2014-03-11T13:46:10Z</time>
      </trkpt>
      <trkpt lat="42.64768" lon="1.74568">
        <ele>2002.08</ele>
        <time>2014-03-11T13:46:21Z</time>
      </trkpt>
      <trkpt lat="42.64772" lon="1.74566">
        <ele>2002.08</ele>
        <time>2014-03-11T13:46:38Z</time>
      </trkpt>
      <trkpt lat="42.64767" lon="1.74557">
        <ele>2002.56</ele>
        <time>2014-03-11T13:46:49Z</time>
      </trkpt>
      <trkpt lat="42.64765" lon="1.74554">
        <ele>2003.04</ele>
        <time>2014-03-11T13:46:52Z</time>
      </trkpt>
      <trkpt lat="42.64758" lon="1.74544">
        <ele>2003.52</ele>
        <time>2014-03-11T13:47:07Z</time>
      </trkpt>
      <trkpt lat="42.64751" lon="1.74533">
        <ele>2005.45</ele>
        <time>2014-03-11T13:47:24Z</time>
      </trkpt>
      <trkpt lat="42.64747" lon="1.74516">
        <ele>2007.37</ele>
        <time>2014-03-11T13:47:39Z</time>
      </trkpt>
      <trkpt lat="42.64745" lon="1.74506">
        <ele>2009.29</ele>
        <time>2014-03-11T13:47:47Z</time>
      </trkpt>
      <trkpt lat="42.64747" lon="1.74492">
        <ele>2017.94</ele>
        <time>2014-03-11T13:48:00Z</time>
      </trkpt>
      <trkpt lat="42.64742" lon="1.74484">
        <ele>2016.98</ele>
        <time>2014-03-11T13:48:13Z</time>
      </trkpt>
      <trkpt lat="42.64738" lon="1.74472">
        <ele>2018.43</ele>
        <time>2014-03-11T13:48:30Z</time>
      </trkpt>
      <trkpt lat="42.64736" lon="1.74457">
        <ele>2018.43</ele>
        <time>2014-03-11T13:48:49Z</time>
      </trkpt>
      <trkpt lat="42.64733" lon="1.74446">
        <ele>2018.43</ele>
        <time>2014-03-11T13:49:01Z</time>
      </trkpt>
      <trkpt lat="42.64731" lon="1.74435">
        <ele>2019.39</ele>
        <time>2014-03-11T13:49:18Z</time>
      </trkpt>
      <trkpt lat="42.64727" lon="1.74431">
        <ele>2020.35</ele>
        <time>2014-03-11T13:49:32Z</time>
      </trkpt>
      <trkpt lat="42.64723" lon="1.74427">
        <ele>2019.39</ele>
        <time>2014-03-11T13:49:43Z</time>
      </trkpt>
      <trkpt lat="42.64718" lon="1.74423">
        <ele>2020.35</ele>
        <time>2014-03-11T13:49:51Z</time>
      </trkpt>
      <trkpt lat="42.64712" lon="1.7442">
        <ele>2020.83</ele>
        <time>2014-03-11T13:50:05Z</time>
      </trkpt>
      <trkpt lat="42.64706" lon="1.74414">
        <ele>2021.31</ele>
        <time>2014-03-11T13:50:18Z</time>
      </trkpt>
      <trkpt lat="42.64702" lon="1.74407">
        <ele>2021.31</ele>
        <time>2014-03-11T13:50:29Z</time>
      </trkpt>
      <trkpt lat="42.647" lon="1.744">
        <ele>2023.23</ele>
        <time>2014-03-11T13:50:43Z</time>
      </trkpt>
      <trkpt lat="42.64702" lon="1.74395">
        <ele>2023.23</ele>
        <time>2014-03-11T13:50:50Z</time>
      </trkpt>
      <trkpt lat="42.64699" lon="1.74387">
        <ele>2024.67</ele>
        <time>2014-03-11T13:51:01Z</time>
      </trkpt>
      <trkpt lat="42.64702" lon="1.74369">
        <ele>2016.98</ele>
        <time>2014-03-11T13:51:16Z</time>
      </trkpt>
      <trkpt lat="42.64698" lon="1.74374">
        <ele>2026.6</ele>
        <time>2014-03-11T13:51:30Z</time>
      </trkpt>
      <trkpt lat="42.64699" lon="1.74365">
        <ele>2031.88</ele>
        <time>2014-03-11T13:51:45Z</time>
      </trkpt>
      <trkpt lat="42.64699" lon="1.74353">
        <ele>2028.04</ele>
        <time>2014-03-11T13:51:58Z</time>
      </trkpt>
      <trkpt lat="42.64699" lon="1.74342">
        <ele>2027.56</ele>
        <time>2014-03-11T13:52:09Z</time>
      </trkpt>
      <trkpt lat="42.647" lon="1.74337">
        <ele>2029.96</ele>
        <time>2014-03-11T13:52:19Z</time>
      </trkpt>
      <trkpt lat="42.64699" lon="1.74335">
        <ele>2029.48</ele>
        <time>2014-03-11T13:52:29Z</time>
      </trkpt>
      <trkpt lat="42.64693" lon="1.74331">
        <ele>2029</ele>
        <time>2014-03-11T13:52:39Z</time>
      </trkpt>
      <trkpt lat="42.64686" lon="1.7433">
        <ele>2029.48</ele>
        <time>2014-03-11T13:52:52Z</time>
      </trkpt>
      <trkpt lat="42.64682" lon="1.74326">
        <ele>2030.44</ele>
        <time>2014-03-11T13:53:08Z</time>
      </trkpt>
      <trkpt lat="42.64673" lon="1.74323">
        <ele>2030.92</ele>
        <time>2014-03-11T13:53:23Z</time>
      </trkpt>
      <trkpt lat="42.64669" lon="1.7432">
        <ele>2031.4</ele>
        <time>2014-03-11T13:53:32Z</time>
      </trkpt>
      <trkpt lat="42.64663" lon="1.74318">
        <ele>2031.88</ele>
        <time>2014-03-11T13:53:43Z</time>
      </trkpt>
      <trkpt lat="42.64657" lon="1.7432">
        <ele>2032.36</ele>
        <time>2014-03-11T13:53:51Z</time>
      </trkpt>
      <trkpt lat="42.64655" lon="1.7432">
        <ele>2032.84</ele>
        <time>2014-03-11T13:53:56Z</time>
      </trkpt>
      <trkpt lat="42.64657" lon="1.74317">
        <ele>2033.81</ele>
        <time>2014-03-11T13:54:07Z</time>
      </trkpt>
      <trkpt lat="42.6466" lon="1.74305">
        <ele>2054.47</ele>
        <time>2014-03-11T13:54:17Z</time>
      </trkpt>
      <trkpt lat="42.64663" lon="1.74299">
        <ele>2056.88</ele>
        <time>2014-03-11T13:54:30Z</time>
      </trkpt>
      <trkpt lat="42.64665" lon="1.74293">
        <ele>2057.84</ele>
        <time>2014-03-11T13:54:42Z</time>
      </trkpt>
      <trkpt lat="42.64664" lon="1.74282">
        <ele>2056.88</ele>
        <time>2014-03-11T13:54:54Z</time>
      </trkpt>
      <trkpt lat="42.64668" lon="1.74275">
        <ele>2054.47</ele>
        <time>2014-03-11T13:55:06Z</time>
      </trkpt>
      <trkpt lat="42.64672" lon="1.74268">
        <ele>2055.92</ele>
        <time>2014-03-11T13:55:25Z</time>
      </trkpt>
      <trkpt lat="42.64672" lon="1.74264">
        <ele>2055.44</ele>
        <time>2014-03-11T13:55:37Z</time>
      </trkpt>
      <trkpt lat="42.64676" lon="1.74253">
        <ele>2058.32</ele>
        <time>2014-03-11T13:55:47Z</time>
      </trkpt>
      <trkpt lat="42.64673" lon="1.74246">
        <ele>2061.68</ele>
        <time>2014-03-11T13:55:59Z</time>
      </trkpt>
      <trkpt lat="42.64672" lon="1.74239">
        <ele>2065.53</ele>
        <time>2014-03-11T13:56:10Z</time>
      </trkpt>
      <trkpt lat="42.64678" lon="1.74233">
        <ele>2065.53</ele>
        <time>2014-03-11T13:56:23Z</time>
      </trkpt>
      <trkpt lat="42.64681" lon="1.74226">
        <ele>2061.2</ele>
        <time>2014-03-11T13:56:34Z</time>
      </trkpt>
      <trkpt lat="42.64687" lon="1.74224">
        <ele>2065.53</ele>
        <time>2014-03-11T13:56:46Z</time>
      </trkpt>
      <trkpt lat="42.64692" lon="1.74223">
        <ele>2066.97</ele>
        <time>2014-03-11T13:56:59Z</time>
      </trkpt>
      <trkpt lat="42.64698" lon="1.7422">
        <ele>2070.34</ele>
        <time>2014-03-11T13:57:08Z</time>
      </trkpt>
      <trkpt lat="42.64705" lon="1.74222">
        <ele>2070.82</ele>
        <time>2014-03-11T13:57:22Z</time>
      </trkpt>
      <trkpt lat="42.64711" lon="1.74224">
        <ele>2072.74</ele>
        <time>2014-03-11T13:57:31Z</time>
      </trkpt>
      <trkpt lat="42.64713" lon="1.74222">
        <ele>2076.1</ele>
        <time>2014-03-11T13:57:43Z</time>
      </trkpt>
      <trkpt lat="42.64709" lon="1.74223">
        <ele>2076.59</ele>
        <time>2014-03-11T13:57:53Z</time>
      </trkpt>
      <trkpt lat="42.64707" lon="1.7422">
        <ele>2079.47</ele>
        <time>2014-03-11T13:58:05Z</time>
      </trkpt>
      <trkpt lat="42.64703" lon="1.74213">
        <ele>2081.39</ele>
        <time>2014-03-11T13:58:17Z</time>
      </trkpt>
      <trkpt lat="42.64699" lon="1.7421">
        <ele>2083.31</ele>
        <time>2014-03-11T13:58:28Z</time>
      </trkpt>
      <trkpt lat="42.64694" lon="1.74205">
        <ele>2079.95</ele>
        <time>2014-03-11T13:58:41Z</time>
      </trkpt>
      <trkpt lat="42.64691" lon="1.742">
        <ele>2083.31</ele>
        <time>2014-03-11T13:58:52Z</time>
      </trkpt>
      <trkpt lat="42.64692" lon="1.74196">
        <ele>2080.43</ele>
        <time>2014-03-11T13:59:02Z</time>
      </trkpt>
      <trkpt lat="42.64704" lon="1.74194">
        <ele>2082.83</ele>
        <time>2014-03-11T13:59:14Z</time>
      </trkpt>
      <trkpt lat="42.64709" lon="1.74193">
        <ele>2081.87</ele>
        <time>2014-03-11T13:59:24Z</time>
      </trkpt>
      <trkpt lat="42.64715" lon="1.74193">
        <ele>2085.24</ele>
        <time>2014-03-11T13:59:37Z</time>
      </trkpt>
      <trkpt lat="42.64721" lon="1.74192">
        <ele>2083.31</ele>
        <time>2014-03-11T13:59:49Z</time>
      </trkpt>
      <trkpt lat="42.64726" lon="1.74194">
        <ele>2087.64</ele>
        <time>2014-03-11T14:00:02Z</time>
      </trkpt>
      <trkpt lat="42.64728" lon="1.74192">
        <ele>2089.08</ele>
        <time>2014-03-11T14:00:11Z</time>
      </trkpt>
      <trkpt lat="42.64724" lon="1.74188">
        <ele>2088.12</ele>
        <time>2014-03-11T14:00:20Z</time>
      </trkpt>
      <trkpt lat="42.64719" lon="1.74183">
        <ele>2088.12</ele>
        <time>2014-03-11T14:00:32Z</time>
      </trkpt>
      <trkpt lat="42.64713" lon="1.74182">
        <ele>2087.16</ele>
        <time>2014-03-11T14:00:43Z</time>
      </trkpt>
      <trkpt lat="42.64713" lon="1.74182">
        <ele>2087.16</ele>
        <time>2014-03-11T14:00:44Z</time>
      </trkpt>
      <trkpt lat="42.64708" lon="1.74176">
        <ele>2086.68</ele>
        <time>2014-03-11T14:00:56Z</time>
      </trkpt>
      <trkpt lat="42.64706" lon="1.7417">
        <ele>2088.12</ele>
        <time>2014-03-11T14:01:09Z</time>
      </trkpt>
      <trkpt lat="42.64703" lon="1.74166">
        <ele>2089.08</ele>
        <time>2014-03-11T14:01:19Z</time>
      </trkpt>
      <trkpt lat="42.64698" lon="1.74161">
        <ele>2090.04</ele>
        <time>2014-03-11T14:01:32Z</time>
      </trkpt>
      <trkpt lat="42.64693" lon="1.74157">
        <ele>2091.49</ele>
        <time>2014-03-11T14:01:43Z</time>
      </trkpt>
      <trkpt lat="42.64687" lon="1.74151">
        <ele>2093.89</ele>
        <time>2014-03-11T14:01:57Z</time>
      </trkpt>
      <trkpt lat="42.64688" lon="1.74147">
        <ele>2093.89</ele>
        <time>2014-03-11T14:02:03Z</time>
      </trkpt>
      <trkpt lat="42.64691" lon="1.74142">
        <ele>2094.37</ele>
        <time>2014-03-11T14:02:13Z</time>
      </trkpt>
      <trkpt lat="42.64697" lon="1.74137">
        <ele>2097.25</ele>
        <time>2014-03-11T14:02:26Z</time>
      </trkpt>
      <trkpt lat="42.64699" lon="1.74135">
        <ele>2096.29</ele>
        <time>2014-03-11T14:02:38Z</time>
      </trkpt>
      <trkpt lat="42.64701" lon="1.74129">
        <ele>2101.58</ele>
        <time>2014-03-11T14:02:49Z</time>
      </trkpt>
      <trkpt lat="42.64705" lon="1.74131">
        <ele>2102.06</ele>
        <time>2014-03-11T14:02:59Z</time>
      </trkpt>
      <trkpt lat="42.64703" lon="1.74132">
        <ele>2102.54</ele>
        <time>2014-03-11T14:03:10Z</time>
      </trkpt>
      <trkpt lat="42.64698" lon="1.74129">
        <ele>2103.98</ele>
        <time>2014-03-11T14:03:24Z</time>
      </trkpt>
      <trkpt lat="42.64693" lon="1.74126">
        <ele>2105.42</ele>
        <time>2014-03-11T14:03:36Z</time>
      </trkpt>
      <trkpt lat="42.64687" lon="1.74121">
        <ele>2106.87</ele>
        <time>2014-03-11T14:03:51Z</time>
      </trkpt>
      <trkpt lat="42.64683" lon="1.74118">
        <ele>2108.31</ele>
        <time>2014-03-11T14:04:02Z</time>
      </trkpt>
      <trkpt lat="42.64677" lon="1.74113">
        <ele>2106.87</ele>
        <time>2014-03-11T14:04:15Z</time>
      </trkpt>
      <trkpt lat="42.64675" lon="1.74108">
        <ele>2106.39</ele>
        <time>2014-03-11T14:04:24Z</time>
      </trkpt>
      <trkpt lat="42.6468" lon="1.74103">
        <ele>2107.83</ele>
        <time>2014-03-11T14:04:35Z</time>
      </trkpt>
      <trkpt lat="42.64686" lon="1.74098">
        <ele>2110.23</ele>
        <time>2014-03-11T14:04:47Z</time>
      </trkpt>
      <trkpt lat="42.64692" lon="1.74095">
        <ele>2109.27</ele>
        <time>2014-03-11T14:04:59Z</time>
      </trkpt>
      <trkpt lat="42.64692" lon="1.74093">
        <ele>2110.71</ele>
        <time>2014-03-11T14:05:03Z</time>
      </trkpt>
      <trkpt lat="42.64694" lon="1.74093">
        <ele>2110.71</ele>
        <time>2014-03-11T14:05:14Z</time>
      </trkpt>
      <trkpt lat="42.64691" lon="1.74093">
        <ele>2111.67</ele>
        <time>2014-03-11T14:05:23Z</time>
      </trkpt>
      <trkpt lat="42.64686" lon="1.7409">
        <ele>2112.63</ele>
        <time>2014-03-11T14:05:35Z</time>
      </trkpt>
      <trkpt lat="42.64681" lon="1.74091">
        <ele>2113.6</ele>
        <time>2014-03-11T14:05:48Z</time>
      </trkpt>
      <trkpt lat="42.64676" lon="1.74086">
        <ele>2114.08</ele>
        <time>2014-03-11T14:06:00Z</time>
      </trkpt>
      <trkpt lat="42.6467" lon="1.74083">
        <ele>2114.08</ele>
        <time>2014-03-11T14:06:12Z</time>
      </trkpt>
      <trkpt lat="42.64665" lon="1.74083">
        <ele>2114.08</ele>
        <time>2014-03-11T14:06:25Z</time>
      </trkpt>
      <trkpt lat="42.64661" lon="1.74081">
        <ele>2116.48</ele>
        <time>2014-03-11T14:06:38Z</time>
      </trkpt>
      <trkpt lat="42.64659" lon="1.74077">
        <ele>2114.56</ele>
        <time>2014-03-11T14:06:49Z</time>
      </trkpt>
      <trkpt lat="42.64659" lon="1.74076">
        <ele>2120.81</ele>
        <time>2014-03-11T14:07:06Z</time>
      </trkpt>
      <trkpt lat="42.64663" lon="1.74074">
        <ele>2121.29</ele>
        <time>2014-03-11T14:07:25Z</time>
      </trkpt>
      <trkpt lat="42.64663" lon="1.74073">
        <ele>2121.29</ele>
        <time>2014-03-11T14:07:26Z</time>
      </trkpt>
      <trkpt lat="42.64672" lon="1.74065">
        <ele>2124.65</ele>
        <time>2014-03-11T14:07:38Z</time>
      </trkpt>
      <trkpt lat="42.64673" lon="1.74063">
        <ele>2124.17</ele>
        <time>2014-03-11T14:07:42Z</time>
      </trkpt>
      <trkpt lat="42.6467" lon="1.74062">
        <ele>2127.53</ele>
        <time>2014-03-11T14:07:54Z</time>
      </trkpt>
      <trkpt lat="42.64666" lon="1.7406">
        <ele>2124.17</ele>
        <time>2014-03-11T14:08:11Z</time>
      </trkpt>
      <trkpt lat="42.64659" lon="1.74059">
        <ele>2124.65</ele>
        <time>2014-03-11T14:08:24Z</time>
      </trkpt>
      <trkpt lat="42.64654" lon="1.74058">
        <ele>2125.61</ele>
        <time>2014-03-11T14:08:38Z</time>
      </trkpt>
      <trkpt lat="42.64652" lon="1.74059">
        <ele>2126.57</ele>
        <time>2014-03-11T14:08:45Z</time>
      </trkpt>
      <trkpt lat="42.64653" lon="1.74053">
        <ele>2130.42</ele>
        <time>2014-03-11T14:08:55Z</time>
      </trkpt>
      <trkpt lat="42.64653" lon="1.74046">
        <ele>2134.74</ele>
        <time>2014-03-11T14:09:09Z</time>
      </trkpt>
      <trkpt lat="42.64655" lon="1.74037">
        <ele>2133.78</ele>
        <time>2014-03-11T14:09:19Z</time>
      </trkpt>
      <trkpt lat="42.64655" lon="1.74032">
        <ele>2138.59</ele>
        <time>2014-03-11T14:09:31Z</time>
      </trkpt>
      <trkpt lat="42.64653" lon="1.74031">
        <ele>2142.92</ele>
        <time>2014-03-11T14:09:42Z</time>
      </trkpt>
      <trkpt lat="42.64648" lon="1.74028">
        <ele>2143.4</ele>
        <time>2014-03-11T14:09:54Z</time>
      </trkpt>
      <trkpt lat="42.64645" lon="1.74026">
        <ele>2142.92</ele>
        <time>2014-03-11T14:10:06Z</time>
      </trkpt>
      <trkpt lat="42.64644" lon="1.7402">
        <ele>2141.47</ele>
        <time>2014-03-11T14:10:15Z</time>
      </trkpt>
      <trkpt lat="42.64646" lon="1.74013">
        <ele>2144.84</ele>
        <time>2014-03-11T14:10:27Z</time>
      </trkpt>
      <trkpt lat="42.64648" lon="1.74011">
        <ele>2147.72</ele>
        <time>2014-03-11T14:10:38Z</time>
      </trkpt>
      <trkpt lat="42.64649" lon="1.74008">
        <ele>2147.24</ele>
        <time>2014-03-11T14:10:43Z</time>
      </trkpt>
      <trkpt lat="42.64645" lon="1.74005">
        <ele>2144.36</ele>
        <time>2014-03-11T14:10:54Z</time>
      </trkpt>
      <trkpt lat="42.64641" lon="1.73999">
        <ele>2146.28</ele>
        <time>2014-03-11T14:11:06Z</time>
      </trkpt>
      <trkpt lat="42.64639" lon="1.73996">
        <ele>2148.68</ele>
        <time>2014-03-11T14:11:18Z</time>
      </trkpt>
      <trkpt lat="42.6464" lon="1.73992">
        <ele>2150.61</ele>
        <time>2014-03-11T14:11:36Z</time>
      </trkpt>
      <trkpt lat="42.6464" lon="1.73992">
        <ele>2153.01</ele>
        <time>2014-03-11T14:11:53Z</time>
      </trkpt>
      <trkpt lat="42.6464" lon="1.7399">
        <ele>2153.01</ele>
        <time>2014-03-11T14:12:11Z</time>
      </trkpt>
      <trkpt lat="42.64641" lon="1.73989">
        <ele>2152.05</ele>
        <time>2014-03-11T14:12:31Z</time>
      </trkpt>
      <trkpt lat="42.6464" lon="1.73991">
        <ele>2153.49</ele>
        <time>2014-03-11T14:12:56Z</time>
      </trkpt>
      <trkpt lat="42.64635" lon="1.73986">
        <ele>2146.28</ele>
        <time>2014-03-11T14:13:27Z</time>
      </trkpt>
      <trkpt lat="42.64636" lon="1.73985">
        <ele>2141.95</ele>
        <time>2014-03-11T14:13:58Z</time>
      </trkpt>
      <trkpt lat="42.64637" lon="1.73985">
        <ele>2143.88</ele>
        <time>2014-03-11T14:14:24Z</time>
      </trkpt>
      <trkpt lat="42.64638" lon="1.73982">
        <ele>2147.24</ele>
        <time>2014-03-11T14:14:52Z</time>
      </trkpt>
      <trkpt lat="42.64639" lon="1.7399">
        <ele>2148.68</ele>
        <time>2014-03-11T14:15:13Z</time>
      </trkpt>
      <trkpt lat="42.64642" lon="1.73988">
        <ele>2151.09</ele>
        <time>2014-03-11T14:15:38Z</time>
      </trkpt>
      <trkpt lat="42.64643" lon="1.73992">
        <ele>2147.24</ele>
        <time>2014-03-11T14:15:57Z</time>
      </trkpt>
      <trkpt lat="42.64643" lon="1.73991">
        <ele>2149.65</ele>
        <time>2014-03-11T14:16:17Z</time>
      </trkpt>
      <trkpt lat="42.64641" lon="1.7399">
        <ele>2153.01</ele>
        <time>2014-03-11T14:16:43Z</time>
      </trkpt>
      <trkpt lat="42.64644" lon="1.73993">
        <ele>2153.01</ele>
        <time>2014-03-11T14:17:12Z</time>
      </trkpt>
      <trkpt lat="42.64645" lon="1.73995">
        <ele>2152.53</ele>
        <time>2014-03-11T14:17:34Z</time>
      </trkpt>
      <trkpt lat="42.64646" lon="1.7399">
        <ele>2151.09</ele>
        <time>2014-03-11T14:18:09Z</time>
      </trkpt>
      <trkpt lat="42.64644" lon="1.73993">
        <ele>2152.05</ele>
        <time>2014-03-11T14:18:34Z</time>
      </trkpt>
      <trkpt lat="42.64642" lon="1.73992">
        <ele>2154.45</ele>
        <time>2014-03-11T14:18:46Z</time>
      </trkpt>
      <trkpt lat="42.64644" lon="1.73991">
        <ele>2153.49</ele>
        <time>2014-03-11T14:19:00Z</time>
      </trkpt>
      <trkpt lat="42.64645" lon="1.73991">
        <ele>2154.93</ele>
        <time>2014-03-11T14:19:17Z</time>
      </trkpt>
      <trkpt lat="42.64642" lon="1.7399">
        <ele>2154.93</ele>
        <time>2014-03-11T14:19:33Z</time>
      </trkpt>
      <trkpt lat="42.64641" lon="1.7398">
        <ele>2154.45</ele>
        <time>2014-03-11T14:19:45Z</time>
      </trkpt>
      <trkpt lat="42.64639" lon="1.7397">
        <ele>2154.45</ele>
        <time>2014-03-11T14:19:59Z</time>
      </trkpt>
      <trkpt lat="42.64636" lon="1.73966">
        <ele>2153.97</ele>
        <time>2014-03-11T14:20:12Z</time>
      </trkpt>
      <trkpt lat="42.64633" lon="1.73956">
        <ele>2154.45</ele>
        <time>2014-03-11T14:20:25Z</time>
      </trkpt>
      <trkpt lat="42.6463" lon="1.73945">
        <ele>2153.97</ele>
        <time>2014-03-11T14:20:41Z</time>
      </trkpt>
      <trkpt lat="42.64627" lon="1.73939">
        <ele>2154.45</ele>
        <time>2014-03-11T14:20:51Z</time>
      </trkpt>
      <trkpt lat="42.64624" lon="1.73932">
        <ele>2153.97</ele>
        <time>2014-03-11T14:21:02Z</time>
      </trkpt>
      <trkpt lat="42.64622" lon="1.73925">
        <ele>2156.86</ele>
        <time>2014-03-11T14:21:19Z</time>
      </trkpt>
      <trkpt lat="42.6462" lon="1.7392">
        <ele>2157.82</ele>
        <time>2014-03-11T14:21:33Z</time>
      </trkpt>
      <trkpt lat="42.64618" lon="1.73913">
        <ele>2159.26</ele>
        <time>2014-03-11T14:21:49Z</time>
      </trkpt>
      <trkpt lat="42.64614" lon="1.73903">
        <ele>2161.66</ele>
        <time>2014-03-11T14:22:06Z</time>
      </trkpt>
      <trkpt lat="42.64609" lon="1.73896">
        <ele>2162.14</ele>
        <time>2014-03-11T14:22:22Z</time>
      </trkpt>
      <trkpt lat="42.64605" lon="1.7389">
        <ele>2166.95</ele>
        <time>2014-03-11T14:22:36Z</time>
      </trkpt>
      <trkpt lat="42.64598" lon="1.73886">
        <ele>2170.31</ele>
        <time>2014-03-11T14:22:47Z</time>
      </trkpt>
      <trkpt lat="42.64598" lon="1.73879">
        <ele>2169.83</ele>
        <time>2014-03-11T14:22:58Z</time>
      </trkpt>
      <trkpt lat="42.646" lon="1.7387">
        <ele>2170.31</ele>
        <time>2014-03-11T14:23:12Z</time>
      </trkpt>
      <trkpt lat="42.64602" lon="1.73862">
        <ele>2173.68</ele>
        <time>2014-03-11T14:23:30Z</time>
      </trkpt>
      <trkpt lat="42.64603" lon="1.73858">
        <ele>2174.16</ele>
        <time>2014-03-11T14:23:41Z</time>
      </trkpt>
      <trkpt lat="42.64598" lon="1.73853">
        <ele>2177.04</ele>
        <time>2014-03-11T14:23:56Z</time>
      </trkpt>
      <trkpt lat="42.64592" lon="1.73849">
        <ele>2178</ele>
        <time>2014-03-11T14:24:07Z</time>
      </trkpt>
      <trkpt lat="42.64587" lon="1.73846">
        <ele>2179.45</ele>
        <time>2014-03-11T14:24:18Z</time>
      </trkpt>
      <trkpt lat="42.64586" lon="1.73846">
        <ele>2179.93</ele>
        <time>2014-03-11T14:24:21Z</time>
      </trkpt>
      <trkpt lat="42.64588" lon="1.73838">
        <ele>2180.89</ele>
        <time>2014-03-11T14:24:34Z</time>
      </trkpt>
      <trkpt lat="42.64592" lon="1.73829">
        <ele>2182.81</ele>
        <time>2014-03-11T14:24:49Z</time>
      </trkpt>
      <trkpt lat="42.64589" lon="1.73829">
        <ele>2185.21</ele>
        <time>2014-03-11T14:24:58Z</time>
      </trkpt>
      <trkpt lat="42.64583" lon="1.73826">
        <ele>2189.06</ele>
        <time>2014-03-11T14:25:10Z</time>
      </trkpt>
      <trkpt lat="42.64577" lon="1.73824">
        <ele>2191.94</ele>
        <time>2014-03-11T14:25:21Z</time>
      </trkpt>
      <trkpt lat="42.64578" lon="1.73819">
        <ele>2193.39</ele>
        <time>2014-03-11T14:25:31Z</time>
      </trkpt>
      <trkpt lat="42.6458" lon="1.73811">
        <ele>2195.79</ele>
        <time>2014-03-11T14:25:43Z</time>
      </trkpt>
      <trkpt lat="42.64583" lon="1.73806">
        <ele>2197.23</ele>
        <time>2014-03-11T14:25:53Z</time>
      </trkpt>
      <trkpt lat="42.64582" lon="1.73801">
        <ele>2200.11</ele>
        <time>2014-03-11T14:26:05Z</time>
      </trkpt>
      <trkpt lat="42.64576" lon="1.738">
        <ele>2201.56</ele>
        <time>2014-03-11T14:26:19Z</time>
      </trkpt>
      <trkpt lat="42.6457" lon="1.73797">
        <ele>2203.96</ele>
        <time>2014-03-11T14:26:30Z</time>
      </trkpt>
      <trkpt lat="42.64568" lon="1.73794">
        <ele>2206.36</ele>
        <time>2014-03-11T14:26:44Z</time>
      </trkpt>
      <trkpt lat="42.64572" lon="1.73785">
        <ele>2203.96</ele>
        <time>2014-03-11T14:27:01Z</time>
      </trkpt>
      <trkpt lat="42.64577" lon="1.73779">
        <ele>2207.81</ele>
        <time>2014-03-11T14:27:17Z</time>
      </trkpt>
      <trkpt lat="42.64572" lon="1.73776">
        <ele>2205.4</ele>
        <time>2014-03-11T14:27:29Z</time>
      </trkpt>
      <trkpt lat="42.64567" lon="1.73773">
        <ele>2207.81</ele>
        <time>2014-03-11T14:27:40Z</time>
      </trkpt>
      <trkpt lat="42.64562" lon="1.73771">
        <ele>2210.21</ele>
        <time>2014-03-11T14:27:52Z</time>
      </trkpt>
      <trkpt lat="42.64557" lon="1.7377">
        <ele>2212.13</ele>
        <time>2014-03-11T14:28:05Z</time>
      </trkpt>
      <trkpt lat="42.64551" lon="1.73769">
        <ele>2214.53</ele>
        <time>2014-03-11T14:28:16Z</time>
      </trkpt>
      <trkpt lat="42.64551" lon="1.73765">
        <ele>2214.05</ele>
        <time>2014-03-11T14:28:27Z</time>
      </trkpt>
      <trkpt lat="42.64556" lon="1.73756">
        <ele>2217.42</ele>
        <time>2014-03-11T14:28:44Z</time>
      </trkpt>
      <trkpt lat="42.64559" lon="1.73749">
        <ele>2219.34</ele>
        <time>2014-03-11T14:28:55Z</time>
      </trkpt>
      <trkpt lat="42.64562" lon="1.73743">
        <ele>2222.71</ele>
        <time>2014-03-11T14:29:09Z</time>
      </trkpt>
      <trkpt lat="42.64566" lon="1.73739">
        <ele>2223.19</ele>
        <time>2014-03-11T14:29:18Z</time>
      </trkpt>
      <trkpt lat="42.64569" lon="1.73737">
        <ele>2224.63</ele>
        <time>2014-03-11T14:29:24Z</time>
      </trkpt>
      <trkpt lat="42.64562" lon="1.73736">
        <ele>2226.55</ele>
        <time>2014-03-11T14:29:37Z</time>
      </trkpt>
      <trkpt lat="42.64556" lon="1.73733">
        <ele>2227.99</ele>
        <time>2014-03-11T14:29:48Z</time>
      </trkpt>
      <trkpt lat="42.6455" lon="1.7373">
        <ele>2228.95</ele>
        <time>2014-03-11T14:30:01Z</time>
      </trkpt>
      <trkpt lat="42.64545" lon="1.73728">
        <ele>2229.92</ele>
        <time>2014-03-11T14:30:14Z</time>
      </trkpt>
      <trkpt lat="42.6454" lon="1.73725">
        <ele>2231.36</ele>
        <time>2014-03-11T14:30:26Z</time>
      </trkpt>
      <trkpt lat="42.64543" lon="1.73718">
        <ele>2230.4</ele>
        <time>2014-03-11T14:30:37Z</time>
      </trkpt>
      <trkpt lat="42.64545" lon="1.73713">
        <ele>2230.88</ele>
        <time>2014-03-11T14:30:48Z</time>
      </trkpt>
      <trkpt lat="42.64548" lon="1.73705">
        <ele>2233.28</ele>
        <time>2014-03-11T14:31:00Z</time>
      </trkpt>
      <trkpt lat="42.64552" lon="1.73698">
        <ele>2235.2</ele>
        <time>2014-03-11T14:31:14Z</time>
      </trkpt>
      <trkpt lat="42.64552" lon="1.73694">
        <ele>2237.13</ele>
        <time>2014-03-11T14:31:26Z</time>
      </trkpt>
      <trkpt lat="42.64549" lon="1.73692">
        <ele>2238.57</ele>
        <time>2014-03-11T14:31:38Z</time>
      </trkpt>
      <trkpt lat="42.64546" lon="1.73692">
        <ele>2237.13</ele>
        <time>2014-03-11T14:31:54Z</time>
      </trkpt>
      <trkpt lat="42.64544" lon="1.73689">
        <ele>2238.57</ele>
        <time>2014-03-11T14:32:07Z</time>
      </trkpt>
      <trkpt lat="42.64542" lon="1.73687">
        <ele>2239.05</ele>
        <time>2014-03-11T14:32:22Z</time>
      </trkpt>
      <trkpt lat="42.64536" lon="1.73681">
        <ele>2241.45</ele>
        <time>2014-03-11T14:32:34Z</time>
      </trkpt>
      <trkpt lat="42.64533" lon="1.73672">
        <ele>2243.37</ele>
        <time>2014-03-11T14:32:46Z</time>
      </trkpt>
      <trkpt lat="42.64533" lon="1.73666">
        <ele>2244.33</ele>
        <time>2014-03-11T14:32:59Z</time>
      </trkpt>
      <trkpt lat="42.64534" lon="1.73661">
        <ele>2244.82</ele>
        <time>2014-03-11T14:33:11Z</time>
      </trkpt>
      <trkpt lat="42.64533" lon="1.73658">
        <ele>2245.3</ele>
        <time>2014-03-11T14:33:15Z</time>
      </trkpt>
      <trkpt lat="42.64534" lon="1.73643">
        <ele>2245.3</ele>
        <time>2014-03-11T14:33:29Z</time>
      </trkpt>
      <trkpt lat="42.64535" lon="1.73635">
        <ele>2246.26</ele>
        <time>2014-03-11T14:33:45Z</time>
      </trkpt>
      <trkpt lat="42.64534" lon="1.73635">
        <ele>2247.22</ele>
        <time>2014-03-11T14:34:00Z</time>
      </trkpt>
      <trkpt lat="42.64533" lon="1.73636">
        <ele>2247.22</ele>
        <time>2014-03-11T14:34:14Z</time>
      </trkpt>
      <trkpt lat="42.64532" lon="1.73637">
        <ele>2247.22</ele>
        <time>2014-03-11T14:34:27Z</time>
      </trkpt>
      <trkpt lat="42.64531" lon="1.73635">
        <ele>2247.7</ele>
        <time>2014-03-11T14:34:45Z</time>
      </trkpt>
      <trkpt lat="42.64532" lon="1.73635">
        <ele>2247.22</ele>
        <time>2014-03-11T14:35:02Z</time>
      </trkpt>
      <trkpt lat="42.64532" lon="1.73635">
        <ele>2247.7</ele>
        <time>2014-03-11T14:35:29Z</time>
      </trkpt>
      <trkpt lat="42.64532" lon="1.73635">
        <ele>2248.66</ele>
        <time>2014-03-11T14:36:02Z</time>
      </trkpt>
      <trkpt lat="42.64534" lon="1.73636">
        <ele>2248.66</ele>
        <time>2014-03-11T14:36:31Z</time>
      </trkpt>
      <trkpt lat="42.64535" lon="1.73637">
        <ele>2249.62</ele>
        <time>2014-03-11T14:36:54Z</time>
      </trkpt>
      <trkpt lat="42.64532" lon="1.73635">
        <ele>2247.7</ele>
        <time>2014-03-11T14:37:22Z</time>
      </trkpt>
      <trkpt lat="42.64531" lon="1.73635">
        <ele>2248.66</ele>
        <time>2014-03-11T14:37:51Z</time>
      </trkpt>
      <trkpt lat="42.64531" lon="1.73634">
        <ele>2247.7</ele>
        <time>2014-03-11T14:38:12Z</time>
      </trkpt>
      <trkpt lat="42.64531" lon="1.73635">
        <ele>2247.7</ele>
        <time>2014-03-11T14:38:37Z</time>
      </trkpt>
      <trkpt lat="42.64532" lon="1.73634">
        <ele>2248.18</ele>
        <time>2014-03-11T14:39:07Z</time>
      </trkpt>
      <trkpt lat="42.64532" lon="1.73636">
        <ele>2247.22</ele>
        <time>2014-03-11T14:39:33Z</time>
      </trkpt>
      <trkpt lat="42.64532" lon="1.73637">
        <ele>2246.74</ele>
        <time>2014-03-11T14:40:06Z</time>
      </trkpt>
      <trkpt lat="42.64532" lon="1.73633">
        <ele>2244.82</ele>
        <time>2014-03-11T14:40:17Z</time>
      </trkpt>
      <trkpt lat="42.64532" lon="1.73633">
        <ele>2244.82</ele>
        <time>2014-03-11T14:40:26Z</time>
      </trkpt>
      <trkpt lat="42.64532" lon="1.73633">
        <ele>2244.82</ele>
        <time>2014-03-11T14:40:27Z</time>
      </trkpt>
      <trkpt lat="42.64525" lon="1.73632">
        <ele>2243.37</ele>
        <time>2014-03-11T14:40:34Z</time>
      </trkpt>
      <trkpt lat="42.64508" lon="1.7363">
        <ele>2241.93</ele>
        <time>2014-03-11T14:40:49Z</time>
      </trkpt>
      <trkpt lat="42.64498" lon="1.73628">
        <ele>2241.93</ele>
        <time>2014-03-11T14:41:00Z</time>
      </trkpt>
      <trkpt lat="42.64485" lon="1.73622">
        <ele>2241.93</ele>
        <time>2014-03-11T14:41:16Z</time>
      </trkpt>
      <trkpt lat="42.64472" lon="1.73617">
        <ele>2242.41</ele>
        <time>2014-03-11T14:41:31Z</time>
      </trkpt>
      <trkpt lat="42.64461" lon="1.7361">
        <ele>2241.93</ele>
        <time>2014-03-11T14:41:48Z</time>
      </trkpt>
      <trkpt lat="42.64459" lon="1.7361">
        <ele>2241.45</ele>
        <time>2014-03-11T14:41:51Z</time>
      </trkpt>
      <trkpt lat="42.6445" lon="1.73604">
        <ele>2241.93</ele>
        <time>2014-03-11T14:42:06Z</time>
      </trkpt>
      <trkpt lat="42.6444" lon="1.73598">
        <ele>2243.37</ele>
        <time>2014-03-11T14:42:20Z</time>
      </trkpt>
      <trkpt lat="42.6443" lon="1.73593">
        <ele>2244.82</ele>
        <time>2014-03-11T14:42:36Z</time>
      </trkpt>
      <trkpt lat="42.64421" lon="1.73588">
        <ele>2244.33</ele>
        <time>2014-03-11T14:42:50Z</time>
      </trkpt>
      <trkpt lat="42.64413" lon="1.73586">
        <ele>2244.82</ele>
        <time>2014-03-11T14:43:05Z</time>
      </trkpt>
      <trkpt lat="42.64404" lon="1.73583">
        <ele>2246.26</ele>
        <time>2014-03-11T14:43:18Z</time>
      </trkpt>
      <trkpt lat="42.64398" lon="1.73581">
        <ele>2246.26</ele>
        <time>2014-03-11T14:43:24Z</time>
      </trkpt>
      <trkpt lat="42.64389" lon="1.73577">
        <ele>2246.74</ele>
        <time>2014-03-11T14:43:37Z</time>
      </trkpt>
      <trkpt lat="42.64379" lon="1.73573">
        <ele>2246.26</ele>
        <time>2014-03-11T14:43:53Z</time>
      </trkpt>
      <trkpt lat="42.64372" lon="1.73569">
        <ele>2248.18</ele>
        <time>2014-03-11T14:44:05Z</time>
      </trkpt>
      <trkpt lat="42.64362" lon="1.73564">
        <ele>2249.62</ele>
        <time>2014-03-11T14:44:20Z</time>
      </trkpt>
      <trkpt lat="42.64355" lon="1.73559">
        <ele>2249.14</ele>
        <time>2014-03-11T14:44:36Z</time>
      </trkpt>
      <trkpt lat="42.64345" lon="1.73553">
        <ele>2249.62</ele>
        <time>2014-03-11T14:44:52Z</time>
      </trkpt>
      <trkpt lat="42.64339" lon="1.73549">
        <ele>2252.03</ele>
        <time>2014-03-11T14:45:06Z</time>
      </trkpt>
      <trkpt lat="42.64331" lon="1.73543">
        <ele>2252.51</ele>
        <time>2014-03-11T14:45:21Z</time>
      </trkpt>
      <trkpt lat="42.64324" lon="1.73536">
        <ele>2255.39</ele>
        <time>2014-03-11T14:45:37Z</time>
      </trkpt>
      <trkpt lat="42.64318" lon="1.7353">
        <ele>2255.87</ele>
        <time>2014-03-11T14:45:50Z</time>
      </trkpt>
      <trkpt lat="42.64312" lon="1.73524">
        <ele>2256.83</ele>
        <time>2014-03-11T14:46:03Z</time>
      </trkpt>
      <trkpt lat="42.64305" lon="1.73516">
        <ele>2256.83</ele>
        <time>2014-03-11T14:46:18Z</time>
      </trkpt>
      <trkpt lat="42.643" lon="1.73507">
        <ele>2257.31</ele>
        <time>2014-03-11T14:46:32Z</time>
      </trkpt>
      <trkpt lat="42.64295" lon="1.73498">
        <ele>2258.27</ele>
        <time>2014-03-11T14:46:46Z</time>
      </trkpt>
      <trkpt lat="42.64291" lon="1.73491">
        <ele>2260.2</ele>
        <time>2014-03-11T14:46:59Z</time>
      </trkpt>
      <trkpt lat="42.64287" lon="1.73483">
        <ele>2262.12</ele>
        <time>2014-03-11T14:47:11Z</time>
      </trkpt>
      <trkpt lat="42.64284" lon="1.73472">
        <ele>2264.04</ele>
        <time>2014-03-11T14:47:25Z</time>
      </trkpt>
      <trkpt lat="42.64281" lon="1.73459">
        <ele>2266.93</ele>
        <time>2014-03-11T14:47:40Z</time>
      </trkpt>
      <trkpt lat="42.64282" lon="1.73447">
        <ele>2268.85</ele>
        <time>2014-03-11T14:47:56Z</time>
      </trkpt>
      <trkpt lat="42.64284" lon="1.73435">
        <ele>2272.21</ele>
        <time>2014-03-11T14:48:10Z</time>
      </trkpt>
      <trkpt lat="42.64283" lon="1.73424">
        <ele>2274.14</ele>
        <time>2014-03-11T14:48:24Z</time>
      </trkpt>
      <trkpt lat="42.64282" lon="1.73414">
        <ele>2275.58</ele>
        <time>2014-03-11T14:48:37Z</time>
      </trkpt>
      <trkpt lat="42.64278" lon="1.73404">
        <ele>2275.58</ele>
        <time>2014-03-11T14:48:52Z</time>
      </trkpt>
      <trkpt lat="42.64274" lon="1.73395">
        <ele>2276.06</ele>
        <time>2014-03-11T14:49:03Z</time>
      </trkpt>
      <trkpt lat="42.6427" lon="1.73386">
        <ele>2275.58</ele>
        <time>2014-03-11T14:49:17Z</time>
      </trkpt>
      <trkpt lat="42.64266" lon="1.73378">
        <ele>2277.98</ele>
        <time>2014-03-11T14:49:32Z</time>
      </trkpt>
      <trkpt lat="42.64263" lon="1.73371">
        <ele>2277.98</ele>
        <time>2014-03-11T14:49:43Z</time>
      </trkpt>
      <trkpt lat="42.64262" lon="1.73368">
        <ele>2280.87</ele>
        <time>2014-03-11T14:49:55Z</time>
      </trkpt>
      <trkpt lat="42.64262" lon="1.73363">
        <ele>2281.35</ele>
        <time>2014-03-11T14:50:09Z</time>
      </trkpt>
      <trkpt lat="42.64259" lon="1.73352">
        <ele>2281.83</ele>
        <time>2014-03-11T14:50:21Z</time>
      </trkpt>
      <trkpt lat="42.64256" lon="1.73342">
        <ele>2283.75</ele>
        <time>2014-03-11T14:50:34Z</time>
      </trkpt>
      <trkpt lat="42.64254" lon="1.73334">
        <ele>2285.19</ele>
        <time>2014-03-11T14:50:46Z</time>
      </trkpt>
      <trkpt lat="42.6425" lon="1.73326">
        <ele>2286.15</ele>
        <time>2014-03-11T14:50:58Z</time>
      </trkpt>
      <trkpt lat="42.64244" lon="1.73321">
        <ele>2288.08</ele>
        <time>2014-03-11T14:51:10Z</time>
      </trkpt>
      <trkpt lat="42.64236" lon="1.73323">
        <ele>2290</ele>
        <time>2014-03-11T14:51:24Z</time>
      </trkpt>
      <trkpt lat="42.6423" lon="1.73326">
        <ele>2291.92</ele>
        <time>2014-03-11T14:51:34Z</time>
      </trkpt>
      <trkpt lat="42.64226" lon="1.73326">
        <ele>2292.88</ele>
        <time>2014-03-11T14:51:45Z</time>
      </trkpt>
      <trkpt lat="42.6422" lon="1.73318">
        <ele>2293.36</ele>
        <time>2014-03-11T14:52:00Z</time>
      </trkpt>
      <trkpt lat="42.64217" lon="1.7331">
        <ele>2295.28</ele>
        <time>2014-03-11T14:52:13Z</time>
      </trkpt>
      <trkpt lat="42.64214" lon="1.73304">
        <ele>2295.28</ele>
        <time>2014-03-11T14:52:23Z</time>
      </trkpt>
      <trkpt lat="42.64209" lon="1.73298">
        <ele>2295.77</ele>
        <time>2014-03-11T14:52:37Z</time>
      </trkpt>
      <trkpt lat="42.64204" lon="1.73297">
        <ele>2298.65</ele>
        <time>2014-03-11T14:52:48Z</time>
      </trkpt>
      <trkpt lat="42.64197" lon="1.73295">
        <ele>2299.13</ele>
        <time>2014-03-11T14:53:01Z</time>
      </trkpt>
      <trkpt lat="42.6419" lon="1.73288">
        <ele>2300.57</ele>
        <time>2014-03-11T14:53:16Z</time>
      </trkpt>
      <trkpt lat="42.64186" lon="1.73285">
        <ele>2302.49</ele>
        <time>2014-03-11T14:53:27Z</time>
      </trkpt>
      <trkpt lat="42.64184" lon="1.7328">
        <ele>2303.94</ele>
        <time>2014-03-11T14:53:37Z</time>
      </trkpt>
      <trkpt lat="42.64187" lon="1.73273">
        <ele>2304.9</ele>
        <time>2014-03-11T14:53:48Z</time>
      </trkpt>
      <trkpt lat="42.64188" lon="1.7327">
        <ele>2306.34</ele>
        <time>2014-03-11T14:53:56Z</time>
      </trkpt>
      <trkpt lat="42.64188" lon="1.73267">
        <ele>2307.3</ele>
        <time>2014-03-11T14:54:07Z</time>
      </trkpt>
      <trkpt lat="42.64187" lon="1.73264">
        <ele>2311.15</ele>
        <time>2014-03-11T14:54:34Z</time>
      </trkpt>
      <trkpt lat="42.64185" lon="1.73265">
        <ele>2310.67</ele>
        <time>2014-03-11T14:54:37Z</time>
      </trkpt>
      <trkpt lat="42.64177" lon="1.73272">
        <ele>2309.7</ele>
        <time>2014-03-11T14:54:48Z</time>
      </trkpt>
      <trkpt lat="42.64175" lon="1.73275">
        <ele>2307.78</ele>
        <time>2014-03-11T14:54:59Z</time>
      </trkpt>
      <trkpt lat="42.64175" lon="1.73274">
        <ele>2308.26</ele>
        <time>2014-03-11T14:55:12Z</time>
      </trkpt>
      <trkpt lat="42.64173" lon="1.73273">
        <ele>2306.34</ele>
        <time>2014-03-11T14:55:27Z</time>
      </trkpt>
      <trkpt lat="42.64166" lon="1.73266">
        <ele>2306.34</ele>
        <time>2014-03-11T14:55:40Z</time>
      </trkpt>
      <trkpt lat="42.64166" lon="1.73264">
        <ele>2305.86</ele>
        <time>2014-03-11T14:55:45Z</time>
      </trkpt>
      <trkpt lat="42.64164" lon="1.7326">
        <ele>2307.3</ele>
        <time>2014-03-11T14:55:59Z</time>
      </trkpt>
      <trkpt lat="42.64163" lon="1.73261">
        <ele>2308.74</ele>
        <time>2014-03-11T14:56:10Z</time>
      </trkpt>
      <trkpt lat="42.64164" lon="1.73259">
        <ele>2308.74</ele>
        <time>2014-03-11T14:56:27Z</time>
      </trkpt>
      <trkpt lat="42.64166" lon="1.73261">
        <ele>2306.82</ele>
        <time>2014-03-11T14:56:57Z</time>
      </trkpt>
      <trkpt lat="42.64165" lon="1.73259">
        <ele>2306.82</ele>
        <time>2014-03-11T14:57:58Z</time>
      </trkpt>
      <trkpt lat="42.64164" lon="1.73259">
        <ele>2305.86</ele>
        <time>2014-03-11T14:58:46Z</time>
      </trkpt>
      <trkpt lat="42.64165" lon="1.73259">
        <ele>2307.78</ele>
        <time>2014-03-11T14:59:18Z</time>
      </trkpt>
      <trkpt lat="42.64165" lon="1.7326">
        <ele>2309.22</ele>
        <time>2014-03-11T14:59:30Z</time>
      </trkpt>
      <trkpt lat="42.64162" lon="1.7326">
        <ele>2306.34</ele>
        <time>2014-03-11T15:00:01Z</time>
      </trkpt>
      <trkpt lat="42.64162" lon="1.73258">
        <ele>2304.42</ele>
        <time>2014-03-11T15:00:43Z</time>
      </trkpt>
      <trkpt lat="42.64163" lon="1.73259">
        <ele>2302.98</ele>
        <time>2014-03-11T15:01:17Z</time>
      </trkpt>
      <trkpt lat="42.64161" lon="1.73264">
        <ele>2299.61</ele>
        <time>2014-03-11T15:02:01Z</time>
      </trkpt>
      <trkpt lat="42.64165" lon="1.7326">
        <ele>2302.98</ele>
        <time>2014-03-11T15:02:34Z</time>
      </trkpt>
      <trkpt lat="42.64164" lon="1.73258">
        <ele>2303.46</ele>
        <time>2014-03-11T15:02:54Z</time>
      </trkpt>
      <trkpt lat="42.64165" lon="1.73257">
        <ele>2305.86</ele>
        <time>2014-03-11T15:03:26Z</time>
      </trkpt>
      <trkpt lat="42.64167" lon="1.73258">
        <ele>2305.38</ele>
        <time>2014-03-11T15:04:01Z</time>
      </trkpt>
      <trkpt lat="42.64165" lon="1.73259">
        <ele>2304.9</ele>
        <time>2014-03-11T15:04:27Z</time>
      </trkpt>
      <trkpt lat="42.64166" lon="1.73259">
        <ele>2304.42</ele>
        <time>2014-03-11T15:04:58Z</time>
      </trkpt>
      <trkpt lat="42.64167" lon="1.73258">
        <ele>2307.78</ele>
        <time>2014-03-11T15:05:29Z</time>
      </trkpt>
      <trkpt lat="42.64168" lon="1.73259">
        <ele>2306.82</ele>
        <time>2014-03-11T15:06:02Z</time>
      </trkpt>
      <trkpt lat="42.64165" lon="1.73257">
        <ele>2308.26</ele>
        <time>2014-03-11T15:06:33Z</time>
      </trkpt>
      <trkpt lat="42.64165" lon="1.7326">
        <ele>2307.78</ele>
        <time>2014-03-11T15:07:08Z</time>
      </trkpt>
      <trkpt lat="42.64164" lon="1.7326">
        <ele>2304.9</ele>
        <time>2014-03-11T15:07:44Z</time>
      </trkpt>
      <trkpt lat="42.64164" lon="1.7326">
        <ele>2302.98</ele>
        <time>2014-03-11T15:08:13Z</time>
      </trkpt>
      <trkpt lat="42.64164" lon="1.73261">
        <ele>2303.46</ele>
        <time>2014-03-11T15:08:47Z</time>
      </trkpt>
      <trkpt lat="42.64164" lon="1.73259">
        <ele>2303.46</ele>
        <time>2014-03-11T15:09:02Z</time>
      </trkpt>
      <trkpt lat="42.64164" lon="1.7326">
        <ele>2304.42</ele>
        <time>2014-03-11T15:09:03Z</time>
      </trkpt>
      <trkpt lat="42.64166" lon="1.73261">
        <ele>2305.86</ele>
        <time>2014-03-11T15:09:13Z</time>
      </trkpt>
      <trkpt lat="42.64165" lon="1.7326">
        <ele>2304.9</ele>
        <time>2014-03-11T15:09:38Z</time>
      </trkpt>
      <trkpt lat="42.64165" lon="1.7326">
        <ele>2305.38</ele>
        <time>2014-03-11T15:09:50Z</time>
      </trkpt>
      <trkpt lat="42.64164" lon="1.73256">
        <ele>2305.38</ele>
        <time>2014-03-11T15:10:05Z</time>
      </trkpt>
      <trkpt lat="42.64161" lon="1.73258">
        <ele>2304.9</ele>
        <time>2014-03-11T15:10:15Z</time>
      </trkpt>
      <trkpt lat="42.64157" lon="1.73261">
        <ele>2305.38</ele>
        <time>2014-03-11T15:10:25Z</time>
      </trkpt>
      <trkpt lat="42.64157" lon="1.73261">
        <ele>2305.38</ele>
        <time>2014-03-11T15:10:42Z</time>
      </trkpt>
      <trkpt lat="42.64148" lon="1.73257">
        <ele>2302.01</ele>
        <time>2014-03-11T15:10:47Z</time>
      </trkpt>
      <trkpt lat="42.64124" lon="1.73254">
        <ele>2297.69</ele>
        <time>2014-03-11T15:10:51Z</time>
      </trkpt>
      <trkpt lat="42.64093" lon="1.73255">
        <ele>2295.28</ele>
        <time>2014-03-11T15:11:00Z</time>
      </trkpt>
      <trkpt lat="42.6408" lon="1.73242">
        <ele>2290.96</ele>
        <time>2014-03-11T15:11:08Z</time>
      </trkpt>
      <trkpt lat="42.64069" lon="1.73223">
        <ele>2284.23</ele>
        <time>2014-03-11T15:11:13Z</time>
      </trkpt>
      <trkpt lat="42.64049" lon="1.73195">
        <ele>2277.5</ele>
        <time>2014-03-11T15:11:18Z</time>
      </trkpt>
      <trkpt lat="42.64027" lon="1.73156">
        <ele>2269.81</ele>
        <time>2014-03-11T15:11:23Z</time>
      </trkpt>
      <trkpt lat="42.64007" lon="1.73136">
        <ele>2264.52</ele>
        <time>2014-03-11T15:11:27Z</time>
      </trkpt>
      <trkpt lat="42.63998" lon="1.7314">
        <ele>2265</ele>
        <time>2014-03-11T15:11:33Z</time>
      </trkpt>
      <trkpt lat="42.63998" lon="1.7314">
        <ele>2265.48</ele>
        <time>2014-03-11T15:11:38Z</time>
      </trkpt>
      <trkpt lat="42.63972" lon="1.73126">
        <ele>2262.6</ele>
        <time>2014-03-11T15:11:48Z</time>
      </trkpt>
      <trkpt lat="42.63926" lon="1.7311">
        <ele>2257.79</ele>
        <time>2014-03-11T15:11:56Z</time>
      </trkpt>
      <trkpt lat="42.63913" lon="1.73091">
        <ele>2254.43</ele>
        <time>2014-03-11T15:12:03Z</time>
      </trkpt>
      <trkpt lat="42.63896" lon="1.73051">
        <ele>2248.66</ele>
        <time>2014-03-11T15:12:09Z</time>
      </trkpt>
      <trkpt lat="42.63899" lon="1.73023">
        <ele>2243.37</ele>
        <time>2014-03-11T15:12:13Z</time>
      </trkpt>
      <trkpt lat="42.63896" lon="1.72995">
        <ele>2236.64</ele>
        <time>2014-03-11T15:12:18Z</time>
      </trkpt>
      <trkpt lat="42.6387" lon="1.7295">
        <ele>2224.63</ele>
        <time>2014-03-11T15:12:23Z</time>
      </trkpt>
      <trkpt lat="42.63855" lon="1.72897">
        <ele>2221.26</ele>
        <time>2014-03-11T15:12:27Z</time>
      </trkpt>
      <trkpt lat="42.63854" lon="1.72869">
        <ele>2222.22</ele>
        <time>2014-03-11T15:12:30Z</time>
      </trkpt>
      <trkpt lat="42.63847" lon="1.72836">
        <ele>2220.78</ele>
        <time>2014-03-11T15:12:36Z</time>
      </trkpt>
      <trkpt lat="42.63831" lon="1.72795">
        <ele>2219.82</ele>
        <time>2014-03-11T15:12:48Z</time>
      </trkpt>
      <trkpt lat="42.63807" lon="1.72766">
        <ele>2218.38</ele>
        <time>2014-03-11T15:12:59Z</time>
      </trkpt>
      <trkpt lat="42.63794" lon="1.72736">
        <ele>2214.05</ele>
        <time>2014-03-11T15:13:09Z</time>
      </trkpt>
      <trkpt lat="42.63788" lon="1.72724">
        <ele>2212.61</ele>
        <time>2014-03-11T15:13:14Z</time>
      </trkpt>
      <trkpt lat="42.63774" lon="1.72704">
        <ele>2210.21</ele>
        <time>2014-03-11T15:13:19Z</time>
      </trkpt>
      <trkpt lat="42.63773" lon="1.72699">
        <ele>2209.73</ele>
        <time>2014-03-11T15:13:20Z</time>
      </trkpt>
      <trkpt lat="42.63774" lon="1.72693">
        <ele>2208.77</ele>
        <time>2014-03-11T15:13:21Z</time>
      </trkpt>
      <trkpt lat="42.63775" lon="1.72687">
        <ele>2208.29</ele>
        <time>2014-03-11T15:13:22Z</time>
      </trkpt>
      <trkpt lat="42.63774" lon="1.7268">
        <ele>2207.32</ele>
        <time>2014-03-11T15:13:23Z</time>
      </trkpt>
      <trkpt lat="42.63775" lon="1.72673">
        <ele>2206.36</ele>
        <time>2014-03-11T15:13:24Z</time>
      </trkpt>
      <trkpt lat="42.63777" lon="1.72666">
        <ele>2205.4</ele>
        <time>2014-03-11T15:13:25Z</time>
      </trkpt>
      <trkpt lat="42.63779" lon="1.72659">
        <ele>2204.44</ele>
        <time>2014-03-11T15:13:26Z</time>
      </trkpt>
      <trkpt lat="42.63778" lon="1.72652">
        <ele>2203.48</ele>
        <time>2014-03-11T15:13:27Z</time>
      </trkpt>
      <trkpt lat="42.6378" lon="1.72646">
        <ele>2203</ele>
        <time>2014-03-11T15:13:28Z</time>
      </trkpt>
      <trkpt lat="42.63782" lon="1.72639">
        <ele>2201.56</ele>
        <time>2014-03-11T15:13:29Z</time>
      </trkpt>
      <trkpt lat="42.63782" lon="1.72632">
        <ele>2200.59</ele>
        <time>2014-03-11T15:13:30Z</time>
      </trkpt>
      <trkpt lat="42.63783" lon="1.72625">
        <ele>2199.63</ele>
        <time>2014-03-11T15:13:31Z</time>
      </trkpt>
      <trkpt lat="42.63785" lon="1.72617">
        <ele>2198.19</ele>
        <time>2014-03-11T15:13:32Z</time>
      </trkpt>
      <trkpt lat="42.63786" lon="1.72609">
        <ele>2196.27</ele>
        <time>2014-03-11T15:13:33Z</time>
      </trkpt>
      <trkpt lat="42.63786" lon="1.72599">
        <ele>2194.35</ele>
        <time>2014-03-11T15:13:34Z</time>
      </trkpt>
      <trkpt lat="42.63788" lon="1.72591">
        <ele>2192.9</ele>
        <time>2014-03-11T15:13:35Z</time>
      </trkpt>
      <trkpt lat="42.6379" lon="1.72586">
        <ele>2191.46</ele>
        <time>2014-03-11T15:13:36Z</time>
      </trkpt>
      <trkpt lat="42.63791" lon="1.72582">
        <ele>2190.5</ele>
        <time>2014-03-11T15:13:37Z</time>
      </trkpt>
      <trkpt lat="42.63792" lon="1.72576">
        <ele>2189.54</ele>
        <time>2014-03-11T15:13:38Z</time>
      </trkpt>
      <trkpt lat="42.63793" lon="1.72574">
        <ele>2190.5</ele>
        <time>2014-03-11T15:13:44Z</time>
      </trkpt>
      <trkpt lat="42.63794" lon="1.72574">
        <ele>2191.46</ele>
        <time>2014-03-11T15:13:57Z</time>
      </trkpt>
      <trkpt lat="42.63795" lon="1.72572">
        <ele>2190.98</ele>
        <time>2014-03-11T15:14:08Z</time>
      </trkpt>
      <trkpt lat="42.63794" lon="1.72574">
        <ele>2190.98</ele>
        <time>2014-03-11T15:14:22Z</time>
      </trkpt>
      <trkpt lat="42.63795" lon="1.72572">
        <ele>2190.5</ele>
        <time>2014-03-11T15:14:52Z</time>
      </trkpt>
      <trkpt lat="42.63797" lon="1.72572">
        <ele>2191.46</ele>
        <time>2014-03-11T15:15:45Z</time>
      </trkpt>
      <trkpt lat="42.63797" lon="1.72571">
        <ele>2192.42</ele>
        <time>2014-03-11T15:16:39Z</time>
      </trkpt>
      <trkpt lat="42.63796" lon="1.72571">
        <ele>2192.42</ele>
        <time>2014-03-11T15:17:18Z</time>
      </trkpt>
      <trkpt lat="42.63794" lon="1.72572">
        <ele>2191.46</ele>
        <time>2014-03-11T15:18:09Z</time>
      </trkpt>
      <trkpt lat="42.63793" lon="1.72574">
        <ele>2190.5</ele>
        <time>2014-03-11T15:18:54Z</time>
      </trkpt>
      <trkpt lat="42.63793" lon="1.72573">
        <ele>2189.06</ele>
        <time>2014-03-11T15:19:40Z</time>
      </trkpt>
      <trkpt lat="42.63794" lon="1.72572">
        <ele>2190.02</ele>
        <time>2014-03-11T15:20:20Z</time>
      </trkpt>
      <trkpt lat="42.63796" lon="1.72571">
        <ele>2189.06</ele>
        <time>2014-03-11T15:20:57Z</time>
      </trkpt>
      <trkpt lat="42.63797" lon="1.72571">
        <ele>2188.58</ele>
        <time>2014-03-11T15:21:31Z</time>
      </trkpt>
      <trkpt lat="42.63796" lon="1.7257">
        <ele>2189.54</ele>
        <time>2014-03-11T15:22:02Z</time>
      </trkpt>
      <trkpt lat="42.63797" lon="1.72572">
        <ele>2190.02</ele>
        <time>2014-03-11T15:22:31Z</time>
      </trkpt>
      <trkpt lat="42.63797" lon="1.72572">
        <ele>2190.02</ele>
        <time>2014-03-11T15:23:11Z</time>
      </trkpt>
      <trkpt lat="42.63796" lon="1.72571">
        <ele>2189.54</ele>
        <time>2014-03-11T15:23:55Z</time>
      </trkpt>
      <trkpt lat="42.63798" lon="1.72571">
        <ele>2189.06</ele>
        <time>2014-03-11T15:24:40Z</time>
      </trkpt>
      <trkpt lat="42.63798" lon="1.72571">
        <ele>2186.66</ele>
        <time>2014-03-11T15:25:18Z</time>
      </trkpt>
      <trkpt lat="42.63796" lon="1.72571">
        <ele>2187.62</ele>
        <time>2014-03-11T15:25:52Z</time>
      </trkpt>
      <trkpt lat="42.63795" lon="1.72571">
        <ele>2187.14</ele>
        <time>2014-03-11T15:26:30Z</time>
      </trkpt>
      <trkpt lat="42.63795" lon="1.72572">
        <ele>2188.1</ele>
        <time>2014-03-11T15:27:06Z</time>
      </trkpt>
      <trkpt lat="42.63795" lon="1.72571">
        <ele>2189.06</ele>
        <time>2014-03-11T15:27:35Z</time>
      </trkpt>
      <trkpt lat="42.63795" lon="1.72572">
        <ele>2190.98</ele>
        <time>2014-03-11T15:27:49Z</time>
      </trkpt>
      <trkpt lat="42.63795" lon="1.72573">
        <ele>2192.42</ele>
        <time>2014-03-11T15:27:59Z</time>
      </trkpt>
      <trkpt lat="42.63796" lon="1.72572">
        <ele>2192.42</ele>
        <time>2014-03-11T15:28:13Z</time>
      </trkpt>
      <trkpt lat="42.63795" lon="1.72572">
        <ele>2193.39</ele>
        <time>2014-03-11T15:28:30Z</time>
      </trkpt>
      <trkpt lat="42.63796" lon="1.72567">
        <ele>2193.39</ele>
        <time>2014-03-11T15:28:38Z</time>
      </trkpt>
      <trkpt lat="42.63797" lon="1.72565">
        <ele>2192.9</ele>
        <time>2014-03-11T15:28:39Z</time>
      </trkpt>
      <trkpt lat="42.63798" lon="1.72562">
        <ele>2192.42</ele>
        <time>2014-03-11T15:28:40Z</time>
      </trkpt>
      <trkpt lat="42.638" lon="1.72561">
        <ele>2192.42</ele>
        <time>2014-03-11T15:28:41Z</time>
      </trkpt>
      <trkpt lat="42.63802" lon="1.72559">
        <ele>2191.94</ele>
        <time>2014-03-11T15:28:43Z</time>
      </trkpt>
      <trkpt lat="42.63804" lon="1.72559">
        <ele>2191.94</ele>
        <time>2014-03-11T15:28:54Z</time>
      </trkpt>
      <trkpt lat="42.63805" lon="1.72558">
        <ele>2192.9</ele>
        <time>2014-03-11T15:29:10Z</time>
      </trkpt>
      <trkpt lat="42.63807" lon="1.72559">
        <ele>2193.39</ele>
        <time>2014-03-11T15:29:15Z</time>
      </trkpt>
      <trkpt lat="42.63813" lon="1.72563">
        <ele>2193.87</ele>
        <time>2014-03-11T15:29:25Z</time>
      </trkpt>
      <trkpt lat="42.63818" lon="1.72566">
        <ele>2192.9</ele>
        <time>2014-03-11T15:29:30Z</time>
      </trkpt>
      <trkpt lat="42.63831" lon="1.7257">
        <ele>2192.42</ele>
        <time>2014-03-11T15:29:39Z</time>
      </trkpt>
      <trkpt lat="42.63835" lon="1.7257">
        <ele>2192.9</ele>
        <time>2014-03-11T15:29:42Z</time>
      </trkpt>
      <trkpt lat="42.63837" lon="1.7257">
        <ele>2192.9</ele>
        <time>2014-03-11T15:29:43Z</time>
      </trkpt>
      <trkpt lat="42.63838" lon="1.7257">
        <ele>2192.9</ele>
        <time>2014-03-11T15:29:44Z</time>
      </trkpt>
      <trkpt lat="42.63839" lon="1.7257">
        <ele>2192.9</ele>
        <time>2014-03-11T15:29:45Z</time>
      </trkpt>
      <trkpt lat="42.63841" lon="1.7257">
        <ele>2192.9</ele>
        <time>2014-03-11T15:29:46Z</time>
      </trkpt>
      <trkpt lat="42.63842" lon="1.72571">
        <ele>2192.9</ele>
        <time>2014-03-11T15:29:47Z</time>
      </trkpt>
      <trkpt lat="42.63844" lon="1.72571">
        <ele>2192.9</ele>
        <time>2014-03-11T15:29:48Z</time>
      </trkpt>
      <trkpt lat="42.63844" lon="1.72572">
        <ele>2192.9</ele>
        <time>2014-03-11T15:29:49Z</time>
      </trkpt>
      <trkpt lat="42.63845" lon="1.72572">
        <ele>2192.9</ele>
        <time>2014-03-11T15:29:50Z</time>
      </trkpt>
      <trkpt lat="42.63847" lon="1.72572">
        <ele>2193.39</ele>
        <time>2014-03-11T15:29:51Z</time>
      </trkpt>
      <trkpt lat="42.63848" lon="1.72572">
        <ele>2193.39</ele>
        <time>2014-03-11T15:29:52Z</time>
      </trkpt>
      <trkpt lat="42.6385" lon="1.72572">
        <ele>2193.39</ele>
        <time>2014-03-11T15:29:53Z</time>
      </trkpt>
      <trkpt lat="42.63851" lon="1.72572">
        <ele>2193.39</ele>
        <time>2014-03-11T15:29:54Z</time>
      </trkpt>
      <trkpt lat="42.63853" lon="1.72572">
        <ele>2193.87</ele>
        <time>2014-03-11T15:29:55Z</time>
      </trkpt>
      <trkpt lat="42.63854" lon="1.72573">
        <ele>2193.87</ele>
        <time>2014-03-11T15:29:56Z</time>
      </trkpt>
      <trkpt lat="42.63856" lon="1.72573">
        <ele>2193.87</ele>
        <time>2014-03-11T15:29:57Z</time>
      </trkpt>
      <trkpt lat="42.63858" lon="1.72573">
        <ele>2193.87</ele>
        <time>2014-03-11T15:29:58Z</time>
      </trkpt>
      <trkpt lat="42.63859" lon="1.72573">
        <ele>2193.87</ele>
        <time>2014-03-11T15:29:59Z</time>
      </trkpt>
      <trkpt lat="42.63862" lon="1.72573">
        <ele>2193.87</ele>
        <time>2014-03-11T15:30:01Z</time>
      </trkpt>
      <trkpt lat="42.63863" lon="1.72573">
        <ele>2193.39</ele>
        <time>2014-03-11T15:30:02Z</time>
      </trkpt>
      <trkpt lat="42.63865" lon="1.72573">
        <ele>2193.39</ele>
        <time>2014-03-11T15:30:03Z</time>
      </trkpt>
      <trkpt lat="42.63866" lon="1.72572">
        <ele>2193.39</ele>
        <time>2014-03-11T15:30:04Z</time>
      </trkpt>
      <trkpt lat="42.63867" lon="1.72573">
        <ele>2192.9</ele>
        <time>2014-03-11T15:30:05Z</time>
      </trkpt>
      <trkpt lat="42.63868" lon="1.72573">
        <ele>2192.9</ele>
        <time>2014-03-11T15:30:06Z</time>
      </trkpt>
      <trkpt lat="42.6387" lon="1.72572">
        <ele>2192.42</ele>
        <time>2014-03-11T15:30:07Z</time>
      </trkpt>
      <trkpt lat="42.63871" lon="1.72572">
        <ele>2192.9</ele>
        <time>2014-03-11T15:30:08Z</time>
      </trkpt>
      <trkpt lat="42.63872" lon="1.72572">
        <ele>2192.9</ele>
        <time>2014-03-11T15:30:09Z</time>
      </trkpt>
      <trkpt lat="42.63873" lon="1.72571">
        <ele>2192.42</ele>
        <time>2014-03-11T15:30:10Z</time>
      </trkpt>
      <trkpt lat="42.63875" lon="1.72571">
        <ele>2192.42</ele>
        <time>2014-03-11T15:30:11Z</time>
      </trkpt>
      <trkpt lat="42.63877" lon="1.72571">
        <ele>2192.42</ele>
        <time>2014-03-11T15:30:12Z</time>
      </trkpt>
      <trkpt lat="42.63877" lon="1.7257">
        <ele>2191.94</ele>
        <time>2014-03-11T15:30:13Z</time>
      </trkpt>
      <trkpt lat="42.63879" lon="1.7257">
        <ele>2191.94</ele>
        <time>2014-03-11T15:30:14Z</time>
      </trkpt>
      <trkpt lat="42.63881" lon="1.7257">
        <ele>2191.94</ele>
        <time>2014-03-11T15:30:15Z</time>
      </trkpt>
      <trkpt lat="42.63883" lon="1.7257">
        <ele>2191.94</ele>
        <time>2014-03-11T15:30:16Z</time>
      </trkpt>
      <trkpt lat="42.63885" lon="1.7257">
        <ele>2191.94</ele>
        <time>2014-03-11T15:30:17Z</time>
      </trkpt>
      <trkpt lat="42.63886" lon="1.7257">
        <ele>2192.42</ele>
        <time>2014-03-11T15:30:18Z</time>
      </trkpt>
      <trkpt lat="42.63888" lon="1.7257">
        <ele>2191.94</ele>
        <time>2014-03-11T15:30:19Z</time>
      </trkpt>
      <trkpt lat="42.63889" lon="1.7257">
        <ele>2191.94</ele>
        <time>2014-03-11T15:30:20Z</time>
      </trkpt>
      <trkpt lat="42.63891" lon="1.7257">
        <ele>2191.94</ele>
        <time>2014-03-11T15:30:21Z</time>
      </trkpt>
      <trkpt lat="42.63893" lon="1.7257">
        <ele>2191.46</ele>
        <time>2014-03-11T15:30:22Z</time>
      </trkpt>
      <trkpt lat="42.63896" lon="1.7257">
        <ele>2190.98</ele>
        <time>2014-03-11T15:30:23Z</time>
      </trkpt>
      <trkpt lat="42.63898" lon="1.72571">
        <ele>2190.98</ele>
        <time>2014-03-11T15:30:24Z</time>
      </trkpt>
      <trkpt lat="42.639" lon="1.72571">
        <ele>2190.5</ele>
        <time>2014-03-11T15:30:25Z</time>
      </trkpt>
      <trkpt lat="42.63902" lon="1.7257">
        <ele>2190.02</ele>
        <time>2014-03-11T15:30:26Z</time>
      </trkpt>
      <trkpt lat="42.63904" lon="1.72571">
        <ele>2190.02</ele>
        <time>2014-03-11T15:30:27Z</time>
      </trkpt>
      <trkpt lat="42.63908" lon="1.72571">
        <ele>2189.54</ele>
        <time>2014-03-11T15:30:29Z</time>
      </trkpt>
      <trkpt lat="42.63909" lon="1.72571">
        <ele>2190.02</ele>
        <time>2014-03-11T15:30:30Z</time>
      </trkpt>
      <trkpt lat="42.63911" lon="1.72571">
        <ele>2189.54</ele>
        <time>2014-03-11T15:30:31Z</time>
      </trkpt>
      <trkpt lat="42.63916" lon="1.72571">
        <ele>2189.54</ele>
        <time>2014-03-11T15:30:34Z</time>
      </trkpt>
      <trkpt lat="42.63917" lon="1.72571">
        <ele>2189.54</ele>
        <time>2014-03-11T15:30:35Z</time>
      </trkpt>
      <trkpt lat="42.63918" lon="1.72571">
        <ele>2189.54</ele>
        <time>2014-03-11T15:30:36Z</time>
      </trkpt>
      <trkpt lat="42.63919" lon="1.7257">
        <ele>2189.54</ele>
        <time>2014-03-11T15:30:37Z</time>
      </trkpt>
      <trkpt lat="42.63921" lon="1.7257">
        <ele>2189.54</ele>
        <time>2014-03-11T15:30:38Z</time>
      </trkpt>
      <trkpt lat="42.63929" lon="1.72568">
        <ele>2188.58</ele>
        <time>2014-03-11T15:30:43Z</time>
      </trkpt>
      <trkpt lat="42.63931" lon="1.72567">
        <ele>2188.58</ele>
        <time>2014-03-11T15:30:44Z</time>
      </trkpt>
      <trkpt lat="42.63934" lon="1.72565">
        <ele>2189.06</ele>
        <time>2014-03-11T15:30:47Z</time>
      </trkpt>
      <trkpt lat="42.63935" lon="1.72565">
        <ele>2189.06</ele>
        <time>2014-03-11T15:30:48Z</time>
      </trkpt>
      <trkpt lat="42.63936" lon="1.72565">
        <ele>2189.06</ele>
        <time>2014-03-11T15:30:49Z</time>
      </trkpt>
      <trkpt lat="42.6394" lon="1.72562">
        <ele>2188.58</ele>
        <time>2014-03-11T15:30:52Z</time>
      </trkpt>
      <trkpt lat="42.63942" lon="1.72562">
        <ele>2188.58</ele>
        <time>2014-03-11T15:30:53Z</time>
      </trkpt>
      <trkpt lat="42.63943" lon="1.7256">
        <ele>2188.58</ele>
        <time>2014-03-11T15:30:54Z</time>
      </trkpt>
      <trkpt lat="42.63944" lon="1.72559">
        <ele>2188.58</ele>
        <time>2014-03-11T15:30:55Z</time>
      </trkpt>
      <trkpt lat="42.63946" lon="1.72559">
        <ele>2188.58</ele>
        <time>2014-03-11T15:30:56Z</time>
      </trkpt>
      <trkpt lat="42.63946" lon="1.72558">
        <ele>2188.58</ele>
        <time>2014-03-11T15:30:57Z</time>
      </trkpt>
      <trkpt lat="42.63948" lon="1.72557">
        <ele>2188.58</ele>
        <time>2014-03-11T15:30:58Z</time>
      </trkpt>
      <trkpt lat="42.63949" lon="1.72556">
        <ele>2188.58</ele>
        <time>2014-03-11T15:30:59Z</time>
      </trkpt>
      <trkpt lat="42.6395" lon="1.72555">
        <ele>2188.1</ele>
        <time>2014-03-11T15:31:00Z</time>
      </trkpt>
      <trkpt lat="42.63952" lon="1.72554">
        <ele>2188.1</ele>
        <time>2014-03-11T15:31:01Z</time>
      </trkpt>
      <trkpt lat="42.63953" lon="1.72553">
        <ele>2188.58</ele>
        <time>2014-03-11T15:31:02Z</time>
      </trkpt>
      <trkpt lat="42.63954" lon="1.72551">
        <ele>2188.1</ele>
        <time>2014-03-11T15:31:03Z</time>
      </trkpt>
      <trkpt lat="42.63955" lon="1.7255">
        <ele>2188.1</ele>
        <time>2014-03-11T15:31:04Z</time>
      </trkpt>
      <trkpt lat="42.63957" lon="1.72549">
        <ele>2188.58</ele>
        <time>2014-03-11T15:31:05Z</time>
      </trkpt>
      <trkpt lat="42.63958" lon="1.72547">
        <ele>2188.58</ele>
        <time>2014-03-11T15:31:06Z</time>
      </trkpt>
      <trkpt lat="42.6396" lon="1.72546">
        <ele>2188.1</ele>
        <time>2014-03-11T15:31:07Z</time>
      </trkpt>
      <trkpt lat="42.63961" lon="1.72544">
        <ele>2188.58</ele>
        <time>2014-03-11T15:31:08Z</time>
      </trkpt>
      <trkpt lat="42.63963" lon="1.72542">
        <ele>2188.1</ele>
        <time>2014-03-11T15:31:09Z</time>
      </trkpt>
      <trkpt lat="42.63965" lon="1.7254">
        <ele>2188.1</ele>
        <time>2014-03-11T15:31:10Z</time>
      </trkpt>
      <trkpt lat="42.63986" lon="1.72506">
        <ele>2188.58</ele>
        <time>2014-03-11T15:31:26Z</time>
      </trkpt>
      <trkpt lat="42.64004" lon="1.72479">
        <ele>2188.58</ele>
        <time>2014-03-11T15:31:44Z</time>
      </trkpt>
      <trkpt lat="42.64011" lon="1.72473">
        <ele>2186.66</ele>
        <time>2014-03-11T15:31:55Z</time>
      </trkpt>
      <trkpt lat="42.64011" lon="1.72471">
        <ele>2186.18</ele>
        <time>2014-03-11T15:32:10Z</time>
      </trkpt>
      <trkpt lat="42.64016" lon="1.72466">
        <ele>2187.14</ele>
        <time>2014-03-11T15:32:24Z</time>
      </trkpt>
      <trkpt lat="42.64034" lon="1.72449">
        <ele>2184.73</ele>
        <time>2014-03-11T15:32:35Z</time>
      </trkpt>
      <trkpt lat="42.64034" lon="1.72445">
        <ele>2184.25</ele>
        <time>2014-03-11T15:32:36Z</time>
      </trkpt>
      <trkpt lat="42.64034" lon="1.72441">
        <ele>2183.29</ele>
        <time>2014-03-11T15:32:37Z</time>
      </trkpt>
      <trkpt lat="42.64036" lon="1.72438">
        <ele>2182.81</ele>
        <time>2014-03-11T15:32:38Z</time>
      </trkpt>
      <trkpt lat="42.64039" lon="1.72435">
        <ele>2182.33</ele>
        <time>2014-03-11T15:32:39Z</time>
      </trkpt>
      <trkpt lat="42.64042" lon="1.72433">
        <ele>2181.85</ele>
        <time>2014-03-11T15:32:40Z</time>
      </trkpt>
      <trkpt lat="42.64045" lon="1.7243">
        <ele>2181.37</ele>
        <time>2014-03-11T15:32:41Z</time>
      </trkpt>
      <trkpt lat="42.64053" lon="1.72425">
        <ele>2180.89</ele>
        <time>2014-03-11T15:32:43Z</time>
      </trkpt>
      <trkpt lat="42.64057" lon="1.72424">
        <ele>2180.41</ele>
        <time>2014-03-11T15:32:44Z</time>
      </trkpt>
      <trkpt lat="42.6409" lon="1.72416">
        <ele>2176.08</ele>
        <time>2014-03-11T15:32:53Z</time>
      </trkpt>
      <trkpt lat="42.64091" lon="1.72411">
        <ele>2175.12</ele>
        <time>2014-03-11T15:32:54Z</time>
      </trkpt>
      <trkpt lat="42.64092" lon="1.72399">
        <ele>2172.24</ele>
        <time>2014-03-11T15:32:56Z</time>
      </trkpt>
      <trkpt lat="42.64094" lon="1.72394">
        <ele>2170.79</ele>
        <time>2014-03-11T15:32:57Z</time>
      </trkpt>
      <trkpt lat="42.641" lon="1.72376">
        <ele>2165.03</ele>
        <time>2014-03-11T15:33:01Z</time>
      </trkpt>
      <trkpt lat="42.64098" lon="1.72367">
        <ele>2161.66</ele>
        <time>2014-03-11T15:33:05Z</time>
      </trkpt>
      <trkpt lat="42.64072" lon="1.72351">
        <ele>2158.3</ele>
        <time>2014-03-11T15:33:17Z</time>
      </trkpt>
      <trkpt lat="42.64069" lon="1.72326">
        <ele>2150.13</ele>
        <time>2014-03-11T15:33:23Z</time>
      </trkpt>
      <trkpt lat="42.6407" lon="1.72319">
        <ele>2146.28</ele>
        <time>2014-03-11T15:33:27Z</time>
      </trkpt>
      <trkpt lat="42.6407" lon="1.72317">
        <ele>2145.8</ele>
        <time>2014-03-11T15:33:37Z</time>
      </trkpt>
      <trkpt lat="42.64069" lon="1.72317">
        <ele>2145.8</ele>
        <time>2014-03-11T15:33:38Z</time>
      </trkpt>
      <trkpt lat="42.64062" lon="1.72301">
        <ele>2139.55</ele>
        <time>2014-03-11T15:33:45Z</time>
      </trkpt>
      <trkpt lat="42.64058" lon="1.72296">
        <ele>2132.82</ele>
        <time>2014-03-11T15:33:51Z</time>
      </trkpt>
      <trkpt lat="42.64058" lon="1.72297">
        <ele>2132.34</ele>
        <time>2014-03-11T15:33:55Z</time>
      </trkpt>
      <trkpt lat="42.64056" lon="1.72295">
        <ele>2131.86</ele>
        <time>2014-03-11T15:34:04Z</time>
      </trkpt>
      <trkpt lat="42.64057" lon="1.72293">
        <ele>2132.82</ele>
        <time>2014-03-11T15:34:18Z</time>
      </trkpt>
      <trkpt lat="42.64057" lon="1.72288">
        <ele>2130.9</ele>
        <time>2014-03-11T15:34:21Z</time>
      </trkpt>
      <trkpt lat="42.64043" lon="1.72278">
        <ele>2126.57</ele>
        <time>2014-03-11T15:34:27Z</time>
      </trkpt>
      <trkpt lat="42.64045" lon="1.72268">
        <ele>2122.73</ele>
        <time>2014-03-11T15:34:30Z</time>
      </trkpt>
      <trkpt lat="42.64043" lon="1.72252">
        <ele>2116</ele>
        <time>2014-03-11T15:34:35Z</time>
      </trkpt>
      <trkpt lat="42.64047" lon="1.72249">
        <ele>2114.56</ele>
        <time>2014-03-11T15:34:37Z</time>
      </trkpt>
      <trkpt lat="42.64055" lon="1.72245">
        <ele>2112.63</ele>
        <time>2014-03-11T15:34:40Z</time>
      </trkpt>
      <trkpt lat="42.64061" lon="1.72222">
        <ele>2102.54</ele>
        <time>2014-03-11T15:34:46Z</time>
      </trkpt>
      <trkpt lat="42.64067" lon="1.7222">
        <ele>2100.14</ele>
        <time>2014-03-11T15:34:48Z</time>
      </trkpt>
      <trkpt lat="42.64084" lon="1.72182">
        <ele>2098.21</ele>
        <time>2014-03-11T15:34:54Z</time>
      </trkpt>
      <trkpt lat="42.64089" lon="1.7217">
        <ele>2096.29</ele>
        <time>2014-03-11T15:34:59Z</time>
      </trkpt>
      <trkpt lat="42.64092" lon="1.72164">
        <ele>2095.81</ele>
        <time>2014-03-11T15:35:01Z</time>
      </trkpt>
      <trkpt lat="42.64093" lon="1.72146">
        <ele>2091</ele>
        <time>2014-03-11T15:35:05Z</time>
      </trkpt>
      <trkpt lat="42.64094" lon="1.72104">
        <ele>2078.51</ele>
        <time>2014-03-11T15:35:10Z</time>
      </trkpt>
      <trkpt lat="42.64118" lon="1.72076">
        <ele>2075.14</ele>
        <time>2014-03-11T15:35:18Z</time>
      </trkpt>
      <trkpt lat="42.64119" lon="1.72075">
        <ele>2073.22</ele>
        <time>2014-03-11T15:35:29Z</time>
      </trkpt>
      <trkpt lat="42.64138" lon="1.7203">
        <ele>2068.89</ele>
        <time>2014-03-11T15:35:38Z</time>
      </trkpt>
      <trkpt lat="42.64159" lon="1.7198">
        <ele>2061.68</ele>
        <time>2014-03-11T15:35:44Z</time>
      </trkpt>
      <trkpt lat="42.64164" lon="1.71947">
        <ele>2056.88</ele>
        <time>2014-03-11T15:35:50Z</time>
      </trkpt>
      <trkpt lat="42.64165" lon="1.71937">
        <ele>2055.44</ele>
        <time>2014-03-11T15:35:51Z</time>
      </trkpt>
      <trkpt lat="42.6417" lon="1.71919">
        <ele>2051.59</ele>
        <time>2014-03-11T15:35:53Z</time>
      </trkpt>
      <trkpt lat="42.64204" lon="1.7183">
        <ele>2043.9</ele>
        <time>2014-03-11T15:36:04Z</time>
      </trkpt>
      <trkpt lat="42.64234" lon="1.71726">
        <ele>2034.77</ele>
        <time>2014-03-11T15:36:17Z</time>
      </trkpt>
      <trkpt lat="42.64265" lon="1.71603">
        <ele>2022.75</ele>
        <time>2014-03-11T15:36:31Z</time>
      </trkpt>
      <trkpt lat="42.64289" lon="1.71491">
        <ele>2011.22</ele>
        <time>2014-03-11T15:36:45Z</time>
      </trkpt>
      <trkpt lat="42.6429" lon="1.71488">
        <ele>2010.25</ele>
        <time>2014-03-11T15:36:52Z</time>
      </trkpt>
      <trkpt lat="42.6429" lon="1.71488">
        <ele>2010.25</ele>
        <time>2014-03-11T15:36:53Z</time>
      </trkpt>
      <trkpt lat="42.64293" lon="1.71468">
        <ele>2007.85</ele>
        <time>2014-03-11T15:36:58Z</time>
      </trkpt>
      <trkpt lat="42.64303" lon="1.71432">
        <ele>2004.49</ele>
        <time>2014-03-11T15:37:06Z</time>
      </trkpt>
      <trkpt lat="42.64308" lon="1.71402">
        <ele>2000.16</ele>
        <time>2014-03-11T15:37:10Z</time>
      </trkpt>
      <trkpt lat="42.64296" lon="1.71372">
        <ele>1990.55</ele>
        <time>2014-03-11T15:37:15Z</time>
      </trkpt>
      <trkpt lat="42.64297" lon="1.71348">
        <ele>1984.78</ele>
        <time>2014-03-11T15:37:18Z</time>
      </trkpt>
      <trkpt lat="42.643" lon="1.71307">
        <ele>1974.2</ele>
        <time>2014-03-11T15:37:24Z</time>
      </trkpt>
      <trkpt lat="42.64309" lon="1.71226">
        <ele>1960.27</ele>
        <time>2014-03-11T15:37:35Z</time>
      </trkpt>
      <trkpt lat="42.64322" lon="1.7117">
        <ele>1954.5</ele>
        <time>2014-03-11T15:37:42Z</time>
      </trkpt>
      <trkpt lat="42.6433" lon="1.71138">
        <ele>1951.13</ele>
        <time>2014-03-11T15:37:46Z</time>
      </trkpt>
      <trkpt lat="42.64332" lon="1.71117">
        <ele>1948.73</ele>
        <time>2014-03-11T15:37:49Z</time>
      </trkpt>
      <trkpt lat="42.64356" lon="1.71008">
        <ele>1935.27</ele>
        <time>2014-03-11T15:37:59Z</time>
      </trkpt>
      <trkpt lat="42.64377" lon="1.70904">
        <ele>1925.66</ele>
        <time>2014-03-11T15:38:09Z</time>
      </trkpt>
      <trkpt lat="42.64389" lon="1.70866">
        <ele>1922.77</ele>
        <time>2014-03-11T15:38:13Z</time>
      </trkpt>
      <trkpt lat="42.64393" lon="1.70842">
        <ele>1921.81</ele>
        <time>2014-03-11T15:38:16Z</time>
      </trkpt>
      <trkpt lat="42.64381" lon="1.708">
        <ele>1915.08</ele>
        <time>2014-03-11T15:38:22Z</time>
      </trkpt>
      <trkpt lat="42.64373" lon="1.70795">
        <ele>1910.28</ele>
        <time>2014-03-11T15:38:27Z</time>
      </trkpt>
      <trkpt lat="42.64373" lon="1.70795">
        <ele>1908.83</ele>
        <time>2014-03-11T15:38:43Z</time>
      </trkpt>
      <trkpt lat="42.64373" lon="1.70795">
        <ele>1907.39</ele>
        <time>2014-03-11T15:39:01Z</time>
      </trkpt>
      <trkpt lat="42.64373" lon="1.70796">
        <ele>1907.87</ele>
        <time>2014-03-11T15:39:24Z</time>
      </trkpt>
      <trkpt lat="42.64372" lon="1.70798">
        <ele>1906.91</ele>
        <time>2014-03-11T15:39:43Z</time>
      </trkpt>
      <trkpt lat="42.64369" lon="1.70786">
        <ele>1904.99</ele>
        <time>2014-03-11T15:39:53Z</time>
      </trkpt>
      <trkpt lat="42.64374" lon="1.70776">
        <ele>1904.51</ele>
        <time>2014-03-11T15:39:58Z</time>
      </trkpt>
      <trkpt lat="42.6438" lon="1.70768">
        <ele>1903.55</ele>
        <time>2014-03-11T15:40:01Z</time>
      </trkpt>
      <trkpt lat="42.64388" lon="1.70743">
        <ele>1898.74</ele>
        <time>2014-03-11T15:40:07Z</time>
      </trkpt>
      <trkpt lat="42.64396" lon="1.70732">
        <ele>1895.86</ele>
        <time>2014-03-11T15:40:10Z</time>
      </trkpt>
      <trkpt lat="42.64392" lon="1.70715">
        <ele>1892.49</ele>
        <time>2014-03-11T15:40:16Z</time>
      </trkpt>
      <trkpt lat="42.6439" lon="1.70712">
        <ele>1892.49</ele>
        <time>2014-03-11T15:40:29Z</time>
      </trkpt>
      <trkpt lat="42.64387" lon="1.70705">
        <ele>1891.53</ele>
        <time>2014-03-11T15:40:34Z</time>
      </trkpt>
      <trkpt lat="42.64384" lon="1.70705">
        <ele>1891.53</ele>
        <time>2014-03-11T15:40:48Z</time>
      </trkpt>
      <trkpt lat="42.64383" lon="1.70703">
        <ele>1891.05</ele>
        <time>2014-03-11T15:41:00Z</time>
      </trkpt>
      <trkpt lat="42.64382" lon="1.70703">
        <ele>1890.57</ele>
        <time>2014-03-11T15:41:01Z</time>
      </trkpt>
      <trkpt lat="42.64372" lon="1.70695">
        <ele>1888.17</ele>
        <time>2014-03-11T15:41:05Z</time>
      </trkpt>
      <trkpt lat="42.64373" lon="1.70647">
        <ele>1876.15</ele>
        <time>2014-03-11T15:41:11Z</time>
      </trkpt>
      <trkpt lat="42.64376" lon="1.70613">
        <ele>1869.42</ele>
        <time>2014-03-11T15:41:14Z</time>
      </trkpt>
      <trkpt lat="42.64373" lon="1.70588">
        <ele>1864.61</ele>
        <time>2014-03-11T15:41:17Z</time>
      </trkpt>
      <trkpt lat="42.64372" lon="1.70569">
        <ele>1856.44</ele>
        <time>2014-03-11T15:41:22Z</time>
      </trkpt>
      <trkpt lat="42.64371" lon="1.7057">
        <ele>1858.37</ele>
        <time>2014-03-11T15:41:36Z</time>
      </trkpt>
      <trkpt lat="42.64377" lon="1.70553">
        <ele>1855.48</ele>
        <time>2014-03-11T15:41:41Z</time>
      </trkpt>
      <trkpt lat="42.64379" lon="1.70526">
        <ele>1845.87</ele>
        <time>2014-03-11T15:41:46Z</time>
      </trkpt>
      <trkpt lat="42.64386" lon="1.7052">
        <ele>1844.43</ele>
        <time>2014-03-11T15:41:48Z</time>
      </trkpt>
      <trkpt lat="42.64385" lon="1.7049">
        <ele>1835.29</ele>
        <time>2014-03-11T15:41:54Z</time>
      </trkpt>
      <trkpt lat="42.64391" lon="1.70481">
        <ele>1829.53</ele>
        <time>2014-03-11T15:41:59Z</time>
      </trkpt>
      <trkpt lat="42.64391" lon="1.70481">
        <ele>1830.97</ele>
        <time>2014-03-11T15:42:12Z</time>
      </trkpt>
      <trkpt lat="42.64393" lon="1.70481">
        <ele>1831.93</ele>
        <time>2014-03-11T15:42:28Z</time>
      </trkpt>
      <trkpt lat="42.64394" lon="1.70479">
        <ele>1831.45</ele>
        <time>2014-03-11T15:42:47Z</time>
      </trkpt>
      <trkpt lat="42.64398" lon="1.70474">
        <ele>1830.01</ele>
        <time>2014-03-11T15:42:51Z</time>
      </trkpt>
      <trkpt lat="42.64426" lon="1.70459">
        <ele>1826.64</ele>
        <time>2014-03-11T15:43:01Z</time>
      </trkpt>
      <trkpt lat="42.64459" lon="1.70441">
        <ele>1820.39</ele>
        <time>2014-03-11T15:43:10Z</time>
      </trkpt>
      <trkpt lat="42.6448" lon="1.70434">
        <ele>1813.66</ele>
        <time>2014-03-11T15:43:17Z</time>
      </trkpt>
      <trkpt lat="42.64485" lon="1.70431">
        <ele>1811.26</ele>
        <time>2014-03-11T15:43:19Z</time>
      </trkpt>
      <trkpt lat="42.64499" lon="1.70417">
        <ele>1800.21</ele>
        <time>2014-03-11T15:43:25Z</time>
      </trkpt>
      <trkpt lat="42.64504" lon="1.70418">
        <ele>1798.28</ele>
        <time>2014-03-11T15:43:33Z</time>
      </trkpt>
      <trkpt lat="42.64504" lon="1.7042">
        <ele>1800.21</ele>
        <time>2014-03-11T15:43:48Z</time>
      </trkpt>
      <trkpt lat="42.64506" lon="1.70419">
        <ele>1802.13</ele>
        <time>2014-03-11T15:44:04Z</time>
      </trkpt>
      <trkpt lat="42.64527" lon="1.70417">
        <ele>1794.92</ele>
        <time>2014-03-11T15:44:15Z</time>
      </trkpt>
      <trkpt lat="42.64532" lon="1.70417">
        <ele>1793.48</ele>
        <time>2014-03-11T15:44:18Z</time>
      </trkpt>
      <trkpt lat="42.6454" lon="1.70404">
        <ele>1787.23</ele>
        <time>2014-03-11T15:44:24Z</time>
      </trkpt>
      <trkpt lat="42.64553" lon="1.70402">
        <ele>1780.98</ele>
        <time>2014-03-11T15:44:33Z</time>
      </trkpt>
      <trkpt lat="42.64554" lon="1.704">
        <ele>1779.06</ele>
        <time>2014-03-11T15:44:40Z</time>
      </trkpt>
      <trkpt lat="42.64547" lon="1.70392">
        <ele>1777.13</ele>
        <time>2014-03-11T15:44:50Z</time>
      </trkpt>
      <trkpt lat="42.64548" lon="1.70386">
        <ele>1774.73</ele>
        <time>2014-03-11T15:44:57Z</time>
      </trkpt>
      <trkpt lat="42.64549" lon="1.70384">
        <ele>1771.85</ele>
        <time>2014-03-11T15:45:06Z</time>
      </trkpt>
      <trkpt lat="42.64551" lon="1.70376">
        <ele>1768.48</ele>
        <time>2014-03-11T15:45:11Z</time>
      </trkpt>
      <trkpt lat="42.64556" lon="1.70369">
        <ele>1763.68</ele>
        <time>2014-03-11T15:45:18Z</time>
      </trkpt>
      <trkpt lat="42.64562" lon="1.70368">
        <ele>1761.75</ele>
        <time>2014-03-11T15:45:21Z</time>
      </trkpt>
      <trkpt lat="42.64563" lon="1.70363">
        <ele>1760.79</ele>
        <time>2014-03-11T15:45:28Z</time>
      </trkpt>
      <trkpt lat="42.64563" lon="1.70363">
        <ele>1760.79</ele>
        <time>2014-03-11T15:45:33Z</time>
      </trkpt>
      <trkpt lat="42.64569" lon="1.70355">
        <ele>1755.5</ele>
        <time>2014-03-11T15:45:39Z</time>
      </trkpt>
      <trkpt lat="42.64567" lon="1.70354">
        <ele>1755.02</ele>
        <time>2014-03-11T15:45:43Z</time>
      </trkpt>
      <trkpt lat="42.64565" lon="1.70344">
        <ele>1752.62</ele>
        <time>2014-03-11T15:45:47Z</time>
      </trkpt>
      <trkpt lat="42.64561" lon="1.7034">
        <ele>1750.7</ele>
        <time>2014-03-11T15:45:49Z</time>
      </trkpt>
      <trkpt lat="42.64573" lon="1.7032">
        <ele>1742.05</ele>
        <time>2014-03-11T15:45:54Z</time>
      </trkpt>
      <trkpt lat="42.64579" lon="1.70319">
        <ele>1741.08</ele>
        <time>2014-03-11T15:45:55Z</time>
      </trkpt>
      <trkpt lat="42.64595" lon="1.70323">
        <ele>1740.12</ele>
        <time>2014-03-11T15:46:02Z</time>
      </trkpt>
      <trkpt lat="42.646" lon="1.70327">
        <ele>1742.53</ele>
        <time>2014-03-11T15:46:14Z</time>
      </trkpt>
      <trkpt lat="42.64602" lon="1.70329">
        <ele>1742.53</ele>
        <time>2014-03-11T15:46:18Z</time>
      </trkpt>
      <trkpt lat="42.64603" lon="1.70329">
        <ele>1743.01</ele>
        <time>2014-03-11T15:46:21Z</time>
      </trkpt>
      <trkpt lat="42.64614" lon="1.70339">
        <ele>1742.53</ele>
        <time>2014-03-11T15:46:30Z</time>
      </trkpt>
      <trkpt lat="42.64631" lon="1.70348">
        <ele>1741.08</ele>
        <time>2014-03-11T15:46:39Z</time>
      </trkpt>
      <trkpt lat="42.64658" lon="1.7036">
        <ele>1738.68</ele>
        <time>2014-03-11T15:46:51Z</time>
      </trkpt>
      <trkpt lat="42.64699" lon="1.70376">
        <ele>1733.88</ele>
        <time>2014-03-11T15:47:02Z</time>
      </trkpt>
      <trkpt lat="42.64736" lon="1.70387">
        <ele>1730.99</ele>
        <time>2014-03-11T15:47:13Z</time>
      </trkpt>
      <trkpt lat="42.64766" lon="1.70397">
        <ele>1728.59</ele>
        <time>2014-03-11T15:47:25Z</time>
      </trkpt>
      <trkpt lat="42.64788" lon="1.70406">
        <ele>1726.18</ele>
        <time>2014-03-11T15:47:36Z</time>
      </trkpt>
      <trkpt lat="42.64824" lon="1.70413">
        <ele>1723.3</ele>
        <time>2014-03-11T15:47:50Z</time>
      </trkpt>
      <trkpt lat="42.64871" lon="1.70403">
        <ele>1718.97</ele>
        <time>2014-03-11T15:48:04Z</time>
      </trkpt>
      <trkpt lat="42.64883" lon="1.70395">
        <ele>1716.57</ele>
        <time>2014-03-11T15:48:08Z</time>
      </trkpt>
      <trkpt lat="42.64889" lon="1.70371">
        <ele>1710.8</ele>
        <time>2014-03-11T15:48:12Z</time>
      </trkpt>
      <trkpt lat="42.64892" lon="1.70354">
        <ele>1706.96</ele>
        <time>2014-03-11T15:48:14Z</time>
      </trkpt>
      <trkpt lat="42.64895" lon="1.70339">
        <ele>1703.11</ele>
        <time>2014-03-11T15:48:16Z</time>
      </trkpt>
      <trkpt lat="42.64902" lon="1.70312">
        <ele>1696.86</ele>
        <time>2014-03-11T15:48:20Z</time>
      </trkpt>
      <trkpt lat="42.64889" lon="1.70298">
        <ele>1694.46</ele>
        <time>2014-03-11T15:48:29Z</time>
      </trkpt>
      <trkpt lat="42.64888" lon="1.70297">
        <ele>1694.46</ele>
        <time>2014-03-11T15:48:30Z</time>
      </trkpt>
      <trkpt lat="42.64881" lon="1.70298">
        <ele>1694.46</ele>
        <time>2014-03-11T15:48:35Z</time>
      </trkpt>
      <trkpt lat="42.6488" lon="1.70301">
        <ele>1695.42</ele>
        <time>2014-03-11T15:48:37Z</time>
      </trkpt>
      <trkpt lat="42.64876" lon="1.70301">
        <ele>1694.94</ele>
        <time>2014-03-11T15:48:45Z</time>
      </trkpt>
      <trkpt lat="42.64876" lon="1.70306">
        <ele>1697.83</ele>
        <time>2014-03-11T15:48:57Z</time>
      </trkpt>
      <trkpt lat="42.64878" lon="1.70311">
        <ele>1698.31</ele>
        <time>2014-03-11T15:49:08Z</time>
      </trkpt>
      <trkpt lat="42.64876" lon="1.7031">
        <ele>1699.27</ele>
        <time>2014-03-11T15:49:20Z</time>
      </trkpt>
      <trkpt lat="42.64878" lon="1.7031">
        <ele>1700.23</ele>
        <time>2014-03-11T15:49:31Z</time>
      </trkpt>
      <trkpt lat="42.64879" lon="1.70312">
        <ele>1699.75</ele>
        <time>2014-03-11T15:49:41Z</time>
      </trkpt>
      <trkpt lat="42.64882" lon="1.70315">
        <ele>1700.71</ele>
        <time>2014-03-11T15:49:58Z</time>
      </trkpt>
      <trkpt lat="42.64882" lon="1.70317">
        <ele>1703.59</ele>
        <time>2014-03-11T15:50:09Z</time>
      </trkpt>
      <trkpt lat="42.64881" lon="1.70316">
        <ele>1703.59</ele>
        <time>2014-03-11T15:50:27Z</time>
      </trkpt>
      <trkpt lat="42.64884" lon="1.70314">
        <ele>1704.07</ele>
        <time>2014-03-11T15:50:46Z</time>
      </trkpt>
      <trkpt lat="42.64887" lon="1.70315">
        <ele>1706</ele>
        <time>2014-03-11T15:51:06Z</time>
      </trkpt>
      <trkpt lat="42.64888" lon="1.70317">
        <ele>1707.44</ele>
        <time>2014-03-11T15:51:21Z</time>
      </trkpt>
      <trkpt lat="42.64886" lon="1.70317">
        <ele>1707.92</ele>
        <time>2014-03-11T15:51:38Z</time>
      </trkpt>
      <trkpt lat="42.64889" lon="1.70321">
        <ele>1710.32</ele>
        <time>2014-03-11T15:51:57Z</time>
      </trkpt>
      <trkpt lat="42.64883" lon="1.70317">
        <ele>1711.76</ele>
        <time>2014-03-11T15:52:15Z</time>
      </trkpt>
      <trkpt lat="42.64887" lon="1.70315">
        <ele>1710.32</ele>
        <time>2014-03-11T15:52:46Z</time>
      </trkpt>
      <trkpt lat="42.64884" lon="1.70305">
        <ele>1709.84</ele>
        <time>2014-03-11T15:53:07Z</time>
      </trkpt>
      <trkpt lat="42.64883" lon="1.703">
        <ele>1717.05</ele>
        <time>2014-03-11T15:53:33Z</time>
      </trkpt>
      <trkpt lat="42.64887" lon="1.70301">
        <ele>1722.34</ele>
        <time>2014-03-11T15:53:51Z</time>
      </trkpt>
      <trkpt lat="42.64873" lon="1.70285">
        <ele>1730.51</ele>
        <time>2014-03-11T15:54:21Z</time>
      </trkpt>
      <trkpt lat="42.64896" lon="1.70317">
        <ele>1741.57</ele>
        <time>2014-03-11T15:54:49Z</time>
      </trkpt>
      <trkpt lat="42.649" lon="1.70326">
        <ele>1744.93</ele>
        <time>2014-03-11T15:55:12Z</time>
      </trkpt>
      <trkpt lat="42.64897" lon="1.70337">
        <ele>1750.7</ele>
        <time>2014-03-11T15:55:41Z</time>
      </trkpt>
      <trkpt lat="42.64892" lon="1.70339">
        <ele>1755.5</ele>
        <time>2014-03-11T15:56:17Z</time>
      </trkpt>
      <trkpt lat="42.64898" lon="1.7035">
        <ele>1762.71</ele>
        <time>2014-03-11T15:56:41Z</time>
      </trkpt>
      <trkpt lat="42.64899" lon="1.70359">
        <ele>1771.85</ele>
        <time>2014-03-11T15:57:10Z</time>
      </trkpt>
      <trkpt lat="42.64894" lon="1.7036">
        <ele>1781.94</ele>
        <time>2014-03-11T15:57:42Z</time>
      </trkpt>
      <trkpt lat="42.64881" lon="1.70347">
        <ele>1782.9</ele>
        <time>2014-03-11T15:58:13Z</time>
      </trkpt>
      <trkpt lat="42.64894" lon="1.70359">
        <ele>1786.27</ele>
        <time>2014-03-11T15:58:32Z</time>
      </trkpt>
      <trkpt lat="42.64886" lon="1.70342">
        <ele>1777.61</ele>
        <time>2014-03-11T15:58:46Z</time>
      </trkpt>
      <trkpt lat="42.64886" lon="1.70333">
        <ele>1766.56</ele>
        <time>2014-03-11T15:58:58Z</time>
      </trkpt>
      <trkpt lat="42.64894" lon="1.7034">
        <ele>1770.41</ele>
        <time>2014-03-11T15:59:25Z</time>
      </trkpt>
      <trkpt lat="42.64886" lon="1.70349">
        <ele>1770.89</ele>
        <time>2014-03-11T15:59:48Z</time>
      </trkpt>
      <trkpt lat="42.649" lon="1.70339">
        <ele>1770.89</ele>
        <time>2014-03-11T16:00:06Z</time>
      </trkpt>
      <trkpt lat="42.64925" lon="1.70326">
        <ele>1769.44</ele>
        <time>2014-03-11T16:01:10Z</time>
      </trkpt>
      <trkpt lat="42.64883" lon="1.70334">
        <ele>1747.81</ele>
        <time>2014-03-11T16:01:32Z</time>
      </trkpt>
      <trkpt lat="42.64863" lon="1.70343">
        <ele>1737.24</ele>
        <time>2014-03-11T16:02:00Z</time>
      </trkpt>
      <trkpt lat="42.64862" lon="1.7034">
        <ele>1736.28</ele>
        <time>2014-03-11T16:02:28Z</time>
      </trkpt>
      <trkpt lat="42.6487" lon="1.70324">
        <ele>1726.18</ele>
        <time>2014-03-11T16:03:00Z</time>
      </trkpt>
      <trkpt lat="42.64871" lon="1.70334">
        <ele>1723.3</ele>
        <time>2014-03-11T16:03:28Z</time>
      </trkpt>
      <trkpt lat="42.64867" lon="1.70345">
        <ele>1717.53</ele>
        <time>2014-03-11T16:04:07Z</time>
      </trkpt>
      <trkpt lat="42.64867" lon="1.70339">
        <ele>1712.25</ele>
        <time>2014-03-11T16:04:31Z</time>
      </trkpt>
      <trkpt lat="42.64877" lon="1.70324">
        <ele>1706.96</ele>
        <time>2014-03-11T16:04:58Z</time>
      </trkpt>
      <trkpt lat="42.64877" lon="1.70324">
        <ele>1697.83</ele>
        <time>2014-03-11T16:05:29Z</time>
      </trkpt>
      <trkpt lat="42.64876" lon="1.70325">
        <ele>1695.9</ele>
        <time>2014-03-11T16:06:02Z</time>
      </trkpt>
      <trkpt lat="42.64878" lon="1.70325">
        <ele>1696.86</ele>
        <time>2014-03-11T16:06:31Z</time>
      </trkpt>
      <trkpt lat="42.64884" lon="1.70316">
        <ele>1698.31</ele>
        <time>2014-03-11T16:07:04Z</time>
      </trkpt>
      <trkpt lat="42.64885" lon="1.70315">
        <ele>1693.5</ele>
        <time>2014-03-11T16:07:42Z</time>
      </trkpt>
      <trkpt lat="42.64871" lon="1.7034">
        <ele>1685.33</ele>
        <time>2014-03-11T16:08:19Z</time>
      </trkpt>
      <trkpt lat="42.64883" lon="1.70354">
        <ele>1684.37</ele>
        <time>2014-03-11T16:09:35Z</time>
      </trkpt>
      <trkpt lat="42.64886" lon="1.7034">
        <ele>1685.33</ele>
        <time>2014-03-11T16:09:57Z</time>
      </trkpt>
      <trkpt lat="42.64877" lon="1.70352">
        <ele>1686.29</ele>
        <time>2014-03-11T16:10:18Z</time>
      </trkpt>
      <trkpt lat="42.64863" lon="1.70365">
        <ele>1687.25</ele>
        <time>2014-03-11T16:10:41Z</time>
      </trkpt>
      <trkpt lat="42.64857" lon="1.70369">
        <ele>1686.29</ele>
        <time>2014-03-11T16:11:02Z</time>
      </trkpt>
      <trkpt lat="42.64844" lon="1.70377">
        <ele>1684.85</ele>
        <time>2014-03-11T16:11:24Z</time>
      </trkpt>
      <trkpt lat="42.64829" lon="1.70398">
        <ele>1684.37</ele>
        <time>2014-03-11T16:12:38Z</time>
      </trkpt>
      <trkpt lat="42.64839" lon="1.70382">
        <ele>1680.04</ele>
        <time>2014-03-11T16:13:10Z</time>
      </trkpt>
      <trkpt lat="42.64854" lon="1.70356">
        <ele>1679.56</ele>
        <time>2014-03-11T16:13:36Z</time>
      </trkpt>
      <trkpt lat="42.64861" lon="1.7035">
        <ele>1675.23</ele>
        <time>2014-03-11T16:14:01Z</time>
      </trkpt>
      <trkpt lat="42.64864" lon="1.70346">
        <ele>1672.83</ele>
        <time>2014-03-11T16:14:26Z</time>
      </trkpt>
      <trkpt lat="42.6489" lon="1.70318">
        <ele>1672.83</ele>
        <time>2014-03-11T16:20:14Z</time>
      </trkpt>
      <trkpt lat="42.64878" lon="1.70325">
        <ele>1671.39</ele>
        <time>2014-03-11T16:20:40Z</time>
      </trkpt>
      <trkpt lat="42.64878" lon="1.70318">
        <ele>1655.53</ele>
        <time>2014-03-11T16:21:05Z</time>
      </trkpt>
      <trkpt lat="42.64887" lon="1.70324">
        <ele>1650.24</ele>
        <time>2014-03-11T16:21:33Z</time>
      </trkpt>
      <trkpt lat="42.64893" lon="1.7033">
        <ele>1652.64</ele>
        <time>2014-03-11T16:21:58Z</time>
      </trkpt>
      <trkpt lat="42.64897" lon="1.70326">
        <ele>1648.32</ele>
        <time>2014-03-11T16:22:33Z</time>
      </trkpt>
      <trkpt lat="42.64899" lon="1.70325">
        <ele>1656.01</ele>
        <time>2014-03-11T16:23:04Z</time>
      </trkpt>
      <trkpt lat="42.64902" lon="1.70321">
        <ele>1660.81</ele>
        <time>2014-03-11T16:23:34Z</time>
      </trkpt>
    </trkseg>
  </trk>
</gpx>